Darstellungsparameter: Aktuell verwendete Einstellungen:
Skalierung der Graphiken ... ?
xyx+y,   Skalierungsfaktor:      Skalierung: Modus: x, Faktor: 1
Darstellungszeitraum ... ?
Vom - - bis: - -   Zeitraum: 04.12.2020 - 03.03.2021
Min/Max/Avg-Anzeige ... ?
Zeige MMA aktuell
Zeige MMA Monat
Zeige MMA alles
Zeige --A aktuell
Zeige --A Monat
Zeige --A alles
Keine MMA-Anzeige
MMA:
Average (ber die Originaldaten)
MMA-Basis: 23.02.2003 - 03.08.2020
Quicknavigation für Darstellung... ?
Tage:      1T, 2T, 3T, 5T -1T -2T -3T -5T +1T +2T +3T +5T
Wochen: 1W, 2W, 3W -1W -2W -3W +1W +2W +3W
Monate: 1M, 3M, 6M -1M -3M -6M +1M +3M +6M
Jahre:    1J, 3J, 5J, 10J -1J -3J -5J -10J +1J +3J +5J +10J
Nutze für die Darstellung ... ?
Originaldaten oder ...
Mittelwerte Minima Maxima auf...
Stundenbasis Tagesbasis Wochenbasis
Monatsbasis Jahresbasis      Datenbasis: Mittelwerte auf Stundenbasis
Darstellen als:
Statistik (Auto) Statistik J:M      Darstellung:
Zur Graphik,    zurück zur Übersicht aller Sensoren.
 
Tabellarische Datenbersicht: ?
 
Sensor: Nr:Datum:Temp:Abs-Feuchte:Windchill:Wind:
Aussen-T/F 1 04-12-2020 00:00:00 3.2 C 5.48 g/m*3 1.08 C 7.775 km/h
2 04-12-2020 01:00:00 3.00833 C 5.41 g/m*3 -0.09 C 11.69167 km/h
3 04-12-2020 02:00:00 2.875 C 5.39 g/m*3 -0.17 C 11.29167 km/h
4 04-12-2020 03:00:00 3.05833 C 5.54 g/m*3 0.61 C 8.88333 km/h
5 04-12-2020 04:00:00 3.23333 C 5.62 g/m*3 0.04 C 12.36667 km/h
6 04-12-2020 05:00:00 3.40833 C 5.7 g/m*3 2.02 C 5.64167 km/h
7 04-12-2020 06:00:00 3.675 C 5.89 g/m*3 3.68 C 4.00833 km/h
8 04-12-2020 07:00:00 3.775 C 5.95 g/m*3 3.78 C 2.675 km/h
9 04-12-2020 08:00:00 4.10833 C 6.14 g/m*3 4.11 C 3.35 km/h
10 04-12-2020 09:00:00 4.63333 C 6.37 g/m*3 4.63 C 3.6 km/h
11 04-12-2020 10:00:00 5.36667 C 6.68 g/m*3 5.37 C 3.475 km/h
12 04-12-2020 11:00:00 6.05 C 6.98 g/m*3 6.05 C 2.675 km/h
13 04-12-2020 12:00:00 6.975 C 7.25 g/m*3 6.98 C 1.6 km/h
14 04-12-2020 13:00:00 7.325 C 7.29 g/m*3 7.33 C 2.26667 km/h
15 04-12-2020 14:00:00 7.64167 C 7.39 g/m*3 7.64 C 0.13333 km/h
16 04-12-2020 15:00:00 7.05 C 7.16 g/m*3 7.05 C 0.93333 km/h
17 04-12-2020 16:00:00 6.11667 C 6.8 g/m*3 6.12 C 2 km/h
18 04-12-2020 17:00:00 5.19167 C 6.46 g/m*3 5.19 C 3.2 km/h
19 04-12-2020 18:00:00 4.5 C 6.22 g/m*3 4.5 C 4.53333 km/h
20 04-12-2020 19:00:00 3.68333 C 5.92 g/m*3 3.68 C 3.33333 km/h
21 04-12-2020 20:00:00 3.84167 C 6.03 g/m*3 3.84 C 0 km/h
22 04-12-2020 21:00:00 3.34167 C 5.84 g/m*3 3.34 C 0 km/h
23 04-12-2020 22:00:00 3.35833 C 5.85 g/m*3 3.36 C 0 km/h
24 04-12-2020 23:00:00 4.35 C 6.31 g/m*3 4.35 C 1.60833 km/h
25 05-12-2020 00:00:00 4.50833 C 6.38 g/m*3 4.51 C 0 km/h
Sensor: Nr:Datum:Temp:Abs-Feuchte:Windchill:Wind:
Aussen-T/F 26 05-12-2020 01:00:00 4.41667 C 6.34 g/m*3 4.42 C 0 km/h
27 05-12-2020 02:00:00 4.40833 C 6.34 g/m*3 4.41 C 0 km/h
28 05-12-2020 03:00:00 4.49167 C 6.37 g/m*3 4.49 C 0 km/h
29 05-12-2020 04:00:00 4.29167 C 6.28 g/m*3 4.29 C 0 km/h
30 05-12-2020 05:00:00 3.8 C 6.05 g/m*3 3.8 C 0 km/h
31 05-12-2020 06:00:00 3.75833 C 6.07 g/m*3 3.76 C 0 km/h
32 05-12-2020 07:00:00 3.74167 C 6.06 g/m*3 3.74 C 0 km/h
33 05-12-2020 08:00:00 3.73333 C 6.06 g/m*3 3.73 C 0 km/h
34 05-12-2020 09:00:00 4.46667 C 6.36 g/m*3 4.47 C 0 km/h
35 05-12-2020 10:00:00 4.575 C 6.41 g/m*3 4.58 C 0 km/h
36 05-12-2020 11:00:00 4.45833 C 6.36 g/m*3 4.46 C 2.93333 km/h
37 05-12-2020 12:00:00 5.35833 C 6.77 g/m*3 5.36 C 1.46667 km/h
38 05-12-2020 13:00:00 5.45 C 6.44 g/m*3 5.45 C 4.81667 km/h
39 05-12-2020 14:00:00 5.69167 C 6.46 g/m*3 5.69 C 1.06667 km/h
40 05-12-2020 15:00:00 4.29167 C 5.96 g/m*3 4.29 C 3.46667 km/h
41 05-12-2020 16:00:00 3.075 C 5.59 g/m*3 3.08 C 0.53333 km/h
42 05-12-2020 17:00:00 2.70833 C 5.52 g/m*3 2.71 C 2.93333 km/h
43 05-12-2020 18:00:00 2.86667 C 5.62 g/m*3 2.87 C 0.13333 km/h
44 05-12-2020 19:00:00 3.63333 C 5.96 g/m*3 3.63 C 0 km/h
45 05-12-2020 20:00:00 3.88333 C 6.06 g/m*3 3.88 C 0 km/h
46 05-12-2020 21:00:00 4.075 C 6.13 g/m*3 4.08 C 0 km/h
47 05-12-2020 22:00:00 3.94167 C 6.08 g/m*3 3.94 C 0.53333 km/h
48 05-12-2020 23:00:00 3.44167 C 5.82 g/m*3 3.44 C 1.34167 km/h
49 06-12-2020 00:00:00 2.53333 C 5.47 g/m*3 2.53 C 0.53333 km/h
50 06-12-2020 01:00:00 2.24167 C 5.4 g/m*3 2.24 C 0.13333 km/h
Sensor: Nr:Datum:Temp:Abs-Feuchte:Windchill:Wind:
Aussen-T/F 51 06-12-2020 02:00:00 2.3 C 5.44 g/m*3 2.3 C 0 km/h
52 06-12-2020 03:00:00 2.81667 C 5.64 g/m*3 2.82 C 0.26667 km/h
53 06-12-2020 04:00:00 3.15833 C 5.77 g/m*3 3.16 C 0 km/h
54 06-12-2020 05:00:00 3.2 C 5.8 g/m*3 3.2 C 0 km/h
55 06-12-2020 06:00:00 3.29167 C 5.84 g/m*3 3.29 C 0 km/h
56 06-12-2020 07:00:00 3.3 C 5.82 g/m*3 3.3 C 0 km/h
57 06-12-2020 08:00:00 3.31667 C 5.85 g/m*3 3.32 C 0 km/h
58 06-12-2020 09:00:00 3.59167 C 6 g/m*3 3.59 C 0 km/h
59 06-12-2020 10:00:00 3.91667 C 6.13 g/m*3 3.92 C 1.06667 km/h
60 06-12-2020 11:00:00 4.18333 C 6.24 g/m*3 4.18 C 0.8 km/h
61 06-12-2020 12:00:00 4.45833 C 6.36 g/m*3 4.46 C 1.46667 km/h
62 06-12-2020 13:00:00 4.775 C 6.47 g/m*3 4.78 C 1.6 km/h
63 06-12-2020 14:00:00 4.9 C 6.48 g/m*3 4.9 C 0.4 km/h
64 06-12-2020 15:00:00 5.00833 C 6.54 g/m*3 5.01 C 0 km/h
65 06-12-2020 16:00:00 4.94167 C 6.5 g/m*3 4.94 C 0 km/h
66 06-12-2020 17:00:00 4.8 C 6.47 g/m*3 4.8 C 1.73333 km/h
67 06-12-2020 18:00:00 4.75 C 6.42 g/m*3 4.75 C 2.13333 km/h
68 06-12-2020 19:00:00 4.7 C 6.44 g/m*3 4.7 C 0.66667 km/h
69 06-12-2020 20:00:00 4.625 C 6.4 g/m*3 4.63 C 1.6 km/h
70 06-12-2020 21:00:00 4.575 C 6.41 g/m*3 4.58 C 2 km/h
71 06-12-2020 22:00:00 4.5 C 6.38 g/m*3 4.5 C 0 km/h
72 06-12-2020 23:00:00 4.41667 C 6.34 g/m*3 4.42 C 0 km/h
73 07-12-2020 00:00:00 4.325 C 6.29 g/m*3 4.33 C 0.8 km/h
74 07-12-2020 01:00:00 4.3 C 6.29 g/m*3 4.3 C 0.8 km/h
75 07-12-2020 02:00:00 4.20833 C 6.25 g/m*3 4.21 C 0.66667 km/h
Sensor: Nr:Datum:Temp:Abs-Feuchte:Windchill:Wind:
Aussen-T/F 76 07-12-2020 03:00:00 4.1 C 6.21 g/m*3 4.1 C 1.73333 km/h
77 07-12-2020 04:00:00 4 C 6.17 g/m*3 4 C 0.93333 km/h
78 07-12-2020 05:00:00 3.875 C 6.12 g/m*3 3.88 C 0.66667 km/h
79 07-12-2020 06:00:00 3.9 C 6.13 g/m*3 3.9 C 3.2 km/h
80 07-12-2020 07:00:00 3.81667 C 6.09 g/m*3 3.82 C 1.46667 km/h
81 07-12-2020 08:00:00 3.825 C 6.1 g/m*3 3.83 C 4.80833 km/h
82 07-12-2020 09:00:00 3.94167 C 6.14 g/m*3 2.85 C 5.08333 km/h
83 07-12-2020 10:00:00 4.46667 C 6.36 g/m*3 4.47 C 4.13333 km/h
84 07-12-2020 11:00:00 5.05 C 6.58 g/m*3 3.18 C 8.05 km/h
85 07-12-2020 12:00:00 5.55833 C 6.63 g/m*3 3.55 C 9 km/h
86 07-12-2020 13:00:00 6.125 C 6.58 g/m*3 4.15 C 9.29167 km/h
87 07-12-2020 14:00:00 6.28333 C 6.56 g/m*3 6.28 C 3.60833 km/h
88 07-12-2020 15:00:00 5.9 C 6.49 g/m*3 5.9 C 2.26667 km/h
89 07-12-2020 16:00:00 5.325 C 6.37 g/m*3 5.33 C 1.06667 km/h
90 07-12-2020 17:00:00 4.86667 C 6.29 g/m*3 4.87 C 1.06667 km/h
91 07-12-2020 18:00:00 4.44167 C 6.15 g/m*3 4.44 C 0.8 km/h
92 07-12-2020 19:00:00 3.15833 C 5.64 g/m*3 3.16 C 3.2 km/h
93 07-12-2020 20:00:00 1.88333 C 5.21 g/m*3 1.88 C 4.4 km/h
94 07-12-2020 21:00:00 1.85 C 5.27 g/m*3 1.85 C 1.46667 km/h
95 07-12-2020 22:00:00 2.51667 C 5.52 g/m*3 2.52 C 0 km/h
96 07-12-2020 23:00:00 2.80833 C 5.63 g/m*3 2.81 C 0 km/h
97 08-12-2020 00:00:00 3.075 C 5.74 g/m*3 3.08 C 0 km/h
98 08-12-2020 01:00:00 3.10833 C 5.75 g/m*3 3.11 C 0 km/h
99 08-12-2020 02:00:00 3.00833 C 5.72 g/m*3 3.01 C 0 km/h
100 08-12-2020 03:00:00 2.875 C 5.69 g/m*3 2.88 C 0.26667 km/h
Sensor: Nr:Datum:Temp:Abs-Feuchte:Windchill:Wind:
Aussen-T/F 101 08-12-2020 04:00:00 3.225 C 5.86 g/m*3 3.23 C 0 km/h
102 08-12-2020 05:00:00 3.11667 C 5.76 g/m*3 3.12 C 0.8 km/h
103 08-12-2020 06:00:00 2.93333 C 5.67 g/m*3 2.93 C 0.66667 km/h
104 08-12-2020 07:00:00 2.9 C 5.61 g/m*3 2.9 C 0 km/h
105 08-12-2020 08:00:00 2.66667 C 5.49 g/m*3 2.67 C 0.4 km/h
106 08-12-2020 09:00:00 2.75833 C 5.56 g/m*3 2.76 C 0 km/h
107 08-12-2020 10:00:00 3.40833 C 5.71 g/m*3 3.41 C 3.75 km/h
108 08-12-2020 11:00:00 4.35833 C 5.81 g/m*3 4.36 C 4.275 km/h
109 08-12-2020 12:00:00 4.95 C 5.79 g/m*3 4.95 C 4.55833 km/h
110 08-12-2020 13:00:00 5.35833 C 5.83 g/m*3 4.36 C 5.35833 km/h
111 08-12-2020 14:00:00 5.71667 C 5.9 g/m*3 5.72 C 4.81667 km/h
112 08-12-2020 15:00:00 5.78333 C 6.05 g/m*3 5.78 C 0.93333 km/h
113 08-12-2020 16:00:00 5.175 C 6.07 g/m*3 5.18 C 0.66667 km/h
114 08-12-2020 17:00:00 4.45 C 5.97 g/m*3 4.45 C 1.6 km/h
115 08-12-2020 18:00:00 3.625 C 5.73 g/m*3 3.63 C 1.2 km/h
116 08-12-2020 19:00:00 2.8 C 5.46 g/m*3 2.8 C 0.26667 km/h
117 08-12-2020 20:00:00 2.3 C 5.33 g/m*3 2.3 C 0 km/h
118 08-12-2020 21:00:00 1.79167 C 5.17 g/m*3 1.79 C 0 km/h
119 08-12-2020 22:00:00 0.94167 C 4.91 g/m*3 0.94 C 0 km/h
120 08-12-2020 23:00:00 0.475 C 4.76 g/m*3 0.48 C 0 km/h
121 09-12-2020 00:00:00 0.175 C 4.68 g/m*3 0.18 C 0 km/h
122 09-12-2020 01:00:00 0.84167 C 4.93 g/m*3 0.84 C 0 km/h
123 09-12-2020 02:00:00 1.35833 C 5.11 g/m*3 1.36 C 0 km/h
124 09-12-2020 03:00:00 1.69167 C 5.26 g/m*3 1.69 C 0 km/h
125 09-12-2020 04:00:00 2.31667 C 5.51 g/m*3 2.32 C 1.73333 km/h
Sensor: Nr:Datum:Temp:Abs-Feuchte:Windchill:Wind:
Aussen-T/F 126 09-12-2020 05:00:00 2.80833 C 5.68 g/m*3 2.81 C 3.20833 km/h
127 09-12-2020 06:00:00 3 C 5.66 g/m*3 3 C 3.34167 km/h
128 09-12-2020 07:00:00 3.175 C 5.57 g/m*3 1.66 C 5.90833 km/h
129 09-12-2020 08:00:00 3.24167 C 5.54 g/m*3 3.24 C 3.20833 km/h
130 09-12-2020 09:00:00 3.21667 C 5.55 g/m*3 3.22 C 0.26667 km/h
131 09-12-2020 10:00:00 3.425 C 5.62 g/m*3 3.43 C 0.13333 km/h
132 09-12-2020 11:00:00 3.75 C 5.66 g/m*3 3.75 C 0.66667 km/h
133 09-12-2020 12:00:00 4.16667 C 5.74 g/m*3 4.17 C 0.8 km/h
134 09-12-2020 13:00:00 4.59167 C 5.78 g/m*3 3.34 C 5.75833 km/h
135 09-12-2020 14:00:00 4.525 C 5.53 g/m*3 2.42 C 8.6 km/h
136 09-12-2020 15:00:00 3.775 C 5.32 g/m*3 2.4 C 5.75833 km/h
137 09-12-2020 16:00:00 2.30833 C 5 g/m*3 2.31 C 4.13333 km/h
138 09-12-2020 17:00:00 0.85833 C 4.69 g/m*3 0.86 C 2.13333 km/h
139 09-12-2020 18:00:00 -0.05833 C 4.47 g/m*3 -0.06 C 1.2 km/h
140 09-12-2020 19:00:00 -0.25833 C 4.49 g/m*3 -0.26 C 3.33333 km/h
141 09-12-2020 20:00:00 0.31667 C 4.7 g/m*3 0.32 C 1.6 km/h
142 09-12-2020 21:00:00 0.70833 C 4.8 g/m*3 0.71 C 1.06667 km/h
143 09-12-2020 22:00:00 1.03333 C 4.86 g/m*3 1.03 C 1.2 km/h
144 09-12-2020 23:00:00 1.19167 C 4.87 g/m*3 1.19 C 1.6 km/h
145 10-12-2020 00:00:00 1.36667 C 4.88 g/m*3 1.37 C 1.06667 km/h
146 10-12-2020 01:00:00 1.41667 C 4.9 g/m*3 1.42 C 0.53333 km/h
147 10-12-2020 02:00:00 1.55833 C 4.95 g/m*3 1.56 C 0.66667 km/h
148 10-12-2020 03:00:00 1.59167 C 4.94 g/m*3 1.59 C 1.33333 km/h
149 10-12-2020 04:00:00 0.81667 C 4.67 g/m*3 0.82 C 1.2 km/h
150 10-12-2020 05:00:00 -0.3 C 4.39 g/m*3 -0.3 C 0.26667 km/h
Sensor: Nr:Datum:Temp:Abs-Feuchte:Windchill:Wind:
Aussen-T/F 151 10-12-2020 06:00:00 -0.875 C 4.28 g/m*3 -0.88 C 0 km/h
152 10-12-2020 07:00:00 -1.375 C 4.14 g/m*3 -1.38 C 0 km/h
153 10-12-2020 08:00:00 -1.78333 C 4.06 g/m*3 -1.78 C 0 km/h
154 10-12-2020 09:00:00 -1.85 C 4.05 g/m*3 -1.85 C 0 km/h
155 10-12-2020 10:00:00 -1.39167 C 4.22 g/m*3 -1.39 C 0 km/h
156 10-12-2020 11:00:00 -0.50833 C 4.49 g/m*3 -0.51 C 2.4 km/h
157 10-12-2020 12:00:00 0.05 C 4.67 g/m*3 0.05 C 1.06667 km/h
158 10-12-2020 13:00:00 0.46667 C 4.82 g/m*3 0.47 C 0.26667 km/h
159 10-12-2020 14:00:00 1.175 C 5.05 g/m*3 1.18 C 0.8 km/h
160 10-12-2020 15:00:00 1.1 C 4.9 g/m*3 1.1 C 1.46667 km/h
161 10-12-2020 16:00:00 1.175 C 4.84 g/m*3 1.18 C 0.26667 km/h
162 10-12-2020 17:00:00 0.925 C 4.74 g/m*3 0.93 C 0 km/h
163 10-12-2020 18:00:00 0.74167 C 4.67 g/m*3 0.74 C 0 km/h
164 10-12-2020 19:00:00 0.63333 C 4.67 g/m*3 0.63 C 0 km/h
165 10-12-2020 20:00:00 0.81667 C 4.77 g/m*3 0.82 C 0 km/h
166 10-12-2020 21:00:00 0.99167 C 4.82 g/m*3 0.99 C 0.26667 km/h
167 10-12-2020 22:00:00 1.175 C 4.89 g/m*3 1.18 C 0.13333 km/h
168 10-12-2020 23:00:00 1.23333 C 4.87 g/m*3 1.23 C 0.8 km/h
169 11-12-2020 00:00:00 1.39167 C 4.9 g/m*3 1.39 C 0.26667 km/h
170 11-12-2020 01:00:00 1.2 C 4.82 g/m*3 1.2 C 0 km/h
171 11-12-2020 02:00:00 0.325 C 4.59 g/m*3 0.33 C 0.66667 km/h
172 11-12-2020 03:00:00 0.925 C 4.82 g/m*3 0.93 C 2.54167 km/h
173 11-12-2020 04:00:00 0.65833 C 4.69 g/m*3 0.66 C 1.2 km/h
174 11-12-2020 05:00:00 0.15833 C 4.57 g/m*3 0.16 C 1.86667 km/h
175 11-12-2020 06:00:00 0.54167 C 4.74 g/m*3 0.54 C 4.55 km/h
Sensor: Nr:Datum:Temp:Abs-Feuchte:Windchill:Wind:
Aussen-T/F 176 11-12-2020 07:00:00 1.64167 C 4.93 g/m*3 1.64 C 3.34167 km/h
177 11-12-2020 08:00:00 2.14167 C 4.96 g/m*3 2.14 C 4.825 km/h
178 11-12-2020 09:00:00 2.575 C 5.07 g/m*3 0.97 C 5.9 km/h
179 11-12-2020 10:00:00 3.125 C 5.21 g/m*3 3.13 C 4.00833 km/h
180 11-12-2020 11:00:00 3.44167 C 5.38 g/m*3 1.83 C 6.29167 km/h
181 11-12-2020 12:00:00 3.7 C 5.54 g/m*3 2.47 C 5.34167 km/h
182 11-12-2020 13:00:00 4.44167 C 5.66 g/m*3 2.85 C 6.71667 km/h
183 11-12-2020 14:00:00 4.49167 C 5.58 g/m*3 2.28 C 9.025 km/h
184 11-12-2020 15:00:00 4.05833 C 5.56 g/m*3 2.16 C 7.51667 km/h
185 11-12-2020 16:00:00 3.63333 C 5.58 g/m*3 1.91 C 6.71667 km/h
186 11-12-2020 17:00:00 3.71667 C 5.66 g/m*3 1.47 C 8.58333 km/h
187 11-12-2020 18:00:00 3.68333 C 5.71 g/m*3 2.15 C 6.16667 km/h
188 11-12-2020 19:00:00 3.79167 C 5.76 g/m*3 2.01 C 6.98333 km/h
189 11-12-2020 20:00:00 3.94167 C 5.83 g/m*3 3.94 C 1.6 km/h
190 11-12-2020 21:00:00 3.925 C 5.86 g/m*3 3.93 C 0 km/h
191 11-12-2020 22:00:00 3.825 C 5.85 g/m*3 3.83 C 0 km/h
192 11-12-2020 23:00:00 3.85 C 5.92 g/m*3 3.85 C 0 km/h
193 12-12-2020 00:00:00 3.81667 C 5.94 g/m*3 3.82 C 0.4 km/h
194 12-12-2020 01:00:00 4.05 C 6.06 g/m*3 4.05 C 0.66667 km/h
195 12-12-2020 02:00:00 4.40833 C 6.22 g/m*3 4.41 C 1.2 km/h
196 12-12-2020 03:00:00 4.80833 C 6.38 g/m*3 4.81 C 0 km/h
197 12-12-2020 04:00:00 4.9 C 6.41 g/m*3 4.9 C 0 km/h
198 12-12-2020 05:00:00 4.90833 C 6.42 g/m*3 4.91 C 0 km/h
199 12-12-2020 06:00:00 5.05833 C 6.48 g/m*3 5.06 C 0 km/h
200 12-12-2020 07:00:00 5.15 C 6.58 g/m*3 5.15 C 0.4 km/h
Sensor: Nr:Datum:Temp:Abs-Feuchte:Windchill:Wind:
Aussen-T/F 201 12-12-2020 08:00:00 5.28333 C 6.65 g/m*3 5.28 C 0 km/h
202 12-12-2020 09:00:00 5.625 C 6.8 g/m*3 5.63 C 0 km/h
203 12-12-2020 10:00:00 6.16667 C 7.03 g/m*3 6.17 C 0 km/h
204 12-12-2020 11:00:00 6.80833 C 7.18 g/m*3 6.81 C 0 km/h
205 12-12-2020 12:00:00 7.4 C 7.31 g/m*3 7.4 C 0.4 km/h
206 12-12-2020 13:00:00 7.7 C 7.38 g/m*3 7.7 C 0.66667 km/h
207 12-12-2020 14:00:00 7.68333 C 7.44 g/m*3 7.68 C 0.26667 km/h
208 12-12-2020 15:00:00 7.475 C 7.53 g/m*3 7.48 C 0 km/h
209 12-12-2020 16:00:00 7.2 C 7.43 g/m*3 7.2 C 0 km/h
210 12-12-2020 17:00:00 6.7 C 7.21 g/m*3 6.7 C 0 km/h
211 12-12-2020 18:00:00 6.66667 C 7.23 g/m*3 6.67 C 0 km/h
212 12-12-2020 19:00:00 6.36667 C 7.12 g/m*3 6.37 C 0 km/h
213 12-12-2020 20:00:00 6.66667 C 7.28 g/m*3 6.67 C 0.13333 km/h
214 12-12-2020 21:00:00 6.675 C 7.29 g/m*3 6.68 C 0 km/h
215 12-12-2020 22:00:00 6.55 C 7.27 g/m*3 6.55 C 0 km/h
216 12-12-2020 23:00:00 6.2 C 7.1 g/m*3 6.2 C 0 km/h
217 13-12-2020 00:00:00 6.35833 C 7.21 g/m*3 6.36 C 0 km/h
218 13-12-2020 01:00:00 6.18333 C 7.13 g/m*3 6.18 C 0 km/h
219 13-12-2020 02:00:00 6.40833 C 7.23 g/m*3 6.41 C 0 km/h
220 13-12-2020 03:00:00 6.83333 C 7.43 g/m*3 6.83 C 0.13333 km/h
221 13-12-2020 04:00:00 7.23333 C 7.63 g/m*3 7.23 C 2.8 km/h
222 13-12-2020 05:00:00 7.3 C 7.66 g/m*3 7.3 C 0 km/h
223 13-12-2020 06:00:00 7.275 C 7.65 g/m*3 7.28 C 1.46667 km/h
224 13-12-2020 07:00:00 7.30833 C 7.67 g/m*3 7.31 C 2.53333 km/h
225 13-12-2020 08:00:00 7.21667 C 7.62 g/m*3 7.22 C 2.4 km/h
Sensor: Nr:Datum:Temp:Abs-Feuchte:Windchill:Wind:
Aussen-T/F 226 13-12-2020 09:00:00 7.24167 C 7.64 g/m*3 7.24 C 1.2 km/h
227 13-12-2020 10:00:00 6.45833 C 7.25 g/m*3 6.46 C 2.53333 km/h
228 13-12-2020 11:00:00 6.39167 C 7.22 g/m*3 5.31 C 6.03333 km/h
229 13-12-2020 12:00:00 6.6 C 7.2 g/m*3 5.47 C 6.31667 km/h
230 13-12-2020 13:00:00 7.825 C 7.25 g/m*3 7.09 C 5.61667 km/h
231 13-12-2020 14:00:00 7.675 C 7.03 g/m*3 7.68 C 4.28333 km/h
232 13-12-2020 15:00:00 6.46667 C 6.66 g/m*3 6.47 C 4.26667 km/h
233 13-12-2020 16:00:00 5.325 C 6.31 g/m*3 5.33 C 4.93333 km/h
234 13-12-2020 17:00:00 4.04167 C 5.9 g/m*3 4.04 C 4.8 km/h
235 13-12-2020 18:00:00 3.5 C 5.79 g/m*3 3.5 C 0 km/h
236 13-12-2020 19:00:00 3.6 C 5.88 g/m*3 3.6 C 0 km/h
237 13-12-2020 20:00:00 3.66667 C 5.93 g/m*3 3.67 C 0.4 km/h
238 13-12-2020 21:00:00 4.24167 C 6.16 g/m*3 4.24 C 1.06667 km/h
239 13-12-2020 22:00:00 3.49167 C 5.78 g/m*3 3.49 C 1.73333 km/h
240 13-12-2020 23:00:00 3.15 C 5.69 g/m*3 3.15 C 2.80833 km/h
241 14-12-2020 00:00:00 3.3 C 5.78 g/m*3 3.3 C 2.8 km/h
242 14-12-2020 01:00:00 3.90833 C 6.02 g/m*3 3.91 C 0 km/h
243 14-12-2020 02:00:00 4.44167 C 6.15 g/m*3 4.44 C 2 km/h
244 14-12-2020 03:00:00 4.04167 C 6 g/m*3 4.04 C 1.33333 km/h
245 14-12-2020 04:00:00 4.78333 C 6.36 g/m*3 4.78 C 0.26667 km/h
246 14-12-2020 05:00:00 5.15833 C 6.52 g/m*3 5.16 C 0 km/h
247 14-12-2020 06:00:00 5.3 C 6.52 g/m*3 5.3 C 0 km/h
248 14-12-2020 07:00:00 5.50833 C 6.59 g/m*3 5.51 C 0.13333 km/h
249 14-12-2020 08:00:00 5.675 C 6.6 g/m*3 5.68 C 1.06667 km/h
250 14-12-2020 09:00:00 6.21667 C 6.66 g/m*3 6.22 C 1.46667 km/h
Sensor: Nr:Datum:Temp:Abs-Feuchte:Windchill:Wind:
Aussen-T/F 251 14-12-2020 10:00:00 7.025 C 6.78 g/m*3 7.03 C 0.53333 km/h
252 14-12-2020 11:00:00 6.55833 C 6.71 g/m*3 6.56 C 0.93333 km/h
253 14-12-2020 12:00:00 6.48333 C 6.79 g/m*3 6.48 C 3.34167 km/h
254 14-12-2020 13:00:00 7.775 C 7.24 g/m*3 7.78 C 1.2 km/h
255 14-12-2020 14:00:00 9.05 C 7.22 g/m*3 9.05 C 2.26667 km/h
256 14-12-2020 15:00:00 8.89167 C 7.22 g/m*3 8.89 C 1.075 km/h
257 14-12-2020 16:00:00 7.40833 C 6.8 g/m*3 7.41 C 2.66667 km/h
258 14-12-2020 17:00:00 6.05 C 6.49 g/m*3 6.05 C 1.06667 km/h
259 14-12-2020 18:00:00 5.85833 C 6.51 g/m*3 5.86 C 0.8 km/h
260 14-12-2020 19:00:00 6.05 C 6.6 g/m*3 6.05 C 2.26667 km/h
261 14-12-2020 20:00:00 6.10833 C 6.65 g/m*3 6.11 C 0.13333 km/h
262 14-12-2020 21:00:00 6.28333 C 6.67 g/m*3 6.28 C 0.4 km/h
263 14-12-2020 22:00:00 7.24167 C 6.76 g/m*3 7.24 C 3.61667 km/h
264 14-12-2020 23:00:00 6.94167 C 6.71 g/m*3 6.94 C 0.26667 km/h
265 15-12-2020 00:00:00 6.70833 C 6.76 g/m*3 6.71 C 0.53333 km/h
266 15-12-2020 01:00:00 6.75 C 6.94 g/m*3 6.75 C 2 km/h
267 15-12-2020 02:00:00 6.775 C 7.11 g/m*3 6.78 C 1.2 km/h
268 15-12-2020 03:00:00 6.8 C 7.22 g/m*3 6.8 C 2.4 km/h
269 15-12-2020 04:00:00 6.8 C 7.27 g/m*3 6.8 C 0.8 km/h
270 15-12-2020 05:00:00 6.78333 C 7.33 g/m*3 6.78 C 0 km/h
271 15-12-2020 06:00:00 6.775 C 7.33 g/m*3 6.78 C 0 km/h
272 15-12-2020 07:00:00 6.73333 C 7.31 g/m*3 6.73 C 0.13333 km/h
273 15-12-2020 08:00:00 6.56667 C 7.26 g/m*3 6.57 C 0 km/h
274 15-12-2020 09:00:00 6.96667 C 7.5 g/m*3 6.97 C 0 km/h
275 15-12-2020 10:00:00 7.66667 C 7.85 g/m*3 7.67 C 0.66667 km/h
Sensor: Nr:Datum:Temp:Abs-Feuchte:Windchill:Wind:
Aussen-T/F 276 15-12-2020 11:00:00 8.45 C 8.26 g/m*3 8.45 C 1.06667 km/h
277 15-12-2020 12:00:00 9.00833 C 8.56 g/m*3 9.01 C 0.93333 km/h
278 15-12-2020 13:00:00 9.7 C 8.94 g/m*3 9.7 C 0 km/h
279 15-12-2020 14:00:00 9.80833 C 9 g/m*3 9.81 C 0 km/h
280 15-12-2020 15:00:00 9.91667 C 9.07 g/m*3 9.92 C 0 km/h
281 15-12-2020 16:00:00 9.86667 C 9.04 g/m*3 9.87 C 0.26667 km/h
282 15-12-2020 17:00:00 9.75833 C 8.98 g/m*3 9.76 C 0 km/h
283 15-12-2020 18:00:00 9.79167 C 8.99 g/m*3 9.79 C 2.8 km/h
284 15-12-2020 19:00:00 8.9 C 8.5 g/m*3 8.9 C 3.33333 km/h
285 15-12-2020 20:00:00 7.90833 C 7.97 g/m*3 7.91 C 2.675 km/h
286 15-12-2020 21:00:00 7.10833 C 7.56 g/m*3 7.11 C 1.86667 km/h
287 15-12-2020 22:00:00 6.225 C 7.14 g/m*3 6.23 C 0.13333 km/h
288 15-12-2020 23:00:00 5.91667 C 7.01 g/m*3 5.92 C 0.13333 km/h
289 16-12-2020 00:00:00 6.625 C 7.37 g/m*3 6.63 C 0.13333 km/h
290 16-12-2020 01:00:00 6.325 C 7.19 g/m*3 6.33 C 0.13333 km/h
291 16-12-2020 02:00:00 6.41667 C 7.3 g/m*3 6.42 C 0.26667 km/h
292 16-12-2020 03:00:00 6.73333 C 7.46 g/m*3 6.73 C 0.13333 km/h
293 16-12-2020 04:00:00 6.70833 C 7.45 g/m*3 6.71 C 0 km/h
294 16-12-2020 05:00:00 6.3 C 7.19 g/m*3 6.3 C 0 km/h
295 16-12-2020 06:00:00 6.425 C 7.3 g/m*3 6.43 C 0 km/h
296 16-12-2020 07:00:00 6.50833 C 7.35 g/m*3 6.51 C 0.13333 km/h
297 16-12-2020 08:00:00 7.15833 C 7.67 g/m*3 7.16 C 0 km/h
298 16-12-2020 09:00:00 7.44167 C 7.81 g/m*3 7.44 C 0 km/h
299 16-12-2020 10:00:00 8.43333 C 8.33 g/m*3 8.43 C 0.13333 km/h
300 16-12-2020 11:00:00 9.43333 C 8.88 g/m*3 9.43 C 0.4 km/h
Sensor: Nr:Datum:Temp:Abs-Feuchte:Windchill:Wind:
Aussen-T/F 301 16-12-2020 12:00:00 9.89167 C 9.15 g/m*3 9.89 C 4.275 km/h
302 16-12-2020 13:00:00 9.91667 C 9.06 g/m*3 9.92 C 4.41667 km/h
303 16-12-2020 14:00:00 9.76667 C 8.85 g/m*3 9.77 C 2.93333 km/h
304 16-12-2020 15:00:00 9.46667 C 8.65 g/m*3 9.47 C 0.4 km/h
305 16-12-2020 16:00:00 7.875 C 7.79 g/m*3 7.88 C 1.6 km/h
306 16-12-2020 17:00:00 7.125 C 7.51 g/m*3 7.13 C 2.93333 km/h
307 16-12-2020 18:00:00 6.875 C 7.41 g/m*3 6.88 C 3.06667 km/h
308 16-12-2020 19:00:00 7 C 7.52 g/m*3 7 C 2.13333 km/h
309 16-12-2020 20:00:00 6.71667 C 7.38 g/m*3 6.72 C 2 km/h
310 16-12-2020 21:00:00 6.31667 C 7.19 g/m*3 6.32 C 2.4 km/h
311 16-12-2020 22:00:00 6.85833 C 7.47 g/m*3 6.86 C 2.8 km/h
312 16-12-2020 23:00:00 7.23333 C 7.67 g/m*3 7.23 C 1.73333 km/h
313 17-12-2020 00:00:00 7.04167 C 7.54 g/m*3 7.04 C 2 km/h
314 17-12-2020 01:00:00 6.53333 C 7.29 g/m*3 6.53 C 2.13333 km/h
315 17-12-2020 02:00:00 6.225 C 7.16 g/m*3 6.23 C 0.66667 km/h
316 17-12-2020 03:00:00 7.05833 C 7.62 g/m*3 7.06 C 3.33333 km/h
317 17-12-2020 04:00:00 7.25 C 7.72 g/m*3 7.25 C 0.8 km/h
318 17-12-2020 05:00:00 7.2 C 7.69 g/m*3 7.2 C 1.86667 km/h
319 17-12-2020 06:00:00 7.25 C 7.7 g/m*3 7.25 C 2 km/h
320 17-12-2020 07:00:00 6.79167 C 7.45 g/m*3 6.79 C 1.2 km/h
321 17-12-2020 08:00:00 7.03333 C 7.61 g/m*3 7.03 C 0.66667 km/h
322 17-12-2020 09:00:00 7.79167 C 7.99 g/m*3 7.79 C 0.53333 km/h
323 17-12-2020 10:00:00 8.94167 C 8.61 g/m*3 8.94 C 2.80833 km/h
324 17-12-2020 11:00:00 9.04167 C 8.66 g/m*3 9.04 C 4.00833 km/h
325 17-12-2020 12:00:00 8.85833 C 8.4 g/m*3 7.71 C 7.8 km/h
Sensor: Nr:Datum:Temp:Abs-Feuchte:Windchill:Wind:
Aussen-T/F 326 17-12-2020 13:00:00 9.70833 C 8.36 g/m*3 8.34 C 9.65833 km/h
327 17-12-2020 14:00:00 10.175 C 8.27 g/m*3 9.2 C 8.05833 km/h
328 17-12-2020 15:00:00 9.58333 C 7.92 g/m*3 8.48 C 8.19167 km/h
329 17-12-2020 16:00:00 8.56667 C 7.57 g/m*3 7.57 C 6.95833 km/h
330 17-12-2020 17:00:00 7.29167 C 7.21 g/m*3 6.4 C 5.86667 km/h
331 17-12-2020 18:00:00 6.69167 C 7.11 g/m*3 6.69 C 3.86667 km/h
332 17-12-2020 19:00:00 5.05833 C 6.37 g/m*3 5.06 C 0.53333 km/h
333 17-12-2020 20:00:00 4.93333 C 6.46 g/m*3 4.93 C 3.2 km/h
334 17-12-2020 21:00:00 5.03333 C 6.54 g/m*3 5.03 C 0.8 km/h
335 17-12-2020 22:00:00 4.85 C 6.46 g/m*3 4.85 C 0.26667 km/h
336 17-12-2020 23:00:00 4.63333 C 6.39 g/m*3 4.63 C 0 km/h
337 18-12-2020 00:00:00 4.14167 C 6.18 g/m*3 4.14 C 0 km/h
338 18-12-2020 01:00:00 4.53333 C 6.39 g/m*3 4.53 C 0.53333 km/h
339 18-12-2020 02:00:00 4.24167 C 6.26 g/m*3 4.24 C 0 km/h
340 18-12-2020 03:00:00 3.4 C 5.9 g/m*3 3.4 C 0.13333 km/h
341 18-12-2020 04:00:00 4.05 C 6.19 g/m*3 4.05 C 0.26667 km/h
342 18-12-2020 05:00:00 3.79167 C 6.07 g/m*3 3.79 C 0.13333 km/h
343 18-12-2020 06:00:00 3.025 C 5.78 g/m*3 3.03 C 0 km/h
344 18-12-2020 07:00:00 2.59167 C 5.61 g/m*3 2.59 C 0.13333 km/h
345 18-12-2020 08:00:00 2.35 C 5.52 g/m*3 2.35 C 0 km/h
346 18-12-2020 09:00:00 2.45 C 5.56 g/m*3 2.45 C 0 km/h
347 18-12-2020 10:00:00 2.36667 C 5.53 g/m*3 2.37 C 0 km/h
348 18-12-2020 11:00:00 2.875 C 5.73 g/m*3 2.88 C 0.26667 km/h
349 18-12-2020 12:00:00 4.3 C 6.36 g/m*3 4.3 C 2.53333 km/h
350 18-12-2020 13:00:00 6.65833 C 7.43 g/m*3 6.66 C 0 km/h
Sensor: Nr:Datum:Temp:Abs-Feuchte:Windchill:Wind:
Aussen-T/F 351 18-12-2020 14:00:00 6.8 C 7.5 g/m*3 6.8 C 1.73333 km/h
352 18-12-2020 15:00:00 5.925 C 7.03 g/m*3 5.93 C 3.2 km/h
353 18-12-2020 16:00:00 5.38333 C 6.78 g/m*3 5.38 C 3.49167 km/h
354 18-12-2020 17:00:00 5.66667 C 6.92 g/m*3 5.67 C 3.34167 km/h
355 18-12-2020 18:00:00 4.95833 C 6.57 g/m*3 4.96 C 1.6 km/h
356 18-12-2020 19:00:00 4.88333 C 6.55 g/m*3 4.88 C 0.26667 km/h
357 18-12-2020 20:00:00 3.94167 C 6.14 g/m*3 3.94 C 0.4 km/h
358 18-12-2020 21:00:00 3.85 C 6.12 g/m*3 3.85 C 1.2 km/h
359 18-12-2020 22:00:00 5.53333 C 6.9 g/m*3 5.53 C 1.88333 km/h
360 18-12-2020 23:00:00 5.90833 C 7.07 g/m*3 5.91 C 0.93333 km/h
361 19-12-2020 00:00:00 4.98333 C 6.6 g/m*3 4.98 C 1.33333 km/h
362 19-12-2020 01:00:00 3.89167 C 6.12 g/m*3 3.89 C 2.26667 km/h
363 19-12-2020 02:00:00 3.79167 C 6.08 g/m*3 3.79 C 2.26667 km/h
364 19-12-2020 03:00:00 4.425 C 6.39 g/m*3 4.43 C 0.4 km/h
365 19-12-2020 04:00:00 4.20833 C 6.26 g/m*3 4.21 C 0.53333 km/h
366 19-12-2020 05:00:00 4.05 C 6.24 g/m*3 4.05 C 0.93333 km/h
367 19-12-2020 06:00:00 3.65833 C 6.04 g/m*3 3.66 C 1.46667 km/h
368 19-12-2020 07:00:00 3.3 C 5.88 g/m*3 3.3 C 1.06667 km/h
369 19-12-2020 08:00:00 2.99167 C 5.78 g/m*3 2.99 C 0 km/h
370 19-12-2020 09:00:00 2.5 C 5.59 g/m*3 2.5 C 0.26667 km/h
371 19-12-2020 10:00:00 2.94167 C 5.78 g/m*3 2.94 C 0.93333 km/h
372 19-12-2020 11:00:00 5.43333 C 6.85 g/m*3 5.43 C 3.46667 km/h
373 19-12-2020 12:00:00 7.04167 C 7.61 g/m*3 7.04 C 3.86667 km/h
374 19-12-2020 13:00:00 8.13333 C 8.19 g/m*3 8.13 C 3.86667 km/h
375 19-12-2020 14:00:00 9.1 C 8.7 g/m*3 9.1 C 3.33333 km/h
Sensor: Nr:Datum:Temp:Abs-Feuchte:Windchill:Wind:
Aussen-T/F 376 19-12-2020 15:00:00 9.36667 C 8.78 g/m*3 9.37 C 3.75 km/h
377 19-12-2020 16:00:00 8.89167 C 8.16 g/m*3 8.89 C 2.26667 km/h
378 19-12-2020 17:00:00 8.525 C 7.89 g/m*3 8.53 C 3.20833 km/h
379 19-12-2020 18:00:00 8.8 C 7.73 g/m*3 8.8 C 4.95833 km/h
380 19-12-2020 19:00:00 8.8 C 7.66 g/m*3 8.8 C 4.275 km/h
381 19-12-2020 20:00:00 8.825 C 7.71 g/m*3 8.82 C 4.68333 km/h
382 19-12-2020 21:00:00 8.75833 C 7.67 g/m*3 8.76 C 4.275 km/h
383 19-12-2020 22:00:00 8.6 C 7.67 g/m*3 8.6 C 1.6 km/h
384 19-12-2020 23:00:00 8.33333 C 7.71 g/m*3 8.33 C 0.93333 km/h
385 20-12-2020 00:00:00 8.25 C 7.69 g/m*3 8.25 C 4.69167 km/h
386 20-12-2020 01:00:00 8.125 C 7.57 g/m*3 8.13 C 1.74167 km/h
387 20-12-2020 02:00:00 8.125 C 7.61 g/m*3 8.13 C 1.06667 km/h
388 20-12-2020 03:00:00 7.89167 C 7.51 g/m*3 7.89 C 2.13333 km/h
389 20-12-2020 04:00:00 8.09167 C 7.65 g/m*3 8.09 C 1.86667 km/h
390 20-12-2020 05:00:00 7.71667 C 7.62 g/m*3 7.72 C 0.26667 km/h
391 20-12-2020 06:00:00 7.5 C 7.6 g/m*3 7.5 C 0 km/h
392 20-12-2020 07:00:00 7.46667 C 7.65 g/m*3 7.47 C 0.13333 km/h
393 20-12-2020 08:00:00 7.25833 C 7.56 g/m*3 7.26 C 1.06667 km/h
394 20-12-2020 09:00:00 7.13333 C 7.5 g/m*3 7.13 C 0 km/h
395 20-12-2020 10:00:00 7.55 C 7.78 g/m*3 7.55 C 0 km/h
396 20-12-2020 11:00:00 8.58333 C 8.33 g/m*3 8.58 C 3.2 km/h
397 20-12-2020 12:00:00 9.65 C 8.85 g/m*3 9.65 C 3.46667 km/h
398 20-12-2020 13:00:00 10.01667 C 8.85 g/m*3 10.02 C 4.95 km/h
399 20-12-2020 14:00:00 10.15833 C 8.83 g/m*3 10.16 C 0.93333 km/h
400 20-12-2020 15:00:00 9.74167 C 8.6 g/m*3 9.74 C 0.13333 km/h
Sensor: Nr:Datum:Temp:Abs-Feuchte:Windchill:Wind:
Aussen-T/F 401 20-12-2020 16:00:00 9.21667 C 8.31 g/m*3 9.22 C 1.86667 km/h
402 20-12-2020 17:00:00 8.66667 C 7.98 g/m*3 8.67 C 3.2 km/h
403 20-12-2020 18:00:00 8.23333 C 7.77 g/m*3 8.23 C 4.4 km/h
404 20-12-2020 19:00:00 7.175 C 7.24 g/m*3 7.18 C 0.93333 km/h
405 20-12-2020 20:00:00 5.85 C 6.76 g/m*3 5.85 C 0.13333 km/h
406 20-12-2020 21:00:00 6.05 C 6.98 g/m*3 6.05 C 0.4 km/h
407 20-12-2020 22:00:00 6.26667 C 7.12 g/m*3 6.27 C 2.675 km/h
408 20-12-2020 23:00:00 7.01667 C 7.48 g/m*3 6.03 C 6.025 km/h
409 21-12-2020 00:00:00 7.05 C 7.38 g/m*3 7.05 C 3.33333 km/h
410 21-12-2020 01:00:00 5.825 C 6.74 g/m*3 5.83 C 0 km/h
411 21-12-2020 02:00:00 4.99167 C 6.47 g/m*3 4.99 C 0 km/h
412 21-12-2020 03:00:00 4.29167 C 6.2 g/m*3 4.29 C 0 km/h
413 21-12-2020 04:00:00 4.7 C 6.43 g/m*3 4.7 C 0 km/h
414 21-12-2020 05:00:00 4.725 C 6.43 g/m*3 4.72 C 0 km/h
415 21-12-2020 06:00:00 4.25 C 6.24 g/m*3 4.25 C 1.2 km/h
416 21-12-2020 07:00:00 5.8 C 6.97 g/m*3 5.8 C 2.26667 km/h
417 21-12-2020 08:00:00 5.26667 C 6.7 g/m*3 5.27 C 0 km/h
418 21-12-2020 09:00:00 5.26667 C 6.71 g/m*3 5.27 C 0.26667 km/h
419 21-12-2020 10:00:00 6.13333 C 7.1 g/m*3 6.13 C 0.66667 km/h
420 21-12-2020 11:00:00 7.39167 C 7.71 g/m*3 7.39 C 1.86667 km/h
421 21-12-2020 12:00:00 8.575 C 8.16 g/m*3 8.57 C 3.33333 km/h
422 21-12-2020 13:00:00 9.71667 C 8.17 g/m*3 9.72 C 4.95 km/h
423 21-12-2020 14:00:00 9.8 C 8.05 g/m*3 9.8 C 0.93333 km/h
424 21-12-2020 15:00:00 8.90833 C 8.06 g/m*3 8.91 C 0.4 km/h
425 21-12-2020 16:00:00 8.23333 C 7.88 g/m*3 8.23 C 0.13333 km/h
Sensor: Nr:Datum:Temp:Abs-Feuchte:Windchill:Wind:
Aussen-T/F 426 21-12-2020 17:00:00 7.86667 C 7.81 g/m*3 7.87 C 0.66667 km/h
427 21-12-2020 18:00:00 7.99167 C 7.93 g/m*3 7.99 C 2.13333 km/h
428 21-12-2020 19:00:00 8.18333 C 8.05 g/m*3 8.18 C 1.2 km/h
429 21-12-2020 20:00:00 8.35833 C 8.21 g/m*3 8.36 C 1.46667 km/h
430 21-12-2020 21:00:00 8.75 C 8.42 g/m*3 8.1 C 5.76667 km/h
431 21-12-2020 22:00:00 9.26667 C 8.69 g/m*3 7.97 C 8.86667 km/h
432 21-12-2020 23:00:00 9.69167 C 8.85 g/m*3 9.69 C 4.14167 km/h
433 22-12-2020 00:00:00 10.33333 C 9.18 g/m*3 8.83 C 11.275 km/h
434 22-12-2020 01:00:00 11.35 C 9.56 g/m*3 11.35 C 15.43333 km/h
435 22-12-2020 02:00:00 11.99167 C 9.88 g/m*3 11.99 C 14.5 km/h
436 22-12-2020 03:00:00 12.76667 C 10.2 g/m*3 12.77 C 17.30833 km/h
437 22-12-2020 04:00:00 13.18333 C 10.39 g/m*3 13.18 C 14.63333 km/h
438 22-12-2020 05:00:00 13.225 C 10.57 g/m*3 13.23 C 19.03333 km/h
439 22-12-2020 06:00:00 13.41667 C 10.66 g/m*3 13.42 C 18.5 km/h
440 22-12-2020 07:00:00 13.6 C 10.71 g/m*3 13.6 C 15.56667 km/h
441 22-12-2020 08:00:00 13.51667 C 10.65 g/m*3 13.52 C 16.76667 km/h
442 22-12-2020 09:00:00 13.64167 C 10.74 g/m*3 13.64 C 14.63333 km/h
443 22-12-2020 10:00:00 13.85833 C 10.95 g/m*3 13.86 C 14.36667 km/h
444 22-12-2020 11:00:00 14.25833 C 11.22 g/m*3 14.26 C 12.76667 km/h
445 22-12-2020 12:00:00 14.46667 C 11.39 g/m*3 14.47 C 13.425 km/h
446 22-12-2020 13:00:00 14.80833 C 11.39 g/m*3 14.81 C 13.3 km/h
447 22-12-2020 14:00:00 14.81667 C 11.31 g/m*3 14.82 C 14.23333 km/h
448 22-12-2020 15:00:00 14.48333 C 11.23 g/m*3 14.48 C 11.7 km/h
449 22-12-2020 16:00:00 14.025 C 11.01 g/m*3 14.03 C 8.86667 km/h
450 22-12-2020 17:00:00 13.59167 C 10.79 g/m*3 13.59 C 6.58333 km/h
Sensor: Nr:Datum:Temp:Abs-Feuchte:Windchill:Wind:
Aussen-T/F 451 22-12-2020 18:00:00 13.20833 C 10.82 g/m*3 13.21 C 2.4 km/h
452 22-12-2020 19:00:00 12.89167 C 10.76 g/m*3 12.89 C 2.26667 km/h
453 22-12-2020 20:00:00 12.35 C 10.46 g/m*3 12.35 C 5.49167 km/h
454 22-12-2020 21:00:00 11.83333 C 10.18 g/m*3 11.83 C 2.4 km/h
455 22-12-2020 22:00:00 11.675 C 10.13 g/m*3 11.68 C 0 km/h
456 22-12-2020 23:00:00 11.55833 C 10.06 g/m*3 11.56 C 0.26667 km/h
457 23-12-2020 00:00:00 11.65833 C 10.12 g/m*3 11.66 C 0 km/h
458 23-12-2020 01:00:00 11.76667 C 10.19 g/m*3 11.77 C 0.13333 km/h
459 23-12-2020 02:00:00 11.65833 C 10.12 g/m*3 11.66 C 0.53333 km/h
460 23-12-2020 03:00:00 11.65 C 10.11 g/m*3 11.65 C 0 km/h
461 23-12-2020 04:00:00 11.61667 C 10.14 g/m*3 11.62 C 0.66667 km/h
462 23-12-2020 05:00:00 11.49167 C 10.07 g/m*3 11.49 C 0.13333 km/h
463 23-12-2020 06:00:00 11.23333 C 9.89 g/m*3 11.23 C 0 km/h
464 23-12-2020 07:00:00 11.275 C 9.98 g/m*3 11.28 C 0.93333 km/h
465 23-12-2020 08:00:00 11.55 C 10.15 g/m*3 11.55 C 2 km/h
466 23-12-2020 09:00:00 11.6 C 10.19 g/m*3 11.6 C 0.4 km/h
467 23-12-2020 10:00:00 11.875 C 10.36 g/m*3 11.88 C 1.06667 km/h
468 23-12-2020 11:00:00 12.45 C 10.74 g/m*3 12.45 C 0.13333 km/h
469 23-12-2020 12:00:00 12.6 C 10.84 g/m*3 12.6 C 0 km/h
470 23-12-2020 13:00:00 12.81667 C 10.99 g/m*3 12.82 C 0.53333 km/h
471 23-12-2020 14:00:00 12.825 C 10.99 g/m*3 12.83 C 2 km/h
472 23-12-2020 15:00:00 12.55833 C 10.81 g/m*3 12.56 C 2.4 km/h
473 23-12-2020 16:00:00 12.03333 C 10.47 g/m*3 12.03 C 2.8 km/h
474 23-12-2020 17:00:00 11.59167 C 10.18 g/m*3 11.59 C 3.2 km/h
475 23-12-2020 18:00:00 11.30833 C 10 g/m*3 11.31 C 6.3 km/h
Sensor: Nr:Datum:Temp:Abs-Feuchte:Windchill:Wind:
Aussen-T/F 476 23-12-2020 19:00:00 11.44167 C 9.95 g/m*3 11.44 C 13.95833 km/h
477 23-12-2020 20:00:00 11.61667 C 9.79 g/m*3 11.62 C 11.03333 km/h
478 23-12-2020 21:00:00 11.71667 C 9.73 g/m*3 11.72 C 9.69167 km/h
479 23-12-2020 22:00:00 11.575 C 9.66 g/m*3 11.58 C 8.175 km/h
480 23-12-2020 23:00:00 11.025 C 8.76 g/m*3 11.03 C 14.36667 km/h
481 24-12-2020 00:00:00 9.8 C 7.96 g/m*3 7.92 C 13.03333 km/h
482 24-12-2020 01:00:00 8.88333 C 7.46 g/m*3 7.03 C 11.56667 km/h
483 24-12-2020 02:00:00 8.60833 C 7.33 g/m*3 6.39 C 13.56667 km/h
484 24-12-2020 03:00:00 8.13333 C 7.19 g/m*3 6.1 C 11.69167 km/h
485 24-12-2020 04:00:00 8.075 C 7.08 g/m*3 6.17 C 10.89167 km/h
486 24-12-2020 05:00:00 8.225 C 7.02 g/m*3 6.04 C 12.76667 km/h
487 24-12-2020 06:00:00 7.94167 C 7.16 g/m*3 6.91 C 6.71667 km/h
488 24-12-2020 07:00:00 7.975 C 7.2 g/m*3 5.68 C 13.16667 km/h
489 24-12-2020 08:00:00 7.7 C 7.23 g/m*3 5.95 C 9.68333 km/h
490 24-12-2020 09:00:00 7.39167 C 7.3 g/m*3 5.96 C 7.91667 km/h
491 24-12-2020 10:00:00 7.55 C 7.46 g/m*3 6.38 C 6.975 km/h
492 24-12-2020 11:00:00 8.225 C 7.6 g/m*3 7.1 C 7.25 km/h
493 24-12-2020 12:00:00 8.48333 C 7.41 g/m*3 7.27 C 7.79167 km/h
494 24-12-2020 13:00:00 8.96667 C 7.51 g/m*3 8.13 C 6.55833 km/h
495 24-12-2020 14:00:00 6.775 C 6.91 g/m*3 3.77 C 16.23333 km/h
496 24-12-2020 15:00:00 5.28333 C 6.42 g/m*3 3.04 C 9.81667 km/h
497 24-12-2020 16:00:00 4.88333 C 6.32 g/m*3 4.88 C 4.825 km/h
498 24-12-2020 17:00:00 4.525 C 6.19 g/m*3 4.53 C 4.28333 km/h
499 24-12-2020 18:00:00 4.46667 C 6.22 g/m*3 4.47 C 3.08333 km/h
500 24-12-2020 19:00:00 4.68333 C 6.36 g/m*3 4.68 C 3.34167 km/h
Sensor: Nr:Datum:Temp:Abs-Feuchte:Windchill:Wind:
Aussen-T/F 501 24-12-2020 20:00:00 4.3 C 6.16 g/m*3 2.48 C 7.38333 km/h
502 24-12-2020 21:00:00 4.29167 C 6.19 g/m*3 4.29 C 4.275 km/h
503 24-12-2020 22:00:00 4.35833 C 6.22 g/m*3 4.36 C 4.69167 km/h
504 24-12-2020 23:00:00 4.55833 C 6.28 g/m*3 3.3 C 5.75833 km/h
505 25-12-2020 00:00:00 4.6 C 6.26 g/m*3 2.95 C 6.975 km/h
506 25-12-2020 01:00:00 4.44167 C 6.15 g/m*3 3.36 C 5.21667 km/h
507 25-12-2020 02:00:00 4.30833 C 6.1 g/m*3 4.31 C 4.14167 km/h
508 25-12-2020 03:00:00 4.35 C 6.12 g/m*3 4.35 C 3.33333 km/h
509 25-12-2020 04:00:00 4.30833 C 6.03 g/m*3 2.27 C 8.19167 km/h
510 25-12-2020 05:00:00 4.19167 C 5.86 g/m*3 2.98 C 5.49167 km/h
511 25-12-2020 06:00:00 3.89167 C 5.69 g/m*3 2.09 C 7.10833 km/h
512 25-12-2020 07:00:00 3.74167 C 5.52 g/m*3 1.57 C 8.33333 km/h
513 25-12-2020 08:00:00 3.275 C 5.29 g/m*3 1.05 C 8.19167 km/h
514 25-12-2020 09:00:00 3.1 C 5.21 g/m*3 1.38 C 6.44167 km/h
515 25-12-2020 10:00:00 2.89167 C 5.14 g/m*3 2.89 C 4.825 km/h
516 25-12-2020 11:00:00 2.675 C 5.19 g/m*3 0.94 C 6.3 km/h
517 25-12-2020 12:00:00 3.9 C 5.57 g/m*3 1.65 C 8.73333 km/h
518 25-12-2020 13:00:00 4.08333 C 5.65 g/m*3 1.9 C 8.60833 km/h
519 25-12-2020 14:00:00 4.35833 C 5.68 g/m*3 2.33 C 8.2 km/h
520 25-12-2020 15:00:00 4.46667 C 5.76 g/m*3 4.47 C 3.49167 km/h
521 25-12-2020 16:00:00 3.40833 C 5.52 g/m*3 3.41 C 1.2 km/h
522 25-12-2020 17:00:00 2.11667 C 5.17 g/m*3 2.12 C 1.73333 km/h
523 25-12-2020 18:00:00 1.625 C 5.1 g/m*3 1.63 C 3.46667 km/h
524 25-12-2020 19:00:00 1.475 C 5.09 g/m*3 1.48 C 0.8 km/h
525 25-12-2020 20:00:00 2.00833 C 5.33 g/m*3 2.01 C 2.26667 km/h
Sensor: Nr:Datum:Temp:Abs-Feuchte:Windchill:Wind:
Aussen-T/F 526 25-12-2020 21:00:00 2.29167 C 5.43 g/m*3 2.29 C 0.8 km/h
527 25-12-2020 22:00:00 2.23333 C 5.41 g/m*3 2.23 C 0.26667 km/h
528 25-12-2020 23:00:00 2.575 C 5.55 g/m*3 2.58 C 0.26667 km/h
529 26-12-2020 00:00:00 2.64167 C 5.57 g/m*3 2.64 C 0 km/h
530 26-12-2020 01:00:00 2.48333 C 5.48 g/m*3 2.48 C 2.80833 km/h
531 26-12-2020 02:00:00 2.3 C 5.39 g/m*3 0.19 C 7.25833 km/h
532 26-12-2020 03:00:00 2.275 C 5.38 g/m*3 0.68 C 5.75833 km/h
533 26-12-2020 04:00:00 2.15833 C 5.34 g/m*3 2.16 C 3.06667 km/h
534 26-12-2020 05:00:00 1.975 C 5.27 g/m*3 1.98 C 0 km/h
535 26-12-2020 06:00:00 1.39167 C 5.06 g/m*3 1.39 C 0.26667 km/h
536 26-12-2020 07:00:00 0.95833 C 4.93 g/m*3 0.96 C 0.13333 km/h
537 26-12-2020 08:00:00 0.83333 C 4.93 g/m*3 0.83 C 0.8 km/h
538 26-12-2020 09:00:00 1.775 C 5.26 g/m*3 1.78 C 2.26667 km/h
539 26-12-2020 10:00:00 2.60833 C 5.55 g/m*3 2.61 C 1.06667 km/h
540 26-12-2020 11:00:00 3.64167 C 5.79 g/m*3 1.97 C 6.575 km/h
541 26-12-2020 12:00:00 4.375 C 5.71 g/m*3 1.83 C 10.36667 km/h
542 26-12-2020 13:00:00 4.575 C 5.65 g/m*3 2.22 C 9.69167 km/h
543 26-12-2020 14:00:00 4.48333 C 5.52 g/m*3 2.08 C 9.81667 km/h
544 26-12-2020 15:00:00 4.11667 C 5.35 g/m*3 2.12 C 7.925 km/h
545 26-12-2020 16:00:00 3.9 C 5.24 g/m*3 1.58 C 9 km/h
546 26-12-2020 17:00:00 3.9 C 5.25 g/m*3 2.27 C 6.56667 km/h
547 26-12-2020 18:00:00 3.88333 C 5.24 g/m*3 1.56 C 9 km/h
548 26-12-2020 19:00:00 3.43333 C 5.11 g/m*3 1.73 C 6.575 km/h
549 26-12-2020 20:00:00 3.55 C 5.12 g/m*3 1.73 C 6.975 km/h
550 26-12-2020 21:00:00 3.225 C 5.06 g/m*3 1.49 C 6.56667 km/h
Sensor: Nr:Datum:Temp:Abs-Feuchte:Windchill:Wind:
Aussen-T/F 551 26-12-2020 22:00:00 3.025 C 5.06 g/m*3 0.8 C 8.05 km/h
552 26-12-2020 23:00:00 2.9 C 4.98 g/m*3 0.36 C 9.14167 km/h
553 27-12-2020 00:00:00 2.825 C 4.99 g/m*3 0.89 C 6.975 km/h
554 27-12-2020 01:00:00 2.99167 C 5.05 g/m*3 0.3 C 9.81667 km/h
555 27-12-2020 02:00:00 3.25833 C 5.08 g/m*3 1.27 C 7.375 km/h
556 27-12-2020 03:00:00 3.15833 C 5.06 g/m*3 1.9 C 5.21667 km/h
557 27-12-2020 04:00:00 3.24167 C 5.08 g/m*3 1.17 C 7.65833 km/h
558 27-12-2020 05:00:00 3.4 C 5.08 g/m*3 0.83 C 9.66667 km/h
559 27-12-2020 06:00:00 3.44167 C 5.1 g/m*3 1.21 C 8.33333 km/h
560 27-12-2020 07:00:00 3.55 C 5.22 g/m*3 1.73 C 6.98333 km/h
561 27-12-2020 08:00:00 3.83333 C 5.3 g/m*3 1.51 C 8.975 km/h
562 27-12-2020 09:00:00 3.88333 C 5.4 g/m*3 1.28 C 10.20833 km/h
563 27-12-2020 10:00:00 3.925 C 5.45 g/m*3 1.82 C 8.18333 km/h
564 27-12-2020 11:00:00 4.56667 C 5.5 g/m*3 1.76 C 11.83333 km/h
565 27-12-2020 12:00:00 4.625 C 5.68 g/m*3 2.4 C 9.15 km/h
566 27-12-2020 13:00:00 4.16667 C 5.78 g/m*3 2.1 C 8.2 km/h
567 27-12-2020 14:00:00 3.9 C 5.78 g/m*3 1.65 C 8.73333 km/h
568 27-12-2020 15:00:00 3.8 C 5.83 g/m*3 1.64 C 8.325 km/h
569 27-12-2020 16:00:00 3.8 C 5.85 g/m*3 2.34 C 6.025 km/h
570 27-12-2020 17:00:00 3.85833 C 5.88 g/m*3 1.47 C 9.25833 km/h
571 27-12-2020 18:00:00 3.74167 C 5.85 g/m*3 2.08 C 6.575 km/h
572 27-12-2020 19:00:00 3.95833 C 5.95 g/m*3 1.68 C 8.875 km/h
573 27-12-2020 20:00:00 4.1 C 6.02 g/m*3 3.03 C 5.08333 km/h
574 27-12-2020 21:00:00 4.13333 C 6.05 g/m*3 3.01 C 5.21667 km/h
575 27-12-2020 22:00:00 4.1 C 6.08 g/m*3 4.1 C 1.46667 km/h
Sensor: Nr:Datum:Temp:Abs-Feuchte:Windchill:Wind:
Aussen-T/F 576 27-12-2020 23:00:00 4.10833 C 6.12 g/m*3 4.11 C 1.6 km/h
577 28-12-2020 00:00:00 4.15 C 6.17 g/m*3 4.15 C 1.6 km/h
578 28-12-2020 01:00:00 4.11667 C 6.15 g/m*3 4.12 C 0.66667 km/h
579 28-12-2020 02:00:00 3.78333 C 6.02 g/m*3 3.78 C 0.53333 km/h
580 28-12-2020 03:00:00 3.66667 C 5.99 g/m*3 3.67 C 1.46667 km/h
581 28-12-2020 04:00:00 3.725 C 6.04 g/m*3 3.73 C 2.01667 km/h
582 28-12-2020 05:00:00 3.86667 C 6.11 g/m*3 3.87 C 0.8 km/h
583 28-12-2020 06:00:00 3.71667 C 6.03 g/m*3 3.72 C 1.06667 km/h
584 28-12-2020 07:00:00 3.08333 C 5.74 g/m*3 3.08 C 0.8 km/h
585 28-12-2020 08:00:00 2 C 5.33 g/m*3 2 C 2.4 km/h
586 28-12-2020 09:00:00 2.55 C 5.59 g/m*3 2.55 C 0.93333 km/h
587 28-12-2020 10:00:00 3.8 C 6.09 g/m*3 3.8 C 0 km/h
588 28-12-2020 11:00:00 4.59167 C 6.42 g/m*3 4.59 C 0.66667 km/h
589 28-12-2020 12:00:00 5.04167 C 6.49 g/m*3 5.04 C 3.33333 km/h
590 28-12-2020 13:00:00 5.59167 C 6.59 g/m*3 5.59 C 0.8 km/h
591 28-12-2020 14:00:00 5.675 C 6.68 g/m*3 5.68 C 1.06667 km/h
592 28-12-2020 15:00:00 5.15 C 6.45 g/m*3 5.15 C 3.48333 km/h
593 28-12-2020 16:00:00 4.68333 C 6.28 g/m*3 4.68 C 3.475 km/h
594 28-12-2020 17:00:00 4.01667 C 6.03 g/m*3 4.02 C 0.8 km/h
595 28-12-2020 18:00:00 3.81667 C 5.99 g/m*3 3.82 C 0.4 km/h
596 28-12-2020 19:00:00 3.21667 C 5.76 g/m*3 3.22 C 1.73333 km/h
597 28-12-2020 20:00:00 1.95 C 5.27 g/m*3 1.95 C 2 km/h
598 28-12-2020 21:00:00 2.64167 C 5.58 g/m*3 2.64 C 0 km/h
599 28-12-2020 22:00:00 1.64167 C 5.2 g/m*3 1.64 C 2.13333 km/h
600 28-12-2020 23:00:00 1.70833 C 5.25 g/m*3 1.71 C 2.13333 km/h
Sensor: Nr:Datum:Temp:Abs-Feuchte:Windchill:Wind:
Aussen-T/F 601 29-12-2020 00:00:00 2.58333 C 5.59 g/m*3 2.58 C 1.875 km/h
602 29-12-2020 01:00:00 2.6 C 5.56 g/m*3 2.6 C 0.8 km/h
603 29-12-2020 02:00:00 2.58333 C 5.55 g/m*3 2.58 C 3.33333 km/h
604 29-12-2020 03:00:00 1.86667 C 5.26 g/m*3 1.87 C 2.4 km/h
605 29-12-2020 04:00:00 2 C 5.35 g/m*3 2 C 0 km/h
606 29-12-2020 05:00:00 2.39167 C 5.48 g/m*3 2.39 C 0 km/h
607 29-12-2020 06:00:00 2.38333 C 5.5 g/m*3 2.38 C 1.73333 km/h
608 29-12-2020 07:00:00 2.64167 C 5.63 g/m*3 1.26 C 5.35833 km/h
609 29-12-2020 08:00:00 2.93333 C 5.74 g/m*3 2.93 C 4.28333 km/h
610 29-12-2020 09:00:00 3.2 C 5.83 g/m*3 0.96 C 8.2 km/h
611 29-12-2020 10:00:00 3.53333 C 5.9 g/m*3 2.08 C 5.89167 km/h
612 29-12-2020 11:00:00 4.03333 C 5.9 g/m*3 0.75 C 13.83333 km/h
613 29-12-2020 12:00:00 4.78333 C 5.98 g/m*3 1.42 C 15.43333 km/h
614 29-12-2020 13:00:00 5.00833 C 5.91 g/m*3 1.88 C 14.23333 km/h
615 29-12-2020 14:00:00 5 C 5.9 g/m*3 3.05 C 8.31667 km/h
616 29-12-2020 15:00:00 4.90833 C 6.05 g/m*3 4.91 C 2.81667 km/h
617 29-12-2020 16:00:00 4.35833 C 5.97 g/m*3 4.36 C 2.4 km/h
618 29-12-2020 17:00:00 3.85 C 5.85 g/m*3 3.85 C 1.73333 km/h
619 29-12-2020 18:00:00 3.13333 C 5.56 g/m*3 3.13 C 1.86667 km/h
620 29-12-2020 19:00:00 2.00833 C 5.22 g/m*3 2.01 C 2.66667 km/h
621 29-12-2020 20:00:00 1.83333 C 5.24 g/m*3 1.83 C 0 km/h
622 29-12-2020 21:00:00 1.65833 C 5.17 g/m*3 1.66 C 0.4 km/h
623 29-12-2020 22:00:00 1.16667 C 5.03 g/m*3 1.17 C 1.2 km/h
624 29-12-2020 23:00:00 1.39167 C 5.12 g/m*3 1.39 C 0 km/h
625 30-12-2020 00:00:00 1.925 C 5.32 g/m*3 1.93 C 0 km/h
Sensor: Nr:Datum:Temp:Abs-Feuchte:Windchill:Wind:
Aussen-T/F 626 30-12-2020 01:00:00 2.025 C 5.34 g/m*3 2.03 C 0 km/h
627 30-12-2020 02:00:00 2.26667 C 5.47 g/m*3 2.27 C 0 km/h
628 30-12-2020 03:00:00 2.54167 C 5.59 g/m*3 2.54 C 0 km/h
629 30-12-2020 04:00:00 2.61667 C 5.62 g/m*3 2.62 C 0 km/h
630 30-12-2020 05:00:00 2.78333 C 5.68 g/m*3 2.78 C 0 km/h
631 30-12-2020 06:00:00 2.96667 C 5.75 g/m*3 2.97 C 0 km/h
632 30-12-2020 07:00:00 3.45833 C 5.95 g/m*3 3.46 C 1.6 km/h
633 30-12-2020 08:00:00 3.625 C 6.01 g/m*3 3.63 C 1.2 km/h
634 30-12-2020 09:00:00 3.78333 C 6.08 g/m*3 3.78 C 1.6 km/h
635 30-12-2020 10:00:00 4.2 C 6.25 g/m*3 4.2 C 2.26667 km/h
636 30-12-2020 11:00:00 4.45 C 6.26 g/m*3 2.95 C 6.43333 km/h
637 30-12-2020 12:00:00 4.75 C 6.18 g/m*3 2.65 C 8.74167 km/h
638 30-12-2020 13:00:00 5.06667 C 5.93 g/m*3 3.27 C 7.78333 km/h
639 30-12-2020 14:00:00 5.675 C 6.07 g/m*3 5.68 C 4.54167 km/h
640 30-12-2020 15:00:00 5.79167 C 5.95 g/m*3 4.23 C 7.375 km/h
641 30-12-2020 16:00:00 5.475 C 5.92 g/m*3 3.68 C 8.05 km/h
642 30-12-2020 17:00:00 4.9 C 5.72 g/m*3 3.22 C 7.24167 km/h
643 30-12-2020 18:00:00 4.65 C 5.7 g/m*3 2.37 C 9.41667 km/h
644 30-12-2020 19:00:00 4.34167 C 5.71 g/m*3 3.2 C 5.35 km/h
645 30-12-2020 20:00:00 4.28333 C 5.7 g/m*3 2.89 C 6.04167 km/h
646 30-12-2020 21:00:00 4.23333 C 5.7 g/m*3 4.23 C 4.55 km/h
647 30-12-2020 22:00:00 4 C 5.66 g/m*3 4 C 2 km/h
648 30-12-2020 23:00:00 4.01667 C 5.7 g/m*3 4.02 C 1.875 km/h
649 31-12-2020 00:00:00 4.03333 C 5.68 g/m*3 4.03 C 1.46667 km/h
650 31-12-2020 01:00:00 3.43333 C 5.53 g/m*3 3.43 C 0.66667 km/h
Sensor: Nr:Datum:Temp:Abs-Feuchte:Windchill:Wind:
Aussen-T/F 651 31-12-2020 02:00:00 3.175 C 5.51 g/m*3 3.18 C 1.46667 km/h
652 31-12-2020 03:00:00 2.84167 C 5.4 g/m*3 2.84 C 0.66667 km/h
653 31-12-2020 04:00:00 2.78333 C 5.39 g/m*3 2.78 C 0 km/h
654 31-12-2020 05:00:00 2.80833 C 5.44 g/m*3 2.81 C 0.26667 km/h
655 31-12-2020 06:00:00 2.95833 C 5.56 g/m*3 2.96 C 0 km/h
656 31-12-2020 07:00:00 2.79167 C 5.51 g/m*3 2.79 C 1.06667 km/h
657 31-12-2020 08:00:00 2.69167 C 5.47 g/m*3 2.69 C 2.53333 km/h
658 31-12-2020 09:00:00 2.68333 C 5.48 g/m*3 2.68 C 1.06667 km/h
659 31-12-2020 10:00:00 3.16667 C 5.66 g/m*3 3.17 C 0.93333 km/h
660 31-12-2020 11:00:00 3.75833 C 5.72 g/m*3 3.76 C 3.6 km/h
661 31-12-2020 12:00:00 4.05 C 5.77 g/m*3 4.05 C 3.21667 km/h
662 31-12-2020 13:00:00 3.79167 C 5.75 g/m*3 3.79 C 1.2 km/h
663 31-12-2020 14:00:00 3.85833 C 5.82 g/m*3 3.86 C 0.53333 km/h
664 31-12-2020 15:00:00 3.59167 C 5.71 g/m*3 3.59 C 0.66667 km/h
665 31-12-2020 16:00:00 3 C 5.56 g/m*3 3 C 0.26667 km/h
666 31-12-2020 17:00:00 2.73333 C 5.52 g/m*3 2.73 C 0.13333 km/h
667 31-12-2020 18:00:00 2.71667 C 5.54 g/m*3 2.72 C 0 km/h
668 31-12-2020 19:00:00 2.625 C 5.51 g/m*3 2.63 C 0.26667 km/h
669 31-12-2020 20:00:00 2.38333 C 5.42 g/m*3 2.38 C 0 km/h
670 31-12-2020 21:00:00 2.225 C 5.4 g/m*3 2.23 C 0 km/h
671 31-12-2020 22:00:00 2.15 C 5.37 g/m*3 2.15 C 0 km/h
672 31-12-2020 23:00:00 1.26667 C 5.02 g/m*3 1.27 C 0 km/h
673 01-01-2021 00:00:00 1.1 C 5.01 g/m*3 1.1 C 0 km/h
674 01-01-2021 01:00:00 1.16667 C 5.04 g/m*3 1.17 C 0 km/h
675 01-01-2021 02:00:00 1.425 C 5.13 g/m*3 1.43 C 0 km/h
Sensor: Nr:Datum:Temp:Abs-Feuchte:Windchill:Wind:
Aussen-T/F 676 01-01-2021 03:00:00 1.725 C 5.25 g/m*3 1.73 C 0.13333 km/h
677 01-01-2021 04:00:00 1.88333 C 5.35 g/m*3 1.88 C 1.46667 km/h
678 01-01-2021 05:00:00 2.05833 C 5.41 g/m*3 2.06 C 0.53333 km/h
679 01-01-2021 06:00:00 2.24167 C 5.48 g/m*3 2.24 C 0 km/h
680 01-01-2021 07:00:00 2.425 C 5.55 g/m*3 2.42 C 0.26667 km/h
681 01-01-2021 08:00:00 2.5 C 5.58 g/m*3 2.5 C 0.26667 km/h
682 01-01-2021 09:00:00 2.55 C 5.59 g/m*3 2.55 C 0 km/h
683 01-01-2021 10:00:00 2.73333 C 5.66 g/m*3 2.73 C 0 km/h
684 01-01-2021 11:00:00 2.99167 C 5.76 g/m*3 2.99 C 2.53333 km/h
685 01-01-2021 12:00:00 2.95 C 5.75 g/m*3 2.95 C 2 km/h
686 01-01-2021 13:00:00 3.025 C 5.72 g/m*3 3.03 C 2 km/h
687 01-01-2021 14:00:00 3.075 C 5.74 g/m*3 3.08 C 0.53333 km/h
688 01-01-2021 15:00:00 3.13333 C 5.76 g/m*3 3.13 C 1.2 km/h
689 01-01-2021 16:00:00 2.9 C 5.67 g/m*3 2.9 C 0.8 km/h
690 01-01-2021 17:00:00 2.68333 C 5.59 g/m*3 2.68 C 0 km/h
691 01-01-2021 18:00:00 2.525 C 5.53 g/m*3 2.53 C 0 km/h
692 01-01-2021 19:00:00 1.80833 C 5.27 g/m*3 1.81 C 0 km/h
693 01-01-2021 20:00:00 1.26667 C 5.07 g/m*3 1.27 C 0 km/h
694 01-01-2021 21:00:00 0.8 C 4.91 g/m*3 0.8 C 0 km/h
695 01-01-2021 22:00:00 0.60833 C 4.88 g/m*3 0.61 C 0 km/h
696 01-01-2021 23:00:00 0.76667 C 4.95 g/m*3 0.77 C 0 km/h
697 02-01-2021 00:00:00 0.80833 C 4.97 g/m*3 0.81 C 1.2 km/h
698 02-01-2021 01:00:00 0.75 C 4.95 g/m*3 0.75 C 1.33333 km/h
699 02-01-2021 02:00:00 0.75833 C 4.95 g/m*3 0.76 C 0 km/h
700 02-01-2021 03:00:00 0.675 C 4.92 g/m*3 0.68 C 0.8 km/h
Sensor: Nr:Datum:Temp:Abs-Feuchte:Windchill:Wind:
Aussen-T/F 701 02-01-2021 04:00:00 0.375 C 4.82 g/m*3 0.38 C 2 km/h
702 02-01-2021 05:00:00 0.325 C 4.81 g/m*3 0.33 C 3.06667 km/h
703 02-01-2021 06:00:00 0.425 C 4.84 g/m*3 0.43 C 3.46667 km/h
704 02-01-2021 07:00:00 0.40833 C 4.83 g/m*3 0.41 C 3.86667 km/h
705 02-01-2021 08:00:00 0.4 C 4.83 g/m*3 0.4 C 1.86667 km/h
706 02-01-2021 09:00:00 0.53333 C 4.88 g/m*3 0.53 C 1.06667 km/h
707 02-01-2021 10:00:00 0.81667 C 4.97 g/m*3 0.82 C 0.8 km/h
708 02-01-2021 11:00:00 1.3 C 5.13 g/m*3 1.3 C 0.4 km/h
709 02-01-2021 12:00:00 1.85 C 5.27 g/m*3 1.85 C 0.8 km/h
710 02-01-2021 13:00:00 2.23333 C 5.33 g/m*3 2.23 C 1.33333 km/h
711 02-01-2021 14:00:00 2.425 C 5.38 g/m*3 2.42 C 0.66667 km/h
712 02-01-2021 15:00:00 2.65 C 5.46 g/m*3 2.65 C 1.6 km/h
713 02-01-2021 16:00:00 2.525 C 5.41 g/m*3 2.53 C 0.4 km/h
714 02-01-2021 17:00:00 2.18333 C 5.34 g/m*3 2.18 C 0.4 km/h
715 02-01-2021 18:00:00 2.03333 C 5.29 g/m*3 2.03 C 0 km/h
716 02-01-2021 19:00:00 1.95833 C 5.3 g/m*3 1.96 C 0 km/h
717 02-01-2021 20:00:00 1.9 C 5.3 g/m*3 1.9 C 0 km/h
718 02-01-2021 21:00:00 1.89167 C 5.3 g/m*3 1.89 C 0 km/h
719 02-01-2021 22:00:00 1.8 C 5.26 g/m*3 1.8 C 0 km/h
720 02-01-2021 23:00:00 1.8 C 5.26 g/m*3 1.8 C 0 km/h
721 03-01-2021 00:00:00 1.88333 C 5.29 g/m*3 1.88 C 0 km/h
722 03-01-2021 01:00:00 1.8 C 5.26 g/m*3 1.8 C 3.20833 km/h
723 03-01-2021 02:00:00 1.74167 C 5.18 g/m*3 1.74 C 1.73333 km/h
724 03-01-2021 03:00:00 2.04167 C 5.04 g/m*3 2.04 C 2.53333 km/h
725 03-01-2021 04:00:00 2.26667 C 5.06 g/m*3 2.27 C 2.66667 km/h
Sensor: Nr:Datum:Temp:Abs-Feuchte:Windchill:Wind:
Aussen-T/F 726 03-01-2021 05:00:00 2.11667 C 5.09 g/m*3 2.12 C 0.66667 km/h
727 03-01-2021 06:00:00 2.05833 C 5.1 g/m*3 2.06 C 0.93333 km/h
728 03-01-2021 07:00:00 1.99167 C 5.03 g/m*3 1.99 C 1.46667 km/h
729 03-01-2021 08:00:00 2.29167 C 4.99 g/m*3 2.29 C 1.73333 km/h
730 03-01-2021 09:00:00 2.375 C 5.09 g/m*3 2.38 C 0 km/h
731 03-01-2021 10:00:00 2.60833 C 5.12 g/m*3 2.61 C 1.60833 km/h
732 03-01-2021 11:00:00 3.08333 C 5.17 g/m*3 3.08 C 3.875 km/h
733 03-01-2021 12:00:00 3.375 C 5.2 g/m*3 1.53 C 6.975 km/h
734 03-01-2021 13:00:00 3.49167 C 5.26 g/m*3 3.49 C 3.74167 km/h
735 03-01-2021 14:00:00 3.71667 C 5.34 g/m*3 2.39 C 5.61667 km/h
736 03-01-2021 15:00:00 3.75 C 5.42 g/m*3 3.75 C 3.2 km/h
737 03-01-2021 16:00:00 3.51667 C 5.43 g/m*3 3.52 C 4.00833 km/h
738 03-01-2021 17:00:00 3.25833 C 5.43 g/m*3 3.26 C 0.93333 km/h
739 03-01-2021 18:00:00 2.925 C 5.43 g/m*3 2.93 C 0.26667 km/h
740 03-01-2021 19:00:00 2.66667 C 5.41 g/m*3 2.67 C 0.53333 km/h
741 03-01-2021 20:00:00 2.51667 C 5.41 g/m*3 2.52 C 0.13333 km/h
742 03-01-2021 21:00:00 2.46667 C 5.39 g/m*3 2.47 C 0.4 km/h
743 03-01-2021 22:00:00 2.375 C 5.36 g/m*3 2.38 C 0 km/h
744 03-01-2021 23:00:00 2.3 C 5.34 g/m*3 2.3 C 0 km/h
745 04-01-2021 00:00:00 2.225 C 5.36 g/m*3 2.23 C 0 km/h
746 04-01-2021 01:00:00 2.06667 C 5.3 g/m*3 2.07 C 0 km/h
747 04-01-2021 02:00:00 1.85833 C 5.23 g/m*3 1.86 C 0.13333 km/h
748 04-01-2021 03:00:00 1.78333 C 5.2 g/m*3 1.78 C 0.13333 km/h
749 04-01-2021 04:00:00 1.63333 C 5.19 g/m*3 1.63 C 0 km/h
750 04-01-2021 05:00:00 1.39167 C 5.1 g/m*3 1.39 C 0 km/h
Sensor: Nr:Datum:Temp:Abs-Feuchte:Windchill:Wind:
Aussen-T/F 751 04-01-2021 06:00:00 1.06667 C 4.99 g/m*3 1.07 C 0 km/h
752 04-01-2021 07:00:00 0.90833 C 4.95 g/m*3 0.91 C 0 km/h
753 04-01-2021 08:00:00 0.96667 C 4.97 g/m*3 0.97 C 0 km/h
754 04-01-2021 09:00:00 1.14167 C 5.03 g/m*3 1.14 C 0 km/h
755 04-01-2021 10:00:00 1.31667 C 5.09 g/m*3 1.32 C 0.13333 km/h
756 04-01-2021 11:00:00 1.60833 C 5.23 g/m*3 1.61 C 0 km/h
757 04-01-2021 12:00:00 1.81667 C 5.32 g/m*3 1.82 C 0.13333 km/h
758 04-01-2021 13:00:00 1.975 C 5.38 g/m*3 1.98 C 0.53333 km/h
759 04-01-2021 14:00:00 2.025 C 5.4 g/m*3 2.03 C 0.26667 km/h
760 04-01-2021 15:00:00 2 C 5.39 g/m*3 2 C 0.26667 km/h
761 04-01-2021 16:00:00 1.93333 C 5.37 g/m*3 1.93 C 0 km/h
762 04-01-2021 17:00:00 1.80833 C 5.32 g/m*3 1.81 C 0 km/h
763 04-01-2021 18:00:00 1.8 C 5.32 g/m*3 1.8 C 0.66667 km/h
764 04-01-2021 19:00:00 1.8 C 5.32 g/m*3 1.8 C 1.06667 km/h
765 04-01-2021 20:00:00 1.75 C 5.3 g/m*3 1.75 C 0 km/h
766 04-01-2021 21:00:00 1.70833 C 5.28 g/m*3 1.71 C 0 km/h
767 04-01-2021 22:00:00 1.775 C 5.31 g/m*3 1.78 C 0 km/h
768 04-01-2021 23:00:00 1.8 C 5.32 g/m*3 1.8 C 0.53333 km/h
769 05-01-2021 00:00:00 1.84167 C 5.33 g/m*3 1.84 C 0.4 km/h
770 05-01-2021 01:00:00 1.9 C 5.35 g/m*3 1.9 C 0.4 km/h
771 05-01-2021 02:00:00 1.9 C 5.35 g/m*3 1.9 C 0.53333 km/h
772 05-01-2021 03:00:00 1.99167 C 5.38 g/m*3 1.99 C 0.13333 km/h
773 05-01-2021 04:00:00 2.1 C 5.37 g/m*3 2.1 C 0 km/h
774 05-01-2021 05:00:00 2.08333 C 5.36 g/m*3 2.08 C 0 km/h
775 05-01-2021 06:00:00 2.1 C 5.37 g/m*3 2.1 C 0 km/h
Sensor: Nr:Datum:Temp:Abs-Feuchte:Windchill:Wind:
Aussen-T/F 776 05-01-2021 07:00:00 2.08333 C 5.36 g/m*3 2.08 C 0.26667 km/h
777 05-01-2021 08:00:00 2.05 C 5.35 g/m*3 2.05 C 0.13333 km/h
778 05-01-2021 09:00:00 2.15 C 5.39 g/m*3 2.15 C 0.13333 km/h
779 05-01-2021 10:00:00 2.34167 C 5.46 g/m*3 2.34 C 0.93333 km/h
780 05-01-2021 11:00:00 2.65833 C 5.49 g/m*3 2.66 C 1.2 km/h
781 05-01-2021 12:00:00 2.88333 C 5.48 g/m*3 2.88 C 4.54167 km/h
782 05-01-2021 13:00:00 3.03333 C 5.54 g/m*3 3.03 C 0.26667 km/h
783 05-01-2021 14:00:00 3.25 C 5.62 g/m*3 3.25 C 0 km/h
784 05-01-2021 15:00:00 3.3 C 5.64 g/m*3 3.3 C 0 km/h
785 05-01-2021 16:00:00 3.20833 C 5.61 g/m*3 3.21 C 0 km/h
786 05-01-2021 17:00:00 3.05 C 5.59 g/m*3 3.05 C 0 km/h
787 05-01-2021 18:00:00 2.90833 C 5.56 g/m*3 2.91 C 0 km/h
788 05-01-2021 19:00:00 2.9 C 5.61 g/m*3 2.9 C 0 km/h
789 05-01-2021 20:00:00 2.9 C 5.61 g/m*3 2.9 C 0 km/h
790 05-01-2021 21:00:00 2.9 C 5.61 g/m*3 2.9 C 0 km/h
791 05-01-2021 22:00:00 2.68333 C 5.52 g/m*3 2.68 C 0 km/h
792 05-01-2021 23:00:00 2.36667 C 5.43 g/m*3 2.37 C 0.26667 km/h
793 06-01-2021 00:00:00 2.66667 C 5.54 g/m*3 2.67 C 0 km/h
794 06-01-2021 01:00:00 2.69167 C 5.55 g/m*3 2.69 C 4.425 km/h
795 06-01-2021 02:00:00 2.35 C 5.41 g/m*3 2.35 C 2.8 km/h
796 06-01-2021 03:00:00 2.15 C 5.37 g/m*3 2.15 C 0.13333 km/h
797 06-01-2021 04:00:00 1.68333 C 5.2 g/m*3 1.68 C 0 km/h
798 06-01-2021 05:00:00 1.95833 C 5.32 g/m*3 1.96 C 0.26667 km/h
799 06-01-2021 06:00:00 2.14167 C 5.39 g/m*3 2.14 C 0 km/h
800 06-01-2021 07:00:00 2.2 C 5.44 g/m*3 2.2 C 1.2 km/h
Sensor: Nr:Datum:Temp:Abs-Feuchte:Windchill:Wind:
Aussen-T/F 801 06-01-2021 08:00:00 2.15 C 5.41 g/m*3 2.15 C 0 km/h
802 06-01-2021 09:00:00 2.24167 C 5.47 g/m*3 2.24 C 0 km/h
803 06-01-2021 10:00:00 2.65833 C 5.64 g/m*3 2.66 C 0.13333 km/h
804 06-01-2021 11:00:00 3.175 C 5.83 g/m*3 3.18 C 0.4 km/h
805 06-01-2021 12:00:00 3.525 C 5.9 g/m*3 3.53 C 1.86667 km/h
806 06-01-2021 13:00:00 3.76667 C 5.85 g/m*3 2.25 C 6.15 km/h
807 06-01-2021 14:00:00 3.8 C 5.72 g/m*3 2.38 C 5.9 km/h
808 06-01-2021 15:00:00 3.875 C 5.74 g/m*3 3.88 C 2.93333 km/h
809 06-01-2021 16:00:00 3.65833 C 5.67 g/m*3 3.66 C 4.66667 km/h
810 06-01-2021 17:00:00 3.325 C 5.59 g/m*3 3.33 C 4.00833 km/h
811 06-01-2021 18:00:00 2.99167 C 5.47 g/m*3 2.99 C 4.26667 km/h
812 06-01-2021 19:00:00 2.8 C 5.45 g/m*3 2.8 C 4.4 km/h
813 06-01-2021 20:00:00 2.75 C 5.38 g/m*3 1.44 C 5.225 km/h
814 06-01-2021 21:00:00 2.5 C 5.28 g/m*3 2.5 C 4.55 km/h
815 06-01-2021 22:00:00 2.35 C 5.16 g/m*3 0.98 C 5.23333 km/h
816 06-01-2021 23:00:00 2.19167 C 5.07 g/m*3 2.19 C 3.475 km/h
817 07-01-2021 00:00:00 2.09167 C 4.99 g/m*3 -0.05 C 7.24167 km/h
818 07-01-2021 01:00:00 1.83333 C 4.98 g/m*3 1.83 C 1.33333 km/h
819 07-01-2021 02:00:00 1.45833 C 4.94 g/m*3 1.46 C 0.66667 km/h
820 07-01-2021 03:00:00 1.25833 C 4.91 g/m*3 1.26 C 0 km/h
821 07-01-2021 04:00:00 1.21667 C 4.93 g/m*3 1.22 C 0 km/h
822 07-01-2021 05:00:00 1.34167 C 4.98 g/m*3 1.34 C 1.06667 km/h
823 07-01-2021 06:00:00 1.5 C 4.97 g/m*3 1.5 C 3.06667 km/h
824 07-01-2021 07:00:00 1.73333 C 4.98 g/m*3 0.17 C 5.475 km/h
825 07-01-2021 08:00:00 1.73333 C 4.94 g/m*3 -0.14 C 6.29167 km/h
Sensor: Nr:Datum:Temp:Abs-Feuchte:Windchill:Wind:
Aussen-T/F 826 07-01-2021 09:00:00 1.9 C 4.95 g/m*3 0.3 C 5.625 km/h
827 07-01-2021 10:00:00 2.18333 C 5.04 g/m*3 2.18 C 4.00833 km/h
828 07-01-2021 11:00:00 2.7 C 5.13 g/m*3 0.79 C 6.83333 km/h
829 07-01-2021 12:00:00 2.71667 C 5.17 g/m*3 0.07 C 9.41667 km/h
830 07-01-2021 13:00:00 2.68333 C 5.38 g/m*3 0.51 C 7.65833 km/h
831 07-01-2021 14:00:00 2.84167 C 5.42 g/m*3 0.83 C 7.24167 km/h
832 07-01-2021 15:00:00 2.45 C 5.33 g/m*3 0.45 C 6.975 km/h
833 07-01-2021 16:00:00 2.4 C 5.31 g/m*3 0.1 C 7.91667 km/h
834 07-01-2021 17:00:00 2.36667 C 5.33 g/m*3 0.49 C 6.575 km/h
835 07-01-2021 18:00:00 2.375 C 5.35 g/m*3 0.03 C 8.05833 km/h
836 07-01-2021 19:00:00 2.2 C 5.33 g/m*3 0.08 C 7.23333 km/h
837 07-01-2021 20:00:00 2.1 C 5.31 g/m*3 0.19 C 6.56667 km/h
838 07-01-2021 21:00:00 1.89167 C 5.19 g/m*3 -0.58 C 8.2 km/h
839 07-01-2021 22:00:00 1.9 C 5.16 g/m*3 -0.72 C 8.73333 km/h
840 07-01-2021 23:00:00 1.93333 C 5.14 g/m*3 -0.75 C 9.00833 km/h
841 08-01-2021 00:00:00 1.73333 C 5.12 g/m*3 -1.26 C 10.08333 km/h
842 08-01-2021 01:00:00 1.63333 C 5.13 g/m*3 -0.72 C 7.65833 km/h
843 08-01-2021 02:00:00 1.76667 C 5.15 g/m*3 -0.39 C 7.125 km/h
844 08-01-2021 03:00:00 1.8 C 5.15 g/m*3 -1.02 C 9.425 km/h
845 08-01-2021 04:00:00 1.84167 C 5.17 g/m*3 -0.93 C 9.28333 km/h
846 08-01-2021 05:00:00 1.84167 C 5.21 g/m*3 -0.79 C 8.75833 km/h
847 08-01-2021 06:00:00 1.79167 C 5.2 g/m*3 -0.22 C 6.69167 km/h
848 08-01-2021 07:00:00 1.71667 C 5.19 g/m*3 1.72 C 4.54167 km/h
849 08-01-2021 08:00:00 1.6 C 5.19 g/m*3 1.6 C 4.94167 km/h
850 08-01-2021 09:00:00 1.63333 C 5.2 g/m*3 1.63 C 4.26667 km/h
Sensor: Nr:Datum:Temp:Abs-Feuchte:Windchill:Wind:
Aussen-T/F 851 08-01-2021 10:00:00 1.89167 C 5.3 g/m*3 1.89 C 2.66667 km/h
852 08-01-2021 11:00:00 2.2 C 5.4 g/m*3 2.2 C 2.66667 km/h
853 08-01-2021 12:00:00 2.525 C 5.47 g/m*3 2.53 C 2.66667 km/h
854 08-01-2021 13:00:00 2.50833 C 5.46 g/m*3 2.51 C 0.53333 km/h
855 08-01-2021 14:00:00 2.54167 C 5.47 g/m*3 2.54 C 2.53333 km/h
856 08-01-2021 15:00:00 2.475 C 5.41 g/m*3 2.48 C 2.26667 km/h
857 08-01-2021 16:00:00 2.33333 C 5.36 g/m*3 2.33 C 1.86667 km/h
858 08-01-2021 17:00:00 2.14167 C 5.33 g/m*3 2.14 C 0.8 km/h
859 08-01-2021 18:00:00 2.1 C 5.34 g/m*3 2.1 C 1.06667 km/h
860 08-01-2021 19:00:00 2.15833 C 5.39 g/m*3 2.16 C 0 km/h
861 08-01-2021 20:00:00 2.15833 C 5.39 g/m*3 2.16 C 0 km/h
862 08-01-2021 21:00:00 2.08333 C 5.36 g/m*3 2.08 C 1.73333 km/h
863 08-01-2021 22:00:00 1.64167 C 5.18 g/m*3 1.64 C 1.86667 km/h
864 08-01-2021 23:00:00 0.81667 C 4.89 g/m*3 0.82 C 0.66667 km/h
865 09-01-2021 00:00:00 0.69167 C 4.88 g/m*3 0.69 C 1.86667 km/h
866 09-01-2021 01:00:00 0.89167 C 4.95 g/m*3 0.89 C 0.8 km/h
867 09-01-2021 02:00:00 1 C 4.98 g/m*3 1 C 0.13333 km/h
868 09-01-2021 03:00:00 1.10833 C 5.02 g/m*3 1.11 C 0.66667 km/h
869 09-01-2021 04:00:00 0.85 C 4.95 g/m*3 0.85 C 0.93333 km/h
870 09-01-2021 05:00:00 0.9 C 5 g/m*3 0.9 C 0.26667 km/h
871 09-01-2021 06:00:00 0.94167 C 5.01 g/m*3 0.94 C 0.66667 km/h
872 09-01-2021 07:00:00 1.025 C 5.04 g/m*3 1.02 C 0.53333 km/h
873 09-01-2021 08:00:00 1.06667 C 5.05 g/m*3 1.07 C 0.8 km/h
874 09-01-2021 09:00:00 1.01667 C 4.99 g/m*3 1.02 C 0.26667 km/h
875 09-01-2021 10:00:00 0.91667 C 4.98 g/m*3 0.92 C 0.4 km/h
Sensor: Nr:Datum:Temp:Abs-Feuchte:Windchill:Wind:
Aussen-T/F 876 09-01-2021 11:00:00 1.10833 C 5.03 g/m*3 1.11 C 1.60833 km/h
877 09-01-2021 12:00:00 1.34167 C 5.07 g/m*3 1.34 C 2.41667 km/h
878 09-01-2021 13:00:00 2.15833 C 5.1 g/m*3 2.16 C 3.35 km/h
879 09-01-2021 14:00:00 2.875 C 5.14 g/m*3 2.88 C 3.2 km/h
880 09-01-2021 15:00:00 2.925 C 5.03 g/m*3 2.93 C 4.13333 km/h
881 09-01-2021 16:00:00 2.5 C 5.05 g/m*3 2.5 C 1.33333 km/h
882 09-01-2021 17:00:00 1.64167 C 4.93 g/m*3 1.64 C 0.4 km/h
883 09-01-2021 18:00:00 1.3 C 4.91 g/m*3 1.3 C 0 km/h
884 09-01-2021 19:00:00 1.26667 C 4.96 g/m*3 1.27 C 0 km/h
885 09-01-2021 20:00:00 1.16667 C 4.93 g/m*3 1.17 C 0 km/h
886 09-01-2021 21:00:00 1.09167 C 4.94 g/m*3 1.09 C 0 km/h
887 09-01-2021 22:00:00 1.19167 C 5 g/m*3 1.19 C 0 km/h
888 09-01-2021 23:00:00 1.25 C 5.02 g/m*3 1.25 C 0 km/h
889 10-01-2021 00:00:00 0.96667 C 4.92 g/m*3 0.97 C 0 km/h
890 10-01-2021 01:00:00 0.83333 C 4.9 g/m*3 0.83 C 0 km/h
891 10-01-2021 02:00:00 0.9 C 4.95 g/m*3 0.9 C 0 km/h
892 10-01-2021 03:00:00 0.95833 C 4.97 g/m*3 0.96 C 0 km/h
893 10-01-2021 04:00:00 0.88333 C 4.94 g/m*3 0.88 C 0 km/h
894 10-01-2021 05:00:00 0.7 C 4.88 g/m*3 0.7 C 0 km/h
895 10-01-2021 06:00:00 0.71667 C 4.89 g/m*3 0.72 C 0 km/h
896 10-01-2021 07:00:00 0.84167 C 4.93 g/m*3 0.84 C 0 km/h
897 10-01-2021 08:00:00 0.70833 C 4.88 g/m*3 0.71 C 0 km/h
898 10-01-2021 09:00:00 0.775 C 4.91 g/m*3 0.78 C 0 km/h
899 10-01-2021 10:00:00 1.24167 C 5.08 g/m*3 1.24 C 0 km/h
900 10-01-2021 11:00:00 1.775 C 5.22 g/m*3 1.78 C 0.8 km/h
Sensor: Nr:Datum:Temp:Abs-Feuchte:Windchill:Wind:
Aussen-T/F 901 10-01-2021 12:00:00 2.325 C 5.21 g/m*3 2.33 C 1.86667 km/h
902 10-01-2021 13:00:00 2.88333 C 5.12 g/m*3 2.88 C 1.33333 km/h
903 10-01-2021 14:00:00 3.21667 C 4.99 g/m*3 3.22 C 1.46667 km/h
904 10-01-2021 15:00:00 3.325 C 4.9 g/m*3 3.33 C 0.4 km/h
905 10-01-2021 16:00:00 2.80833 C 5.01 g/m*3 2.81 C 0.93333 km/h
906 10-01-2021 17:00:00 0.91667 C 4.55 g/m*3 0.92 C 4.26667 km/h
907 10-01-2021 18:00:00 -0.45833 C 4.28 g/m*3 -0.46 C 1.2 km/h
908 10-01-2021 19:00:00 -1.075 C 4.17 g/m*3 -1.08 C 0 km/h
909 10-01-2021 20:00:00 -1.65833 C 4.04 g/m*3 -1.66 C 0 km/h
910 10-01-2021 21:00:00 -2.08333 C 3.94 g/m*3 -2.08 C 0 km/h
911 10-01-2021 22:00:00 -2.35833 C 3.9 g/m*3 -2.36 C 0 km/h
912 10-01-2021 23:00:00 -2.70833 C 3.81 g/m*3 -2.71 C 0.13333 km/h
913 11-01-2021 00:00:00 -2.975 C 3.74 g/m*3 -2.98 C 0.13333 km/h
914 11-01-2021 01:00:00 -3.30833 C 3.65 g/m*3 -3.31 C 0.13333 km/h
915 11-01-2021 02:00:00 -2.94167 C 3.77 g/m*3 -2.94 C 0.13333 km/h
916 11-01-2021 03:00:00 -3.30833 C 3.65 g/m*3 -3.31 C 0 km/h
917 11-01-2021 04:00:00 -3.59167 C 3.58 g/m*3 -3.59 C 0 km/h
918 11-01-2021 05:00:00 -3.86667 C 3.51 g/m*3 -3.87 C 0 km/h
919 11-01-2021 06:00:00 -4.125 C 3.46 g/m*3 -4.13 C 0 km/h
920 11-01-2021 07:00:00 -3.925 C 3.53 g/m*3 -3.93 C 0.66667 km/h
921 11-01-2021 08:00:00 -3.36667 C 3.67 g/m*3 -3.37 C 1.2 km/h
922 11-01-2021 09:00:00 -2.6 C 3.88 g/m*3 -2.6 C 0.93333 km/h
923 11-01-2021 10:00:00 -1.30833 C 4.18 g/m*3 -3.24 C 5.35 km/h
924 11-01-2021 11:00:00 0.08333 C 4.32 g/m*3 -2.66 C 8.05 km/h
925 11-01-2021 12:00:00 1.01667 C 4.35 g/m*3 -2.32 C 10.88333 km/h
Sensor: Nr:Datum:Temp:Abs-Feuchte:Windchill:Wind:
Aussen-T/F 926 11-01-2021 13:00:00 1.825 C 4.43 g/m*3 -1.22 C 10.35 km/h
927 11-01-2021 14:00:00 2.26667 C 4.55 g/m*3 0.07 C 7.525 km/h
928 11-01-2021 15:00:00 2.375 C 4.68 g/m*3 2.38 C 3.74167 km/h
929 11-01-2021 16:00:00 2.33333 C 4.86 g/m*3 2.33 C 0.53333 km/h
930 11-01-2021 17:00:00 1.79167 C 4.85 g/m*3 1.79 C 2 km/h
931 11-01-2021 18:00:00 1.66667 C 4.82 g/m*3 1.67 C 1.86667 km/h
932 11-01-2021 19:00:00 1.76667 C 4.82 g/m*3 1.77 C 3.34167 km/h
933 11-01-2021 20:00:00 2 C 4.88 g/m*3 2 C 4.14167 km/h
934 11-01-2021 21:00:00 2.325 C 4.93 g/m*3 0.9 C 5.35833 km/h
935 11-01-2021 22:00:00 2.49167 C 5.01 g/m*3 0.73 C 6.3 km/h
936 11-01-2021 23:00:00 2.8 C 5.11 g/m*3 0.07 C 9.81667 km/h
937 12-01-2021 00:00:00 3 C 5.24 g/m*3 -0.24 C 12.35833 km/h
938 12-01-2021 01:00:00 3.26667 C 5.38 g/m*3 -0.65 C 16.63333 km/h
939 12-01-2021 02:00:00 3.34167 C 5.42 g/m*3 -0.23 C 14.63333 km/h
940 12-01-2021 03:00:00 3.51667 C 5.54 g/m*3 -0.02 C 14.63333 km/h
941 12-01-2021 04:00:00 3.725 C 5.59 g/m*3 -0.47 C 19.45 km/h
942 12-01-2021 05:00:00 3.875 C 5.63 g/m*3 -0.78 C 23.6 km/h
943 12-01-2021 06:00:00 3.85833 C 5.67 g/m*3 -0.74 C 23.04167 km/h
944 12-01-2021 07:00:00 3.79167 C 5.66 g/m*3 -0.78 C 22.64167 km/h
945 12-01-2021 08:00:00 3.95833 C 5.66 g/m*3 -0.91 C 25.86667 km/h
946 12-01-2021 09:00:00 4.14167 C 5.69 g/m*3 -0.76 C 26.69167 km/h
947 12-01-2021 10:00:00 4.41667 C 5.8 g/m*3 -0.2 C 24.66667 km/h
948 12-01-2021 11:00:00 4.68333 C 5.96 g/m*3 0.69 C 19.83333 km/h
949 12-01-2021 12:00:00 5.05 C 6.15 g/m*3 1.35 C 18.23333 km/h
950 12-01-2021 13:00:00 5.225 C 6.3 g/m*3 1.82 C 16.36667 km/h
Sensor: Nr:Datum:Temp:Abs-Feuchte:Windchill:Wind:
Aussen-T/F 951 12-01-2021 14:00:00 5.18333 C 6.47 g/m*3 2.75 C 10.61667 km/h
952 12-01-2021 15:00:00 5.40833 C 6.63 g/m*3 2.86 C 11.41667 km/h
953 12-01-2021 16:00:00 5.45 C 6.58 g/m*3 3.42 C 9.00833 km/h
954 12-01-2021 17:00:00 4.56667 C 6.12 g/m*3 2.88 C 7.10833 km/h
955 12-01-2021 18:00:00 3.25833 C 5.65 g/m*3 3.26 C 4.95 km/h
956 12-01-2021 19:00:00 2.45833 C 5.41 g/m*3 2.46 C 4.80833 km/h
957 12-01-2021 20:00:00 2.75 C 5.47 g/m*3 1.5 C 5.075 km/h
958 12-01-2021 21:00:00 3.05 C 5.45 g/m*3 1.61 C 5.64167 km/h
959 12-01-2021 22:00:00 2.96667 C 5.38 g/m*3 2.97 C 3.46667 km/h
960 12-01-2021 23:00:00 2.14167 C 5.21 g/m*3 2.14 C 2.8 km/h
961 13-01-2021 00:00:00 1.93333 C 5.2 g/m*3 1.93 C 2.8 km/h
962 13-01-2021 01:00:00 1.59167 C 5.1 g/m*3 1.59 C 4.275 km/h
963 13-01-2021 02:00:00 1.7 C 5.1 g/m*3 -0.8 C 8.2 km/h
964 13-01-2021 03:00:00 1.73333 C 5 g/m*3 -0.92 C 8.75833 km/h
965 13-01-2021 04:00:00 1.63333 C 4.91 g/m*3 -0.96 C 8.475 km/h
966 13-01-2021 05:00:00 1.66667 C 4.89 g/m*3 -1.07 C 9.01667 km/h
967 13-01-2021 06:00:00 1.775 C 4.92 g/m*3 -1.04 C 9.39167 km/h
968 13-01-2021 07:00:00 1.91667 C 4.92 g/m*3 -0.92 C 9.56667 km/h
969 13-01-2021 08:00:00 1.75833 C 4.93 g/m*3 -0.61 C 7.78333 km/h
970 13-01-2021 09:00:00 1.31667 C 4.9 g/m*3 -1.66 C 9.69167 km/h
971 13-01-2021 10:00:00 1.94167 C 5.14 g/m*3 -0.63 C 8.61667 km/h
972 13-01-2021 11:00:00 2.95 C 5.35 g/m*3 0.04 C 10.75833 km/h
973 13-01-2021 12:00:00 3.74167 C 5.45 g/m*3 0.59 C 12.76667 km/h
974 13-01-2021 13:00:00 4.15833 C 5.43 g/m*3 1.3 C 11.68333 km/h
975 13-01-2021 14:00:00 4.63333 C 5.3 g/m*3 1.98 C 11.15833 km/h
Sensor: Nr:Datum:Temp:Abs-Feuchte:Windchill:Wind:
Aussen-T/F 976 13-01-2021 15:00:00 4.05833 C 5.12 g/m*3 1.37 C 10.76667 km/h
977 13-01-2021 16:00:00 2.99167 C 5.01 g/m*3 0.57 C 8.75833 km/h
978 13-01-2021 17:00:00 2.39167 C 4.96 g/m*3 0.71 C 6.04167 km/h
979 13-01-2021 18:00:00 1.91667 C 4.95 g/m*3 1.92 C 2.53333 km/h
980 13-01-2021 19:00:00 1.8 C 5 g/m*3 1.8 C 4.26667 km/h
981 13-01-2021 20:00:00 2.03333 C 5.12 g/m*3 2.03 C 4.4 km/h
982 13-01-2021 21:00:00 2.49167 C 5.21 g/m*3 0.5 C 6.98333 km/h
983 13-01-2021 22:00:00 3.39167 C 5.18 g/m*3 1.5 C 7.11667 km/h
984 13-01-2021 23:00:00 3.725 C 5.2 g/m*3 1.69 C 7.8 km/h
985 14-01-2021 00:00:00 4.10833 C 5.45 g/m*3 1.67 C 9.68333 km/h
986 14-01-2021 01:00:00 4.05 C 5.8 g/m*3 1.79 C 8.86667 km/h
987 14-01-2021 02:00:00 3.76667 C 5.77 g/m*3 1.71 C 7.925 km/h
988 14-01-2021 03:00:00 3.56667 C 5.52 g/m*3 2.01 C 6.175 km/h
989 14-01-2021 04:00:00 3.275 C 5.19 g/m*3 1.59 C 6.44167 km/h
990 14-01-2021 05:00:00 2.61667 C 4.71 g/m*3 2.62 C 3.74167 km/h
991 14-01-2021 06:00:00 2.05 C 4.72 g/m*3 2.05 C 0.66667 km/h
992 14-01-2021 07:00:00 1.51667 C 4.63 g/m*3 1.52 C 0.66667 km/h
993 14-01-2021 08:00:00 1.36667 C 4.61 g/m*3 1.37 C 0.93333 km/h
994 14-01-2021 09:00:00 1.375 C 4.72 g/m*3 1.38 C 0.13333 km/h
995 14-01-2021 10:00:00 1.90833 C 4.8 g/m*3 1.91 C 0.53333 km/h
996 14-01-2021 11:00:00 2.425 C 4.72 g/m*3 1.02 C 5.34167 km/h
997 14-01-2021 12:00:00 2.625 C 4.65 g/m*3 0.94 C 6.15 km/h
998 14-01-2021 13:00:00 2.95 C 4.69 g/m*3 1.26 C 6.3 km/h
999 14-01-2021 14:00:00 3.11667 C 4.67 g/m*3 3.12 C 3.33333 km/h
1000 14-01-2021 15:00:00 3.09167 C 4.7 g/m*3 3.09 C 2.13333 km/h
Sensor: Nr:Datum:Temp:Abs-Feuchte:Windchill:Wind:
Aussen-T/F 1001 14-01-2021 16:00:00 2.63333 C 4.77 g/m*3 2.63 C 0.13333 km/h
1002 14-01-2021 17:00:00 1.36667 C 4.6 g/m*3 1.37 C 1.06667 km/h
1003 14-01-2021 18:00:00 0.89167 C 4.53 g/m*3 0.89 C 1.73333 km/h
1004 14-01-2021 19:00:00 0.275 C 4.42 g/m*3 0.28 C 1.06667 km/h
1005 14-01-2021 20:00:00 0.15833 C 4.46 g/m*3 0.16 C 1.875 km/h
1006 14-01-2021 21:00:00 0.08333 C 4.39 g/m*3 0.08 C 1.06667 km/h
1007 14-01-2021 22:00:00 -0.375 C 4.25 g/m*3 -0.38 C 1.06667 km/h
1008 14-01-2021 23:00:00 -0.70833 C 4.15 g/m*3 -0.71 C 2 km/h
1009 15-01-2021 00:00:00 -1.05833 C 4.06 g/m*3 -1.06 C 0.8 km/h
1010 15-01-2021 01:00:00 -1.55 C 3.96 g/m*3 -1.55 C 0.8 km/h
1011 15-01-2021 02:00:00 -2.04167 C 3.82 g/m*3 -2.04 C 0.66667 km/h
1012 15-01-2021 03:00:00 -2.425 C 3.77 g/m*3 -2.42 C 0.13333 km/h
1013 15-01-2021 04:00:00 -2.26667 C 3.85 g/m*3 -2.27 C 0.4 km/h
1014 15-01-2021 05:00:00 -1.65833 C 4 g/m*3 -1.66 C 0 km/h
1015 15-01-2021 06:00:00 -1.16667 C 4.1 g/m*3 -1.17 C 0 km/h
1016 15-01-2021 07:00:00 -0.81667 C 4.17 g/m*3 -0.82 C 0 km/h
1017 15-01-2021 08:00:00 -0.66667 C 4.2 g/m*3 -0.67 C 0 km/h
1018 15-01-2021 09:00:00 -0.28333 C 4.29 g/m*3 -0.28 C 0 km/h
1019 15-01-2021 10:00:00 -0.18333 C 4.28 g/m*3 -0.18 C 0.4 km/h
1020 15-01-2021 11:00:00 0.10833 C 4.17 g/m*3 0.11 C 4.14167 km/h
1021 15-01-2021 12:00:00 2.05 C 4.29 g/m*3 -0.75 C 9.55 km/h
1022 15-01-2021 13:00:00 2.35 C 4.43 g/m*3 -0.26 C 9.00833 km/h
1023 15-01-2021 14:00:00 2.45 C 4.52 g/m*3 0.24 C 7.65 km/h
1024 15-01-2021 15:00:00 2.55833 C 4.63 g/m*3 0.62 C 6.84167 km/h
1025 15-01-2021 16:00:00 2.325 C 4.66 g/m*3 0.35 C 6.84167 km/h
Sensor: Nr:Datum:Temp:Abs-Feuchte:Windchill:Wind:
Aussen-T/F 1026 15-01-2021 17:00:00 2 C 4.58 g/m*3 2 C 2.13333 km/h
1027 15-01-2021 18:00:00 1.71667 C 4.58 g/m*3 1.72 C 3.34167 km/h
1028 15-01-2021 19:00:00 1.51667 C 4.66 g/m*3 1.52 C 3.73333 km/h
1029 15-01-2021 20:00:00 1.39167 C 4.62 g/m*3 1.39 C 4 km/h
1030 15-01-2021 21:00:00 1.24167 C 4.6 g/m*3 1.24 C 3.75 km/h
1031 15-01-2021 22:00:00 1.11667 C 4.55 g/m*3 1.12 C 3.74167 km/h
1032 15-01-2021 23:00:00 1.075 C 4.59 g/m*3 1.08 C 4 km/h
1033 16-01-2021 00:00:00 0.85833 C 4.49 g/m*3 0.86 C 2.40833 km/h
1034 16-01-2021 01:00:00 0.9 C 4.14 g/m*3 -1.21 C 6.59167 km/h
1035 16-01-2021 02:00:00 0.79167 C 4.05 g/m*3 0.79 C 4.4 km/h
1036 16-01-2021 03:00:00 0.625 C 4.07 g/m*3 0.63 C 2.4 km/h
1037 16-01-2021 04:00:00 0.28333 C 4.1 g/m*3 0.28 C 0.13333 km/h
1038 16-01-2021 05:00:00 0.09167 C 4.16 g/m*3 0.09 C 0.93333 km/h
1039 16-01-2021 06:00:00 0.14167 C 4.15 g/m*3 0.14 C 0.8 km/h
1040 16-01-2021 07:00:00 -0.05 C 4.16 g/m*3 -0.05 C 0.13333 km/h
1041 16-01-2021 08:00:00 -0.15 C 4.19 g/m*3 -0.15 C 0 km/h
1042 16-01-2021 09:00:00 0.04167 C 4.24 g/m*3 0.04 C 0.4 km/h
1043 16-01-2021 10:00:00 0.83333 C 4.19 g/m*3 0.83 C 2.53333 km/h
1044 16-01-2021 11:00:00 1.28333 C 4.21 g/m*3 1.28 C 4.675 km/h
1045 16-01-2021 12:00:00 1.55 C 4.13 g/m*3 -0.45 C 6.55833 km/h
1046 16-01-2021 13:00:00 1.6 C 4.05 g/m*3 0.19 C 5.09167 km/h
1047 16-01-2021 14:00:00 1.4 C 3.87 g/m*3 1.4 C 3.33333 km/h
1048 16-01-2021 15:00:00 1.25833 C 3.79 g/m*3 1.26 C 4.01667 km/h
1049 16-01-2021 16:00:00 0.84167 C 3.8 g/m*3 0.84 C 1.06667 km/h
1050 16-01-2021 17:00:00 -0.04167 C 3.92 g/m*3 -0.04 C 0 km/h
Sensor: Nr:Datum:Temp:Abs-Feuchte:Windchill:Wind:
Aussen-T/F 1051 16-01-2021 18:00:00 -0.38333 C 3.93 g/m*3 -0.38 C 0 km/h
1052 16-01-2021 19:00:00 -0.18333 C 4.02 g/m*3 -0.18 C 0.4 km/h
1053 16-01-2021 20:00:00 -0.00833 C 4.25 g/m*3 -0.01 C 0.93333 km/h
1054 16-01-2021 21:00:00 -0.28333 C 4.37 g/m*3 -0.28 C 0.4 km/h
1055 16-01-2021 22:00:00 -0.44167 C 4.39 g/m*3 -0.44 C 0.53333 km/h
1056 16-01-2021 23:00:00 -0.68333 C 4.34 g/m*3 -0.68 C 0.26667 km/h
1057 17-01-2021 00:00:00 -0.78333 C 4.31 g/m*3 -0.78 C 0 km/h
1058 17-01-2021 01:00:00 -0.975 C 4.26 g/m*3 -0.98 C 0 km/h
1059 17-01-2021 02:00:00 -1.16667 C 4.2 g/m*3 -1.17 C 0 km/h
1060 17-01-2021 03:00:00 -1.2 C 4.19 g/m*3 -1.2 C 0 km/h
1061 17-01-2021 04:00:00 -1.16667 C 4.24 g/m*3 -1.17 C 0 km/h
1062 17-01-2021 05:00:00 -1.03333 C 4.28 g/m*3 -1.03 C 0 km/h
1063 17-01-2021 06:00:00 -0.85833 C 4.34 g/m*3 -0.86 C 0.13333 km/h
1064 17-01-2021 07:00:00 -0.75 C 4.37 g/m*3 -0.75 C 0 km/h
1065 17-01-2021 08:00:00 -0.65833 C 4.4 g/m*3 -0.66 C 0 km/h
1066 17-01-2021 09:00:00 -0.25 C 4.53 g/m*3 -0.25 C 0.53333 km/h
1067 17-01-2021 10:00:00 0.23333 C 4.68 g/m*3 0.23 C 0.4 km/h
1068 17-01-2021 11:00:00 0.68333 C 4.82 g/m*3 0.68 C 0 km/h
1069 17-01-2021 12:00:00 1.075 C 4.94 g/m*3 1.08 C 0 km/h
1070 17-01-2021 13:00:00 1.34167 C 5 g/m*3 1.34 C 2.26667 km/h
1071 17-01-2021 14:00:00 1.39167 C 5.06 g/m*3 1.39 C 2.4 km/h
1072 17-01-2021 15:00:00 1.6 C 5.14 g/m*3 1.6 C 0.13333 km/h
1073 17-01-2021 16:00:00 1.50833 C 5.11 g/m*3 1.51 C 0.4 km/h
1074 17-01-2021 17:00:00 1.58333 C 5.18 g/m*3 1.58 C 1.46667 km/h
1075 17-01-2021 18:00:00 1.69167 C 5.22 g/m*3 1.69 C 2.4 km/h
Sensor: Nr:Datum:Temp:Abs-Feuchte:Windchill:Wind:
Aussen-T/F 1076 17-01-2021 19:00:00 1.8 C 5.26 g/m*3 1.8 C 2.13333 km/h
1077 17-01-2021 20:00:00 1.86667 C 5.29 g/m*3 1.87 C 2.66667 km/h
1078 17-01-2021 21:00:00 1.95833 C 5.32 g/m*3 1.96 C 2.13333 km/h
1079 17-01-2021 22:00:00 2.11667 C 5.41 g/m*3 2.12 C 1.06667 km/h
1080 17-01-2021 23:00:00 2.275 C 5.49 g/m*3 2.28 C 2 km/h
1081 18-01-2021 00:00:00 2.34167 C 5.52 g/m*3 2.34 C 3.06667 km/h
1082 18-01-2021 01:00:00 2.3 C 5.5 g/m*3 2.3 C 2.93333 km/h
1083 18-01-2021 02:00:00 2.43333 C 5.55 g/m*3 2.43 C 2.8 km/h
1084 18-01-2021 03:00:00 2.58333 C 5.61 g/m*3 2.58 C 2.53333 km/h
1085 18-01-2021 04:00:00 2.04167 C 5.41 g/m*3 2.04 C 2.53333 km/h
1086 18-01-2021 05:00:00 2.30833 C 5.5 g/m*3 2.31 C 4.00833 km/h
1087 18-01-2021 06:00:00 2.43333 C 5.55 g/m*3 0.18 C 7.79167 km/h
1088 18-01-2021 07:00:00 2.475 C 5.55 g/m*3 -0.21 C 9.41667 km/h
1089 18-01-2021 08:00:00 2.59167 C 5.53 g/m*3 -0.08 C 9.41667 km/h
1090 18-01-2021 09:00:00 2.83333 C 5.59 g/m*3 -0.02 C 10.36667 km/h
1091 18-01-2021 10:00:00 3.44167 C 5.73 g/m*3 0.66 C 10.625 km/h
1092 18-01-2021 11:00:00 4.13333 C 5.9 g/m*3 1.63 C 9.96667 km/h
1093 18-01-2021 12:00:00 4.75833 C 6.01 g/m*3 2 C 11.83333 km/h
1094 18-01-2021 13:00:00 5.51667 C 6.11 g/m*3 2.57 C 13.83333 km/h
1095 18-01-2021 14:00:00 5.68333 C 6.01 g/m*3 2.2 C 17.83333 km/h
1096 18-01-2021 15:00:00 5.41667 C 5.87 g/m*3 2.45 C 13.83333 km/h
1097 18-01-2021 16:00:00 5 C 5.74 g/m*3 2.42 C 11.15833 km/h
1098 18-01-2021 17:00:00 4.525 C 5.69 g/m*3 2.04 C 10.225 km/h
1099 18-01-2021 18:00:00 4.56667 C 5.73 g/m*3 1.27 C 14.63333 km/h
1100 18-01-2021 19:00:00 4.76667 C 5.83 g/m*3 1.16 C 17.03333 km/h
Sensor: Nr:Datum:Temp:Abs-Feuchte:Windchill:Wind:
Aussen-T/F 1101 18-01-2021 20:00:00 4.8 C 5.9 g/m*3 1.07 C 17.975 km/h
1102 18-01-2021 21:00:00 4.85833 C 5.93 g/m*3 1.59 C 14.9 km/h
1103 18-01-2021 22:00:00 4.80833 C 5.99 g/m*3 1.51 C 15.03333 km/h
1104 18-01-2021 23:00:00 4.99167 C 6.07 g/m*3 1.44 C 17.03333 km/h
1105 19-01-2021 00:00:00 5.14167 C 6.01 g/m*3 2.07 C 14.1 km/h
1106 19-01-2021 01:00:00 5.01667 C 5.83 g/m*3 1.59 C 16.23333 km/h
1107 19-01-2021 02:00:00 4.66667 C 5.64 g/m*3 1.53 C 13.83333 km/h
1108 19-01-2021 03:00:00 4.475 C 5.55 g/m*3 3.25 C 5.64167 km/h
1109 19-01-2021 04:00:00 4.21667 C 5.52 g/m*3 4.22 C 4.96667 km/h
1110 19-01-2021 05:00:00 4.475 C 5.37 g/m*3 1.68 C 11.675 km/h
1111 19-01-2021 06:00:00 5.19167 C 5.42 g/m*3 1.8 C 16.23333 km/h
1112 19-01-2021 07:00:00 5.43333 C 5.55 g/m*3 1.67 C 19.56667 km/h
1113 19-01-2021 08:00:00 5.43333 C 5.59 g/m*3 1.33 C 22.525 km/h
1114 19-01-2021 09:00:00 5.31667 C 5.53 g/m*3 1.08 C 23.45 km/h
1115 19-01-2021 10:00:00 5.175 C 5.59 g/m*3 0.54 C 27.08333 km/h
1116 19-01-2021 11:00:00 4.40833 C 5.75 g/m*3 -0.45 C 27.09167 km/h
1117 19-01-2021 12:00:00 4.79167 C 5.83 g/m*3 -0.25 C 30.325 km/h
1118 19-01-2021 13:00:00 5.15833 C 5.99 g/m*3 0.52 C 27.09167 km/h
1119 19-01-2021 14:00:00 5.58333 C 6.17 g/m*3 1.32 C 24.4 km/h
1120 19-01-2021 15:00:00 6.05833 C 6.31 g/m*3 2.06 C 23.19167 km/h
1121 19-01-2021 16:00:00 5.625 C 6.29 g/m*3 1.54 C 22.8 km/h
1122 19-01-2021 17:00:00 5.38333 C 6.27 g/m*3 1.52 C 20.23333 km/h
1123 19-01-2021 18:00:00 5.29167 C 6.21 g/m*3 1.52 C 19.30833 km/h
1124 19-01-2021 19:00:00 5.55833 C 6.3 g/m*3 1.97 C 18.36667 km/h
1125 19-01-2021 20:00:00 5.65 C 6.15 g/m*3 2.04 C 18.76667 km/h
Sensor: Nr:Datum:Temp:Abs-Feuchte:Windchill:Wind:
Aussen-T/F 1126 19-01-2021 21:00:00 5.20833 C 5.8 g/m*3 2.64 C 11.3 km/h
1127 19-01-2021 22:00:00 4.83333 C 5.53 g/m*3 2.99 C 7.79167 km/h
1128 19-01-2021 23:00:00 5.175 C 5.24 g/m*3 3.15 C 8.74167 km/h
1129 20-01-2021 00:00:00 4.66667 C 5.19 g/m*3 4.67 C 3.075 km/h
1130 20-01-2021 01:00:00 4.38333 C 5.21 g/m*3 4.38 C 0.66667 km/h
1131 20-01-2021 02:00:00 3.61667 C 5.19 g/m*3 3.62 C 2.13333 km/h
1132 20-01-2021 03:00:00 3.74167 C 5.33 g/m*3 2.46 C 5.49167 km/h
1133 20-01-2021 04:00:00 4.875 C 5.36 g/m*3 4.88 C 2.4 km/h
1134 20-01-2021 05:00:00 5.08333 C 5.43 g/m*3 5.08 C 4 km/h
1135 20-01-2021 06:00:00 4.875 C 5.62 g/m*3 4.88 C 3.6 km/h
1136 20-01-2021 07:00:00 4.66667 C 5.61 g/m*3 4.67 C 3.34167 km/h
1137 20-01-2021 08:00:00 4.34167 C 5.55 g/m*3 4.34 C 1.73333 km/h
1138 20-01-2021 09:00:00 4.49167 C 5.58 g/m*3 4.49 C 1.46667 km/h
1139 20-01-2021 10:00:00 5.175 C 5.81 g/m*3 5.18 C 0.13333 km/h
1140 20-01-2021 11:00:00 6.25833 C 5.83 g/m*3 6.26 C 0.26667 km/h
1141 20-01-2021 12:00:00 7.40833 C 6.11 g/m*3 7.41 C 1.33333 km/h
1142 20-01-2021 13:00:00 8.38333 C 6.45 g/m*3 8.38 C 0.93333 km/h
1143 20-01-2021 14:00:00 9.1 C 6.67 g/m*3 9.1 C 2.26667 km/h
1144 20-01-2021 15:00:00 9.29167 C 6.87 g/m*3 9.29 C 3.21667 km/h
1145 20-01-2021 16:00:00 8.63333 C 6.92 g/m*3 8.63 C 1.33333 km/h
1146 20-01-2021 17:00:00 7.06667 C 6.66 g/m*3 7.07 C 3.33333 km/h
1147 20-01-2021 18:00:00 6.74167 C 6.74 g/m*3 6.74 C 3.86667 km/h
1148 20-01-2021 19:00:00 7.15833 C 6.8 g/m*3 7.16 C 4.26667 km/h
1149 20-01-2021 20:00:00 7.30833 C 6.81 g/m*3 7.31 C 3.2 km/h
1150 20-01-2021 21:00:00 7.275 C 6.76 g/m*3 7.28 C 3.875 km/h
Sensor: Nr:Datum:Temp:Abs-Feuchte:Windchill:Wind:
Aussen-T/F 1151 20-01-2021 22:00:00 8.225 C 6.75 g/m*3 8.23 C 3.73333 km/h
1152 20-01-2021 23:00:00 9.16667 C 6.73 g/m*3 8.4 C 6.43333 km/h
1153 21-01-2021 00:00:00 9.10833 C 6.64 g/m*3 8.4 C 6.16667 km/h
1154 21-01-2021 01:00:00 8.825 C 6.64 g/m*3 8.11 C 6.025 km/h
1155 21-01-2021 02:00:00 9.94167 C 6.78 g/m*3 9.54 C 5.50833 km/h
1156 21-01-2021 03:00:00 10.125 C 6.66 g/m*3 9.01 C 8.725 km/h
1157 21-01-2021 04:00:00 11.25 C 6.64 g/m*3 11.25 C 13.28333 km/h
1158 21-01-2021 05:00:00 11.38333 C 6.93 g/m*3 11.38 C 11.01667 km/h
1159 21-01-2021 06:00:00 11.19167 C 7.09 g/m*3 11.19 C 9.39167 km/h
1160 21-01-2021 07:00:00 11.21667 C 7.47 g/m*3 11.22 C 8.725 km/h
1161 21-01-2021 08:00:00 9.81667 C 8.04 g/m*3 8.99 C 7.10833 km/h
1162 21-01-2021 09:00:00 8.05833 C 7.43 g/m*3 6.2 C 10.60833 km/h
1163 21-01-2021 10:00:00 6.74167 C 6.9 g/m*3 4.45 C 11.53333 km/h
1164 21-01-2021 11:00:00 6.9 C 6.86 g/m*3 4.86 C 10.34167 km/h
1165 21-01-2021 12:00:00 7.275 C 6.72 g/m*3 4.37 C 16.36667 km/h
1166 21-01-2021 13:00:00 7.825 C 6.68 g/m*3 6.5 C 7.8 km/h
1167 21-01-2021 14:00:00 8.35 C 6.69 g/m*3 6.72 C 9.66667 km/h
1168 21-01-2021 15:00:00 8.7 C 6.52 g/m*3 7.22 C 9.25833 km/h
1169 21-01-2021 16:00:00 8.45 C 6.56 g/m*3 8.45 C 2.80833 km/h
1170 21-01-2021 17:00:00 7.96667 C 6.64 g/m*3 7.97 C 2.13333 km/h
1171 21-01-2021 18:00:00 7.98333 C 6.89 g/m*3 7.98 C 2 km/h
1172 21-01-2021 19:00:00 7.75 C 7.21 g/m*3 7.75 C 2.275 km/h
1173 21-01-2021 20:00:00 7.53333 C 7.49 g/m*3 7.53 C 3.46667 km/h
1174 21-01-2021 21:00:00 8.43333 C 8.09 g/m*3 7.22 C 7.78333 km/h
1175 21-01-2021 22:00:00 9.69167 C 8.38 g/m*3 7.63 C 14.23333 km/h
Sensor: Nr:Datum:Temp:Abs-Feuchte:Windchill:Wind:
Aussen-T/F 1176 21-01-2021 23:00:00 9.89167 C 8.33 g/m*3 7.66 C 15.975 km/h
1177 22-01-2021 00:00:00 10.19167 C 8.21 g/m*3 7.95 C 16.775 km/h
1178 22-01-2021 01:00:00 10.125 C 8.14 g/m*3 8.43 C 12.21667 km/h
1179 22-01-2021 02:00:00 9.64167 C 8.03 g/m*3 8.26 C 9.675 km/h
1180 22-01-2021 03:00:00 9.86667 C 8.08 g/m*3 7.67 C 15.7 km/h
1181 22-01-2021 04:00:00 10.075 C 8.18 g/m*3 8.08 C 14.36667 km/h
1182 22-01-2021 05:00:00 8.275 C 7.4 g/m*3 6.24 C 11.925 km/h
1183 22-01-2021 06:00:00 6.05 C 6.73 g/m*3 6.05 C 2.13333 km/h
1184 22-01-2021 07:00:00 5.09167 C 6.37 g/m*3 5.09 C 2.53333 km/h
1185 22-01-2021 08:00:00 4.575 C 6.23 g/m*3 4.58 C 1.86667 km/h
1186 22-01-2021 09:00:00 4.44167 C 6.22 g/m*3 4.44 C 2.8 km/h
1187 22-01-2021 10:00:00 4.68333 C 6.32 g/m*3 4.68 C 1.86667 km/h
1188 22-01-2021 11:00:00 5.06667 C 6.49 g/m*3 5.07 C 2.53333 km/h
1189 22-01-2021 12:00:00 5.53333 C 6.63 g/m*3 5.53 C 2.53333 km/h
1190 22-01-2021 13:00:00 5.96667 C 6.61 g/m*3 5.1 C 5.21667 km/h
1191 22-01-2021 14:00:00 6.05 C 6.56 g/m*3 5.06 C 5.60833 km/h
1192 22-01-2021 15:00:00 6.24167 C 6.55 g/m*3 6.24 C 2.13333 km/h
1193 22-01-2021 16:00:00 5.76667 C 6.46 g/m*3 5.77 C 2.26667 km/h
1194 22-01-2021 17:00:00 3.85 C 5.78 g/m*3 3.85 C 4.8 km/h
1195 22-01-2021 18:00:00 2.825 C 5.5 g/m*3 2.83 C 0.26667 km/h
1196 22-01-2021 19:00:00 2.71667 C 5.52 g/m*3 2.72 C 0 km/h
1197 22-01-2021 20:00:00 2.55 C 5.48 g/m*3 2.55 C 0 km/h
1198 22-01-2021 21:00:00 2.59167 C 5.54 g/m*3 2.59 C 0.66667 km/h
1199 22-01-2021 22:00:00 2.64167 C 5.57 g/m*3 2.64 C 0.13333 km/h
1200 22-01-2021 23:00:00 2.55833 C 5.54 g/m*3 2.56 C 0.53333 km/h
Sensor: Nr:Datum:Temp:Abs-Feuchte:Windchill:Wind:
Aussen-T/F 1201 23-01-2021 00:00:00 2.5 C 5.52 g/m*3 2.5 C 1.46667 km/h
1202 23-01-2021 01:00:00 2.49167 C 5.52 g/m*3 2.49 C 1.46667 km/h
1203 23-01-2021 02:00:00 2.31667 C 5.45 g/m*3 2.32 C 1.6 km/h
1204 23-01-2021 03:00:00 2.35 C 5.47 g/m*3 0.98 C 5.21667 km/h
1205 23-01-2021 04:00:00 2.60833 C 5.56 g/m*3 0.42 C 7.66667 km/h
1206 23-01-2021 05:00:00 3.00833 C 5.7 g/m*3 1.37 C 6.16667 km/h
1207 23-01-2021 06:00:00 2.90833 C 5.63 g/m*3 2.91 C 2 km/h
1208 23-01-2021 07:00:00 3.2 C 5.72 g/m*3 3.2 C 0.13333 km/h
1209 23-01-2021 08:00:00 3.28333 C 5.78 g/m*3 3.28 C 1.46667 km/h
1210 23-01-2021 09:00:00 3.73333 C 5.93 g/m*3 3.73 C 0.66667 km/h
1211 23-01-2021 10:00:00 4 C 6.03 g/m*3 4 C 0.4 km/h
1212 23-01-2021 11:00:00 4.85833 C 6.28 g/m*3 4.86 C 3.75 km/h
1213 23-01-2021 12:00:00 5.35 C 6.21 g/m*3 4.03 C 6.29167 km/h
1214 23-01-2021 13:00:00 5.96667 C 6.22 g/m*3 5.97 C 3.60833 km/h
1215 23-01-2021 14:00:00 6.275 C 6.33 g/m*3 6.28 C 0.93333 km/h
1216 23-01-2021 15:00:00 6.475 C 6.33 g/m*3 6.48 C 0.8 km/h
1217 23-01-2021 16:00:00 6.09167 C 6.24 g/m*3 6.09 C 2.13333 km/h
1218 23-01-2021 17:00:00 5.40833 C 6.13 g/m*3 5.41 C 0.8 km/h
1219 23-01-2021 18:00:00 4.88333 C 6 g/m*3 4.88 C 1.73333 km/h
1220 23-01-2021 19:00:00 4.59167 C 6.06 g/m*3 4.59 C 1.2 km/h
1221 23-01-2021 20:00:00 4.2 C 6.01 g/m*3 4.2 C 0.4 km/h
1222 23-01-2021 21:00:00 3.875 C 5.93 g/m*3 3.88 C 0.53333 km/h
1223 23-01-2021 22:00:00 3.61667 C 5.89 g/m*3 3.62 C 1.73333 km/h
1224 23-01-2021 23:00:00 3.56667 C 5.87 g/m*3 3.57 C 0.13333 km/h
1225 24-01-2021 00:00:00 3.6 C 5.91 g/m*3 3.6 C 0 km/h
Sensor: Nr:Datum:Temp:Abs-Feuchte:Windchill:Wind:
Aussen-T/F 1226 24-01-2021 01:00:00 3.39167 C 5.84 g/m*3 3.39 C 1.34167 km/h
1227 24-01-2021 02:00:00 2.28333 C 5.39 g/m*3 2.28 C 3.86667 km/h
1228 24-01-2021 03:00:00 2.16667 C 5.39 g/m*3 -0.36 C 8.59167 km/h
1229 24-01-2021 04:00:00 2.09167 C 5.23 g/m*3 -1.58 C 13.56667 km/h
1230 24-01-2021 05:00:00 2.21667 C 5.19 g/m*3 -1.3 C 12.9 km/h
1231 24-01-2021 06:00:00 2.29167 C 5.2 g/m*3 -1.69 C 15.56667 km/h
1232 24-01-2021 07:00:00 2.075 C 5.17 g/m*3 -1.28 C 11.96667 km/h
1233 24-01-2021 08:00:00 1.84167 C 5.16 g/m*3 -1.17 C 10.23333 km/h
1234 24-01-2021 09:00:00 1.83333 C 5.21 g/m*3 -1.08 C 9.825 km/h
1235 24-01-2021 10:00:00 2.33333 C 5.4 g/m*3 0.14 C 7.525 km/h
1236 24-01-2021 11:00:00 2.68333 C 5.51 g/m*3 1.1 C 5.9 km/h
1237 24-01-2021 12:00:00 2.95833 C 5.53 g/m*3 0.02 C 10.89167 km/h
1238 24-01-2021 13:00:00 3.65833 C 5.51 g/m*3 0.67 C 11.825 km/h
1239 24-01-2021 14:00:00 3.85 C 5.41 g/m*3 0.62 C 13.29167 km/h
1240 24-01-2021 15:00:00 3.78333 C 5.23 g/m*3 1.25 C 9.81667 km/h
1241 24-01-2021 16:00:00 3.29167 C 5.06 g/m*3 1.11 C 8.05833 km/h
1242 24-01-2021 17:00:00 2.06667 C 4.74 g/m*3 -0.37 C 8.19167 km/h
1243 24-01-2021 18:00:00 0.875 C 4.55 g/m*3 -0.81 C 5.49167 km/h
1244 24-01-2021 19:00:00 0.075 C 4.47 g/m*3 0.08 C 0.93333 km/h
1245 24-01-2021 20:00:00 -0.125 C 4.48 g/m*3 -0.13 C 0.13333 km/h
1246 24-01-2021 21:00:00 0.03333 C 4.56 g/m*3 0.03 C 0.8 km/h
1247 24-01-2021 22:00:00 0.5 C 4.64 g/m*3 0.5 C 3.2 km/h
1248 24-01-2021 23:00:00 1.275 C 4.67 g/m*3 1.27 C 3.86667 km/h
1249 25-01-2021 00:00:00 1.225 C 4.7 g/m*3 1.23 C 2.40833 km/h
1250 25-01-2021 01:00:00 0.85 C 4.75 g/m*3 0.85 C 1.33333 km/h
Sensor: Nr:Datum:Temp:Abs-Feuchte:Windchill:Wind:
Aussen-T/F 1251 25-01-2021 02:00:00 0.88333 C 4.79 g/m*3 0.88 C 2.4 km/h
1252 25-01-2021 03:00:00 0.86667 C 4.76 g/m*3 0.87 C 4.28333 km/h
1253 25-01-2021 04:00:00 1.03333 C 4.81 g/m*3 -1.2 C 6.98333 km/h
1254 25-01-2021 05:00:00 1.2 C 4.85 g/m*3 1.2 C 2 km/h
1255 25-01-2021 06:00:00 1.05833 C 4.84 g/m*3 1.06 C 0 km/h
1256 25-01-2021 07:00:00 0.9 C 4.83 g/m*3 0.9 C 0 km/h
1257 25-01-2021 08:00:00 0.94167 C 4.86 g/m*3 0.94 C 0 km/h
1258 25-01-2021 09:00:00 1.15 C 4.95 g/m*3 1.15 C 0 km/h
1259 25-01-2021 10:00:00 1.53333 C 5.11 g/m*3 1.53 C 0 km/h
1260 25-01-2021 11:00:00 1.9 C 5.24 g/m*3 1.9 C 0.13333 km/h
1261 25-01-2021 12:00:00 2.25833 C 5.37 g/m*3 2.26 C 0.66667 km/h
1262 25-01-2021 13:00:00 2.20833 C 5.34 g/m*3 2.21 C 4.41667 km/h
1263 25-01-2021 14:00:00 2.16667 C 5.24 g/m*3 0.35 C 6.30833 km/h
1264 25-01-2021 15:00:00 2.13333 C 5.23 g/m*3 0.79 C 5.09167 km/h
1265 25-01-2021 16:00:00 2.1 C 5.2 g/m*3 0.7 C 5.21667 km/h
1266 25-01-2021 17:00:00 2.09167 C 5.2 g/m*3 2.09 C 2.13333 km/h
1267 25-01-2021 18:00:00 1.45 C 5 g/m*3 1.45 C 1.46667 km/h
1268 25-01-2021 19:00:00 1.175 C 4.94 g/m*3 1.18 C 1.86667 km/h
1269 25-01-2021 20:00:00 0.54167 C 4.73 g/m*3 0.54 C 4.8 km/h
1270 25-01-2021 21:00:00 0.43333 C 4.68 g/m*3 -1.43 C 5.75 km/h
1271 25-01-2021 22:00:00 0.63333 C 4.63 g/m*3 -1.75 C 7.25 km/h
1272 25-01-2021 23:00:00 1.33333 C 4.73 g/m*3 -1.74 C 10.08333 km/h
1273 26-01-2021 00:00:00 1.7 C 4.8 g/m*3 -1.79 C 12.23333 km/h
1274 26-01-2021 01:00:00 1.75 C 4.83 g/m*3 -1.89 C 13.03333 km/h
1275 26-01-2021 02:00:00 1.86667 C 4.89 g/m*3 -2.03 C 14.5 km/h
Sensor: Nr:Datum:Temp:Abs-Feuchte:Windchill:Wind:
Aussen-T/F 1276 26-01-2021 03:00:00 2.06667 C 4.94 g/m*3 -1.35 C 12.23333 km/h
1277 26-01-2021 04:00:00 2.35833 C 5.03 g/m*3 -1.3 C 13.83333 km/h
1278 26-01-2021 05:00:00 2.85 C 5.16 g/m*3 -1 C 15.56667 km/h
1279 26-01-2021 06:00:00 3.175 C 5.24 g/m*3 -0.53 C 15.16667 km/h
1280 26-01-2021 07:00:00 3.39167 C 5.25 g/m*3 -0.28 C 15.3 km/h
1281 26-01-2021 08:00:00 3.8 C 5.21 g/m*3 0.24 C 15.16667 km/h
1282 26-01-2021 09:00:00 3.80833 C 5.26 g/m*3 0.43 C 14.1 km/h
1283 26-01-2021 10:00:00 4.23333 C 5.33 g/m*3 1.14 C 13.03333 km/h
1284 26-01-2021 11:00:00 4.58333 C 5.35 g/m*3 1.21 C 15.16667 km/h
1285 26-01-2021 12:00:00 4.88333 C 5.44 g/m*3 2.02 C 12.5 km/h
1286 26-01-2021 13:00:00 5.15 C 5.46 g/m*3 2.19 C 13.43333 km/h
1287 26-01-2021 14:00:00 5.00833 C 5.42 g/m*3 1.86 C 14.36667 km/h
1288 26-01-2021 15:00:00 4.71667 C 5.32 g/m*3 1.75 C 12.9 km/h
1289 26-01-2021 16:00:00 4.55833 C 5.26 g/m*3 1.65 C 12.36667 km/h
1290 26-01-2021 17:00:00 4.10833 C 5.03 g/m*3 0.78 C 14.23333 km/h
1291 26-01-2021 18:00:00 3.275 C 4.85 g/m*3 1.09 C 8.075 km/h
1292 26-01-2021 19:00:00 2.08333 C 4.77 g/m*3 0.41 C 5.9 km/h
1293 26-01-2021 20:00:00 1.83333 C 4.86 g/m*3 -0.43 C 7.5 km/h
1294 26-01-2021 21:00:00 2.65833 C 5.07 g/m*3 -0.16 C 10.09167 km/h
1295 26-01-2021 22:00:00 2.75 C 5.08 g/m*3 -0.35 C 11.43333 km/h
1296 26-01-2021 23:00:00 2.31667 C 4.94 g/m*3 -0.03 C 8.05 km/h
1297 27-01-2021 00:00:00 2.03333 C 4.85 g/m*3 2.03 C 2.40833 km/h
1298 27-01-2021 01:00:00 1.38333 C 4.71 g/m*3 1.38 C 2.4 km/h
1299 27-01-2021 02:00:00 1.01667 C 4.65 g/m*3 1.02 C 1.46667 km/h
1300 27-01-2021 03:00:00 1.05 C 4.72 g/m*3 1.05 C 0.8 km/h
Sensor: Nr:Datum:Temp:Abs-Feuchte:Windchill:Wind:
Aussen-T/F 1301 27-01-2021 04:00:00 1.41667 C 4.78 g/m*3 -0.03 C 5.1 km/h
1302 27-01-2021 05:00:00 1.79167 C 4.83 g/m*3 1.79 C 4.95833 km/h
1303 27-01-2021 06:00:00 1.61667 C 4.9 g/m*3 1.62 C 2.13333 km/h
1304 27-01-2021 07:00:00 1.3 C 4.9 g/m*3 1.3 C 0 km/h
1305 27-01-2021 08:00:00 1.3 C 4.98 g/m*3 1.3 C 1.86667 km/h
1306 27-01-2021 09:00:00 1.55 C 5.07 g/m*3 1.55 C 2.53333 km/h
1307 27-01-2021 10:00:00 1.68333 C 5.14 g/m*3 1.68 C 0.26667 km/h
1308 27-01-2021 11:00:00 2.2 C 5.35 g/m*3 0.64 C 5.64167 km/h
1309 27-01-2021 12:00:00 2.59167 C 5.44 g/m*3 -0.11 C 9.55 km/h
1310 27-01-2021 13:00:00 2.78333 C 5.51 g/m*3 0.37 C 8.59167 km/h
1311 27-01-2021 14:00:00 2.75833 C 5.5 g/m*3 0.19 C 9.15 km/h
1312 27-01-2021 15:00:00 2.80833 C 5.56 g/m*3 -0.58 C 12.9 km/h
1313 27-01-2021 16:00:00 2.86667 C 5.6 g/m*3 -0.56 C 13.16667 km/h
1314 27-01-2021 17:00:00 2.89167 C 5.61 g/m*3 -0.24 C 11.7 km/h
1315 27-01-2021 18:00:00 2.925 C 5.62 g/m*3 -0.11 C 11.29167 km/h
1316 27-01-2021 19:00:00 3.06667 C 5.67 g/m*3 -0.05 C 11.83333 km/h
1317 27-01-2021 20:00:00 3.225 C 5.72 g/m*3 0.17 C 11.7 km/h
1318 27-01-2021 21:00:00 3.375 C 5.73 g/m*3 0.4 C 11.43333 km/h
1319 27-01-2021 22:00:00 3.6 C 5.82 g/m*3 0.79 C 10.9 km/h
1320 27-01-2021 23:00:00 3.775 C 5.89 g/m*3 0.89 C 11.425 km/h
1321 28-01-2021 00:00:00 3.89167 C 5.93 g/m*3 1.03 C 11.43333 km/h
1322 28-01-2021 01:00:00 4.11667 C 6.02 g/m*3 1.22 C 11.825 km/h
1323 28-01-2021 02:00:00 4.35 C 6.12 g/m*3 2.47 C 7.64167 km/h
1324 28-01-2021 03:00:00 4.66667 C 6.25 g/m*3 2.66 C 8.33333 km/h
1325 28-01-2021 04:00:00 4.56667 C 6.27 g/m*3 4.57 C 2.4 km/h
Sensor: Nr:Datum:Temp:Abs-Feuchte:Windchill:Wind:
Aussen-T/F 1326 28-01-2021 05:00:00 4.5 C 6.24 g/m*3 4.5 C 0 km/h
1327 28-01-2021 06:00:00 4.4 C 6.24 g/m*3 4.4 C 0 km/h
1328 28-01-2021 07:00:00 4.3 C 6.23 g/m*3 4.3 C 0 km/h
1329 28-01-2021 08:00:00 4.2 C 6.19 g/m*3 4.2 C 0 km/h
1330 28-01-2021 09:00:00 4.33333 C 6.24 g/m*3 4.33 C 0 km/h
1331 28-01-2021 10:00:00 4.61667 C 6.38 g/m*3 4.62 C 1.2 km/h
1332 28-01-2021 11:00:00 5.03333 C 6.61 g/m*3 5.03 C 1.6 km/h
1333 28-01-2021 12:00:00 6.30833 C 7.18 g/m*3 4.8 C 7.50833 km/h
1334 28-01-2021 13:00:00 7.825 C 7.93 g/m*3 5.64 C 12.23333 km/h
1335 28-01-2021 14:00:00 9.34167 C 8.67 g/m*3 6.98 C 15.975 km/h
1336 28-01-2021 15:00:00 10.31667 C 9.12 g/m*3 8.18 C 16.10833 km/h
1337 28-01-2021 16:00:00 10.65 C 9.37 g/m*3 8.86 C 13.83333 km/h
1338 28-01-2021 17:00:00 11.03333 C 9.19 g/m*3 11.03 C 16.36667 km/h
1339 28-01-2021 18:00:00 11.16667 C 8.96 g/m*3 11.17 C 14.76667 km/h
1340 28-01-2021 19:00:00 11.15 C 8.82 g/m*3 11.15 C 14.76667 km/h
1341 28-01-2021 20:00:00 10.70833 C 8.78 g/m*3 9.05 C 12.9 km/h
1342 28-01-2021 21:00:00 10.25833 C 8.6 g/m*3 8.63 C 11.96667 km/h
1343 28-01-2021 22:00:00 10.10833 C 8.39 g/m*3 9.21 C 7.65 km/h
1344 28-01-2021 23:00:00 9.04167 C 7.99 g/m*3 7.96 C 7.64167 km/h
1345 29-01-2021 00:00:00 8.88333 C 7.96 g/m*3 7.86 C 7.25833 km/h
1346 29-01-2021 01:00:00 8.625 C 7.9 g/m*3 8.63 C 2 km/h
1347 29-01-2021 02:00:00 8.21667 C 7.82 g/m*3 8.22 C 0 km/h
1348 29-01-2021 03:00:00 8.3 C 8.01 g/m*3 8.3 C 0 km/h
1349 29-01-2021 04:00:00 8.3 C 8.04 g/m*3 8.3 C 0.4 km/h
1350 29-01-2021 05:00:00 8.51667 C 8.21 g/m*3 8.52 C 0 km/h
Sensor: Nr:Datum:Temp:Abs-Feuchte:Windchill:Wind:
Aussen-T/F 1351 29-01-2021 06:00:00 8.775 C 8.39 g/m*3 8.78 C 1.2 km/h
1352 29-01-2021 07:00:00 8.85833 C 8.41 g/m*3 6.5 C 15.03333 km/h
1353 29-01-2021 08:00:00 8.80833 C 8.16 g/m*3 6.37 C 15.56667 km/h
1354 29-01-2021 09:00:00 9.24167 C 8.18 g/m*3 7.06 C 14.36667 km/h
1355 29-01-2021 10:00:00 10.05833 C 8.02 g/m*3 7.64 C 18.1 km/h
1356 29-01-2021 11:00:00 10.3 C 7.7 g/m*3 7.98 C 17.7 km/h
1357 29-01-2021 12:00:00 10.40833 C 7.98 g/m*3 8.09 C 17.96667 km/h
1358 29-01-2021 13:00:00 9.525 C 7.89 g/m*3 6.77 C 20.10833 km/h
1359 29-01-2021 14:00:00 9.075 C 7.94 g/m*3 7.88 C 8.19167 km/h
1360 29-01-2021 15:00:00 9.65 C 7.96 g/m*3 7.96 C 11.55833 km/h
1361 29-01-2021 16:00:00 9.26667 C 7.56 g/m*3 8.41 C 6.83333 km/h
1362 29-01-2021 17:00:00 9.29167 C 7.63 g/m*3 7.57 C 11.28333 km/h
1363 29-01-2021 18:00:00 8.74167 C 7.41 g/m*3 6.61 C 13.16667 km/h
1364 29-01-2021 19:00:00 8.15833 C 7.31 g/m*3 6.71 C 8.6 km/h
1365 29-01-2021 20:00:00 7.85 C 7.42 g/m*3 6.18 C 9.41667 km/h
1366 29-01-2021 21:00:00 7.6 C 7.47 g/m*3 6.62 C 6.30833 km/h
1367 29-01-2021 22:00:00 7.70833 C 7.46 g/m*3 6.15 C 8.75 km/h
1368 29-01-2021 23:00:00 8.20833 C 7.28 g/m*3 6.26 C 11.28333 km/h
1369 30-01-2021 00:00:00 8.41667 C 7.28 g/m*3 5.89 C 15.56667 km/h
1370 30-01-2021 01:00:00 8.24167 C 7.11 g/m*3 6.02 C 13.03333 km/h
1371 30-01-2021 02:00:00 7.73333 C 7.01 g/m*3 6.18 C 8.75 km/h
1372 30-01-2021 03:00:00 7.38333 C 7.08 g/m*3 6.05 C 7.525 km/h
1373 30-01-2021 04:00:00 7.25 C 7.04 g/m*3 5.35 C 9.96667 km/h
1374 30-01-2021 05:00:00 7.59167 C 7.21 g/m*3 5.52 C 11.29167 km/h
1375 30-01-2021 06:00:00 7.325 C 7.3 g/m*3 7.33 C 4.025 km/h
Sensor: Nr:Datum:Temp:Abs-Feuchte:Windchill:Wind:
Aussen-T/F 1376 30-01-2021 07:00:00 6.84167 C 7.17 g/m*3 6.84 C 2.40833 km/h
1377 30-01-2021 08:00:00 5.63333 C 6.66 g/m*3 5.63 C 2.95 km/h
1378 30-01-2021 09:00:00 4.78333 C 6.36 g/m*3 4.78 C 1.06667 km/h
1379 30-01-2021 10:00:00 4.58333 C 6.3 g/m*3 4.58 C 1.2 km/h
1380 30-01-2021 11:00:00 4.2 C 6.15 g/m*3 4.2 C 4.14167 km/h
1381 30-01-2021 12:00:00 2.88333 C 5.57 g/m*3 0.21 C 9.675 km/h
1382 30-01-2021 13:00:00 2.53333 C 5.41 g/m*3 -0.4 C 10.49167 km/h
1383 30-01-2021 14:00:00 2.00833 C 5.2 g/m*3 -0.94 C 10.08333 km/h
1384 30-01-2021 15:00:00 1.60833 C 5.09 g/m*3 -0.57 C 7.10833 km/h
1385 30-01-2021 16:00:00 1.24167 C 5 g/m*3 1.24 C 3.20833 km/h
1386 30-01-2021 17:00:00 1.16667 C 4.99 g/m*3 1.17 C 3.74167 km/h
1387 30-01-2021 18:00:00 1.2 C 5 g/m*3 -0.77 C 6.31667 km/h
1388 30-01-2021 19:00:00 1.18333 C 4.99 g/m*3 1.18 C 4.00833 km/h
1389 30-01-2021 20:00:00 1.1 C 4.96 g/m*3 1.1 C 0.93333 km/h
1390 30-01-2021 21:00:00 1.1 C 5 g/m*3 1.1 C 0.8 km/h
1391 30-01-2021 22:00:00 1.1 C 5.02 g/m*3 1.1 C 1.33333 km/h
1392 30-01-2021 23:00:00 0.98333 C 4.98 g/m*3 0.98 C 1.74167 km/h
1393 31-01-2021 00:00:00 0.84167 C 4.88 g/m*3 0.84 C 2.275 km/h
1394 31-01-2021 01:00:00 0.78333 C 4.86 g/m*3 0.78 C 2.94167 km/h
1395 31-01-2021 02:00:00 0.7 C 4.82 g/m*3 0.7 C 1.46667 km/h
1396 31-01-2021 03:00:00 0.61667 C 4.74 g/m*3 0.62 C 2.28333 km/h
1397 31-01-2021 04:00:00 0.48333 C 4.67 g/m*3 0.48 C 1.6 km/h
1398 31-01-2021 05:00:00 0.35 C 4.56 g/m*3 -1.89 C 6.71667 km/h
1399 31-01-2021 06:00:00 0.24167 C 4.45 g/m*3 -1.71 C 5.9 km/h
1400 31-01-2021 07:00:00 0.2 C 4.38 g/m*3 -1.64 C 5.61667 km/h
Sensor: Nr:Datum:Temp:Abs-Feuchte:Windchill:Wind:
Aussen-T/F 1401 31-01-2021 08:00:00 0.175 C 4.36 g/m*3 0.18 C 4.55 km/h
1402 31-01-2021 09:00:00 0.25833 C 4.41 g/m*3 0.26 C 2.13333 km/h
1403 31-01-2021 10:00:00 0.525 C 4.42 g/m*3 -1.32 C 5.75 km/h
1404 31-01-2021 11:00:00 0.88333 C 4.49 g/m*3 -1.41 C 7.10833 km/h
1405 31-01-2021 12:00:00 1.3 C 4.6 g/m*3 -0.33 C 5.49167 km/h
1406 31-01-2021 13:00:00 1.48333 C 4.67 g/m*3 -0.76 C 7.24167 km/h
1407 31-01-2021 14:00:00 1.54167 C 4.73 g/m*3 -0.74 C 7.38333 km/h
1408 31-01-2021 15:00:00 1.68333 C 4.8 g/m*3 1.68 C 2.4 km/h
1409 31-01-2021 16:00:00 1.66667 C 4.87 g/m*3 1.67 C 2.4 km/h
1410 31-01-2021 17:00:00 1.625 C 4.96 g/m*3 1.63 C 0.13333 km/h
1411 31-01-2021 18:00:00 1.425 C 4.96 g/m*3 1.43 C 0 km/h
1412 31-01-2021 19:00:00 1.4 C 4.99 g/m*3 1.4 C 0 km/h
1413 31-01-2021 20:00:00 1.45 C 5.03 g/m*3 1.45 C 0 km/h
1414 31-01-2021 21:00:00 1.54167 C 5.12 g/m*3 1.54 C 0.26667 km/h
1415 31-01-2021 22:00:00 1.6 C 5.14 g/m*3 1.6 C 0 km/h
1416 31-01-2021 23:00:00 1.6 C 5.18 g/m*3 1.6 C 0 km/h
1417 01-02-2021 00:00:00 1.7 C 5.23 g/m*3 1.7 C 0.26667 km/h
1418 01-02-2021 01:00:00 1.7 C 5.23 g/m*3 1.7 C 0.93333 km/h
1419 01-02-2021 02:00:00 1.775 C 5.25 g/m*3 1.78 C 0.13333 km/h
1420 01-02-2021 03:00:00 1.85833 C 5.28 g/m*3 1.86 C 0.4 km/h
1421 01-02-2021 04:00:00 1.9 C 5.3 g/m*3 1.9 C 0.26667 km/h
1422 01-02-2021 05:00:00 1.95833 C 5.32 g/m*3 1.96 C 0.4 km/h
1423 01-02-2021 06:00:00 2.09167 C 5.37 g/m*3 2.09 C 0.4 km/h
1424 01-02-2021 07:00:00 2.15833 C 5.45 g/m*3 2.16 C 0.26667 km/h
1425 01-02-2021 08:00:00 2.23333 C 5.48 g/m*3 2.23 C 0.13333 km/h
Sensor: Nr:Datum:Temp:Abs-Feuchte:Windchill:Wind:
Aussen-T/F 1426 01-02-2021 09:00:00 2.75833 C 5.67 g/m*3 2.76 C 0 km/h
1427 01-02-2021 10:00:00 3.49167 C 5.96 g/m*3 3.49 C 0.26667 km/h
1428 01-02-2021 11:00:00 3.98333 C 6.16 g/m*3 3.98 C 0 km/h
1429 01-02-2021 12:00:00 4.45 C 6.35 g/m*3 4.45 C 1.46667 km/h
1430 01-02-2021 13:00:00 4.975 C 6.57 g/m*3 4.97 C 0.53333 km/h
1431 01-02-2021 14:00:00 5.40833 C 6.71 g/m*3 5.41 C 0.13333 km/h
1432 01-02-2021 15:00:00 5.76667 C 6.86 g/m*3 5.77 C 0.26667 km/h
1433 01-02-2021 16:00:00 5.94167 C 6.94 g/m*3 5.94 C 0 km/h
1434 01-02-2021 17:00:00 5.94167 C 6.94 g/m*3 5.94 C 0 km/h
1435 01-02-2021 18:00:00 5.71667 C 6.84 g/m*3 5.72 C 0 km/h
1436 01-02-2021 19:00:00 5.475 C 6.73 g/m*3 5.48 C 1.2 km/h
1437 01-02-2021 20:00:00 5.55833 C 6.83 g/m*3 5.56 C 1.06667 km/h
1438 01-02-2021 21:00:00 5.70833 C 6.91 g/m*3 5.71 C 1.46667 km/h
1439 01-02-2021 22:00:00 5.53333 C 6.8 g/m*3 5.53 C 2.13333 km/h
1440 01-02-2021 23:00:00 5.30833 C 6.68 g/m*3 5.31 C 0.4 km/h
1441 02-02-2021 00:00:00 5.18333 C 6.63 g/m*3 5.18 C 0 km/h
1442 02-02-2021 01:00:00 5.06667 C 6.62 g/m*3 5.07 C 1.6 km/h
1443 02-02-2021 02:00:00 4.95 C 6.57 g/m*3 4.95 C 2.26667 km/h
1444 02-02-2021 03:00:00 4.81667 C 6.51 g/m*3 4.82 C 1.73333 km/h
1445 02-02-2021 04:00:00 4.6 C 6.35 g/m*3 4.6 C 4.80833 km/h
1446 02-02-2021 05:00:00 4.6 C 6.29 g/m*3 4.6 C 1.86667 km/h
1447 02-02-2021 06:00:00 4.65 C 6.31 g/m*3 4.65 C 1.33333 km/h
1448 02-02-2021 07:00:00 4.85 C 6.43 g/m*3 4.85 C 0.8 km/h
1449 02-02-2021 08:00:00 5.14167 C 6.55 g/m*3 5.14 C 0.53333 km/h
1450 02-02-2021 09:00:00 5.48333 C 6.73 g/m*3 5.48 C 0 km/h
Sensor: Nr:Datum:Temp:Abs-Feuchte:Windchill:Wind:
Aussen-T/F 1451 02-02-2021 10:00:00 5.93333 C 6.95 g/m*3 5.93 C 0 km/h
1452 02-02-2021 11:00:00 6.55 C 7.29 g/m*3 6.55 C 0 km/h
1453 02-02-2021 12:00:00 7.50833 C 7.77 g/m*3 7.51 C 1.06667 km/h
1454 02-02-2021 13:00:00 9.35 C 8.69 g/m*3 7.27 C 13.81667 km/h
1455 02-02-2021 14:00:00 10.65 C 9.04 g/m*3 8.67 C 15.43333 km/h
1456 02-02-2021 15:00:00 11.125 C 9.19 g/m*3 11.13 C 9.68333 km/h
1457 02-02-2021 16:00:00 11.19167 C 9.23 g/m*3 11.19 C 7.25 km/h
1458 02-02-2021 17:00:00 10.84167 C 9.07 g/m*3 10.06 C 7.65833 km/h
1459 02-02-2021 18:00:00 10.79167 C 8.9 g/m*3 9.65 C 9.55833 km/h
1460 02-02-2021 19:00:00 10.175 C 8.64 g/m*3 10.18 C 4.28333 km/h
1461 02-02-2021 20:00:00 10.075 C 8.84 g/m*3 9.41 C 6.56667 km/h
1462 02-02-2021 21:00:00 10.00833 C 8.92 g/m*3 9.3 C 6.70833 km/h
1463 02-02-2021 22:00:00 10.29167 C 9.09 g/m*3 8.86 C 10.75 km/h
1464 02-02-2021 23:00:00 10.08333 C 8.97 g/m*3 9.78 C 5.225 km/h
1465 03-02-2021 00:00:00 10.26667 C 9.08 g/m*3 9.25 C 8.33333 km/h
1466 03-02-2021 01:00:00 9.65833 C 8.7 g/m*3 9.66 C 4.4 km/h
1467 03-02-2021 02:00:00 9.06667 C 8.47 g/m*3 9.07 C 2.66667 km/h
1468 03-02-2021 03:00:00 8.95 C 8.44 g/m*3 8.95 C 2.13333 km/h
1469 03-02-2021 04:00:00 8.33333 C 8.11 g/m*3 8.33 C 0 km/h
1470 03-02-2021 05:00:00 8 C 7.94 g/m*3 8 C 0 km/h
1471 03-02-2021 06:00:00 7.825 C 7.9 g/m*3 7.83 C 0 km/h
1472 03-02-2021 07:00:00 8 C 8.02 g/m*3 8 C 0 km/h
1473 03-02-2021 08:00:00 8.225 C 8.14 g/m*3 8.23 C 0 km/h
1474 03-02-2021 09:00:00 9.05833 C 8.64 g/m*3 9.06 C 0 km/h
1475 03-02-2021 10:00:00 9.83333 C 9.1 g/m*3 9.83 C 0 km/h
Sensor: Nr:Datum:Temp:Abs-Feuchte:Windchill:Wind:
Aussen-T/F 1476 03-02-2021 11:00:00 10.2 C 9.27 g/m*3 10.2 C 1.2 km/h
1477 03-02-2021 12:00:00 10.56667 C 9.5 g/m*3 10.57 C 2.54167 km/h
1478 03-02-2021 13:00:00 11.55833 C 9.76 g/m*3 11.56 C 18.9 km/h
1479 03-02-2021 14:00:00 12.11667 C 9.7 g/m*3 12.12 C 15.3 km/h
1480 03-02-2021 15:00:00 10.89167 C 9.28 g/m*3 8.87 C 16.25 km/h
1481 03-02-2021 16:00:00 11.26667 C 8.79 g/m*3 11.27 C 18.65 km/h
1482 03-02-2021 17:00:00 10.45 C 8.66 g/m*3 8.81 C 12.33333 km/h
1483 03-02-2021 18:00:00 9.81667 C 8.65 g/m*3 9.25 C 6.025 km/h
1484 03-02-2021 19:00:00 9.75833 C 8.69 g/m*3 8.22 C 10.75 km/h
1485 03-02-2021 20:00:00 10.175 C 8.84 g/m*3 8.83 C 10.09167 km/h
1486 03-02-2021 21:00:00 9.95 C 8.69 g/m*3 7.98 C 13.96667 km/h
1487 03-02-2021 22:00:00 9.6 C 8.44 g/m*3 7.26 C 16.36667 km/h
1488 03-02-2021 23:00:00 9.7 C 8.01 g/m*3 7.31 C 17.03333 km/h
1489 04-02-2021 00:00:00 9.36667 C 7.69 g/m*3 6.98 C 16.23333 km/h
1490 04-02-2021 01:00:00 8.76667 C 7.53 g/m*3 6.96 C 11.15833 km/h
1491 04-02-2021 02:00:00 8.03333 C 7.3 g/m*3 6.42 C 9.275 km/h
1492 04-02-2021 03:00:00 7.51667 C 7 g/m*3 5.57 C 10.5 km/h
1493 04-02-2021 04:00:00 7.175 C 6.75 g/m*3 4.56 C 14.09167 km/h
1494 04-02-2021 05:00:00 6.58333 C 6.57 g/m*3 4.7 C 9.28333 km/h
1495 04-02-2021 06:00:00 6.23333 C 6.63 g/m*3 4.44 C 8.58333 km/h
1496 04-02-2021 07:00:00 6.4 C 6.65 g/m*3 4.61 C 8.71667 km/h
1497 04-02-2021 08:00:00 5.775 C 6.45 g/m*3 4.32 C 6.98333 km/h
1498 04-02-2021 09:00:00 5.15 C 6.33 g/m*3 5.15 C 3.33333 km/h
1499 04-02-2021 10:00:00 5.25 C 6.46 g/m*3 5.25 C 3.6 km/h
1500 04-02-2021 11:00:00 6.6 C 6.82 g/m*3 4.84 C 8.725 km/h
Sensor: Nr:Datum:Temp:Abs-Feuchte:Windchill:Wind:
Aussen-T/F 1501 04-02-2021 12:00:00 7.76667 C 6.91 g/m*3 5.97 C 9.94167 km/h
1502 04-02-2021 13:00:00 8.01667 C 6.84 g/m*3 6.89 C 7.10833 km/h
1503 04-02-2021 14:00:00 8.89167 C 6.91 g/m*3 7.94 C 6.975 km/h
1504 04-02-2021 15:00:00 8.41667 C 6.94 g/m*3 8.42 C 4.13333 km/h
1505 04-02-2021 16:00:00 6.84167 C 6.77 g/m*3 5.97 C 5.6 km/h
1506 04-02-2021 17:00:00 6.08333 C 6.67 g/m*3 6.08 C 4.66667 km/h
1507 04-02-2021 18:00:00 5.66667 C 6.56 g/m*3 5.67 C 2.66667 km/h
1508 04-02-2021 19:00:00 5.25833 C 6.43 g/m*3 5.26 C 0.26667 km/h
1509 04-02-2021 20:00:00 4.7 C 6.26 g/m*3 4.7 C 0.26667 km/h
1510 04-02-2021 21:00:00 4.78333 C 6.36 g/m*3 4.78 C 0.4 km/h
1511 04-02-2021 22:00:00 4.825 C 6.38 g/m*3 4.83 C 0.13333 km/h
1512 04-02-2021 23:00:00 5.075 C 6.52 g/m*3 5.08 C 0 km/h
1513 05-02-2021 00:00:00 5.25 C 6.63 g/m*3 5.25 C 0 km/h
1514 05-02-2021 01:00:00 5.3 C 6.64 g/m*3 5.3 C 0 km/h
1515 05-02-2021 02:00:00 5.26667 C 6.64 g/m*3 5.27 C 0 km/h
1516 05-02-2021 03:00:00 5.15 C 6.57 g/m*3 5.15 C 0 km/h
1517 05-02-2021 04:00:00 4.86667 C 6.43 g/m*3 4.87 C 0 km/h
1518 05-02-2021 05:00:00 4.625 C 6.34 g/m*3 4.63 C 1.06667 km/h
1519 05-02-2021 06:00:00 4.95 C 6.5 g/m*3 4.95 C 0 km/h
1520 05-02-2021 07:00:00 5.2 C 6.61 g/m*3 5.2 C 0 km/h
1521 05-02-2021 08:00:00 5.575 C 6.78 g/m*3 5.58 C 0 km/h
1522 05-02-2021 09:00:00 6.025 C 7.02 g/m*3 6.03 C 0 km/h
1523 05-02-2021 10:00:00 6.625 C 7.31 g/m*3 6.63 C 0 km/h
1524 05-02-2021 11:00:00 7.16667 C 7.54 g/m*3 7.17 C 0 km/h
1525 05-02-2021 12:00:00 7.6 C 7.73 g/m*3 7.6 C 0 km/h
Sensor: Nr:Datum:Temp:Abs-Feuchte:Windchill:Wind:
Aussen-T/F 1526 05-02-2021 13:00:00 7.96667 C 7.92 g/m*3 7.97 C 0 km/h
1527 05-02-2021 14:00:00 8.50833 C 8.25 g/m*3 8.51 C 0 km/h
1528 05-02-2021 15:00:00 9.13333 C 8.6 g/m*3 9.13 C 2 km/h
1529 05-02-2021 16:00:00 9.25833 C 8.6 g/m*3 9.26 C 0 km/h
1530 05-02-2021 17:00:00 8.25833 C 8 g/m*3 8.26 C 2.26667 km/h
1531 05-02-2021 18:00:00 6.98333 C 7.39 g/m*3 6.98 C 3.33333 km/h
1532 05-02-2021 19:00:00 7.10833 C 7.49 g/m*3 7.11 C 0.66667 km/h
1533 05-02-2021 20:00:00 6.125 C 7.03 g/m*3 6.13 C 0.13333 km/h
1534 05-02-2021 21:00:00 5.3 C 6.67 g/m*3 5.3 C 0 km/h
1535 05-02-2021 22:00:00 5.825 C 6.96 g/m*3 5.83 C 0 km/h
1536 05-02-2021 23:00:00 6.18333 C 7.13 g/m*3 6.18 C 0 km/h
1537 06-02-2021 00:00:00 6.15 C 7.11 g/m*3 6.15 C 0 km/h
1538 06-02-2021 01:00:00 6.025 C 7.05 g/m*3 6.03 C 0.8 km/h
1539 06-02-2021 02:00:00 6.325 C 7.19 g/m*3 6.33 C 0.8 km/h
1540 06-02-2021 03:00:00 6.20833 C 7.14 g/m*3 6.21 C 0 km/h
1541 06-02-2021 04:00:00 6.10833 C 7.09 g/m*3 6.11 C 0 km/h
1542 06-02-2021 05:00:00 6.13333 C 7.1 g/m*3 6.13 C 0.13333 km/h
1543 06-02-2021 06:00:00 6.2 C 7.13 g/m*3 6.2 C 0.13333 km/h
1544 06-02-2021 07:00:00 6.2 C 7.13 g/m*3 6.2 C 0 km/h
1545 06-02-2021 08:00:00 6.14167 C 7.11 g/m*3 6.14 C 1.46667 km/h
1546 06-02-2021 09:00:00 6.04167 C 7.06 g/m*3 6.04 C 4.29167 km/h
1547 06-02-2021 10:00:00 6.20833 C 7.14 g/m*3 6.21 C 1.86667 km/h
1548 06-02-2021 11:00:00 6.21667 C 7.14 g/m*3 6.22 C 3.20833 km/h
1549 06-02-2021 12:00:00 6.04167 C 7.05 g/m*3 6.04 C 4.83333 km/h
1550 06-02-2021 13:00:00 5.78333 C 6.85 g/m*3 4.04 C 8.05 km/h
Sensor: Nr:Datum:Temp:Abs-Feuchte:Windchill:Wind:
Aussen-T/F 1551 06-02-2021 14:00:00 5.45833 C 6.65 g/m*3 5.46 C 4.825 km/h
1552 06-02-2021 15:00:00 5.11667 C 6.49 g/m*3 3.63 C 6.71667 km/h
1553 06-02-2021 16:00:00 4.66667 C 6.25 g/m*3 3.16 C 6.56667 km/h
1554 06-02-2021 17:00:00 4.16667 C 6.06 g/m*3 2.37 C 7.25 km/h
1555 06-02-2021 18:00:00 3.675 C 5.91 g/m*3 1.12 C 9.80833 km/h
1556 06-02-2021 19:00:00 3.28333 C 5.74 g/m*3 -0.14 C 13.7 km/h
1557 06-02-2021 20:00:00 3.05833 C 5.67 g/m*3 1.39 C 6.3 km/h
1558 06-02-2021 21:00:00 2.69167 C 5.53 g/m*3 1.06 C 6.03333 km/h
1559 06-02-2021 22:00:00 2.39167 C 5.42 g/m*3 -0.75 C 11.28333 km/h
1560 06-02-2021 23:00:00 2.3 C 5.39 g/m*3 -0.74 C 10.74167 km/h
1561 07-02-2021 00:00:00 2.325 C 5.4 g/m*3 -1.71 C 15.96667 km/h
1562 07-02-2021 01:00:00 2.4 C 5.42 g/m*3 -1.05 C 12.75833 km/h
1563 07-02-2021 02:00:00 2.325 C 5.4 g/m*3 -0.1 C 8.30833 km/h
1564 07-02-2021 03:00:00 2.13333 C 5.33 g/m*3 -0.65 C 9.55 km/h
1565 07-02-2021 04:00:00 1.96667 C 5.31 g/m*3 -1.14 C 10.75 km/h
1566 07-02-2021 05:00:00 2.025 C 5.34 g/m*3 0.3 C 6.01667 km/h
1567 07-02-2021 06:00:00 2 C 5.33 g/m*3 0.32 C 5.89167 km/h
1568 07-02-2021 07:00:00 1.94167 C 5.31 g/m*3 0.58 C 5.08333 km/h
1569 07-02-2021 08:00:00 1.75833 C 5.25 g/m*3 -1.06 C 9.4 km/h
1570 07-02-2021 09:00:00 1.7 C 5.23 g/m*3 0.13 C 5.5 km/h
1571 07-02-2021 10:00:00 1.73333 C 5.24 g/m*3 0.29 C 5.20833 km/h
1572 07-02-2021 11:00:00 1.81667 C 5.27 g/m*3 0.05 C 6.025 km/h
1573 07-02-2021 12:00:00 1.66667 C 5.18 g/m*3 1.67 C 4.54167 km/h
1574 07-02-2021 13:00:00 1.275 C 5.03 g/m*3 -0.36 C 5.5 km/h
1575 07-02-2021 14:00:00 1.14167 C 5.01 g/m*3 1.14 C 4.00833 km/h
Sensor: Nr:Datum:Temp:Abs-Feuchte:Windchill:Wind:
Aussen-T/F 1576 07-02-2021 15:00:00 0.99167 C 4.93 g/m*3 0.99 C 2.66667 km/h
1577 07-02-2021 16:00:00 0.825 C 4.87 g/m*3 0.83 C 2.4 km/h
1578 07-02-2021 17:00:00 0.575 C 4.79 g/m*3 -0.98 C 5.08333 km/h
1579 07-02-2021 18:00:00 0.24167 C 4.68 g/m*3 -1.35 C 5.08333 km/h
1580 07-02-2021 19:00:00 0.00833 C 4.57 g/m*3 0.01 C 4.825 km/h
1581 07-02-2021 20:00:00 -0.35 C 4.45 g/m*3 -2.6 C 6.43333 km/h
1582 07-02-2021 21:00:00 -0.80833 C 4.28 g/m*3 -3.57 C 7.65833 km/h
1583 07-02-2021 22:00:00 -1.34167 C 4.1 g/m*3 -4.34 C 8.06667 km/h
1584 07-02-2021 23:00:00 -1.81667 C 3.96 g/m*3 -4.35 C 6.56667 km/h
1585 08-02-2021 00:00:00 -2.03333 C 3.86 g/m*3 -4.2 C 5.63333 km/h
1586 08-02-2021 01:00:00 -2.28333 C 3.76 g/m*3 -4.72 C 6.15833 km/h
1587 08-02-2021 02:00:00 -2.6 C 3.63 g/m*3 -5.03 C 6.03333 km/h
1588 08-02-2021 03:00:00 -2.84167 C 3.56 g/m*3 -5.24 C 5.89167 km/h
1589 08-02-2021 04:00:00 -3.24167 C 3.44 g/m*3 -5.38 C 5.225 km/h
1590 08-02-2021 05:00:00 -3.53333 C 3.34 g/m*3 -6.81 C 7.775 km/h
1591 08-02-2021 06:00:00 -3.70833 C 3.27 g/m*3 -7.07 C 7.925 km/h
1592 08-02-2021 07:00:00 -3.8 C 3.24 g/m*3 -6.64 C 6.56667 km/h
1593 08-02-2021 08:00:00 -3.93333 C 3.2 g/m*3 -6.74 C 6.44167 km/h
1594 08-02-2021 09:00:00 -3.825 C 3.23 g/m*3 -7.3 C 8.2 km/h
1595 08-02-2021 10:00:00 -3.63333 C 3.25 g/m*3 -7.35 C 9.00833 km/h
1596 08-02-2021 11:00:00 -3.38333 C 3.29 g/m*3 -7.3 C 9.81667 km/h
1597 08-02-2021 12:00:00 -3.275 C 3.33 g/m*3 -6.65 C 8.18333 km/h
1598 08-02-2021 13:00:00 -3.3 C 3.32 g/m*3 -6.63 C 8.05 km/h
1599 08-02-2021 14:00:00 -3.28333 C 3.36 g/m*3 -3.28 C 4.95 km/h
1600 08-02-2021 15:00:00 -3.28333 C 3.4 g/m*3 -5.49 C 5.34167 km/h
Sensor: Nr:Datum:Temp:Abs-Feuchte:Windchill:Wind:
Aussen-T/F 1601 08-02-2021 16:00:00 -3.33333 C 3.39 g/m*3 -6.16 C 6.70833 km/h
1602 08-02-2021 17:00:00 -3.51667 C 3.32 g/m*3 -6.08 C 6.025 km/h
1603 08-02-2021 18:00:00 -3.925 C 3.26 g/m*3 -7.47 C 8.33333 km/h
1604 08-02-2021 19:00:00 -4.08333 C 3.23 g/m*3 -4.08 C 4.80833 km/h
1605 08-02-2021 20:00:00 -4.18333 C 3.15 g/m*3 -6.78 C 5.88333 km/h
1606 08-02-2021 21:00:00 -4.3 C 3.07 g/m*3 -4.3 C 3.475 km/h
1607 08-02-2021 22:00:00 -4.38333 C 3.04 g/m*3 -4.38 C 3.475 km/h
1608 08-02-2021 23:00:00 -4.40833 C 3.06 g/m*3 -4.41 C 1.33333 km/h
1609 09-02-2021 00:00:00 -4.55 C 3 g/m*3 -4.55 C 3.06667 km/h
1610 09-02-2021 01:00:00 -4.65833 C 2.95 g/m*3 -4.66 C 2.4 km/h
1611 09-02-2021 02:00:00 -4.8 C 2.92 g/m*3 -4.8 C 1.46667 km/h
1612 09-02-2021 03:00:00 -4.8 C 2.94 g/m*3 -4.8 C 1.33333 km/h
1613 09-02-2021 04:00:00 -4.85 C 2.96 g/m*3 -4.85 C 0.8 km/h
1614 09-02-2021 05:00:00 -4.9 C 2.96 g/m*3 -4.9 C 1.06667 km/h
1615 09-02-2021 06:00:00 -4.95833 C 2.96 g/m*3 -4.96 C 1.6 km/h
1616 09-02-2021 07:00:00 -5.1 C 2.92 g/m*3 -5.1 C 2.66667 km/h
1617 09-02-2021 08:00:00 -5.225 C 2.88 g/m*3 -5.23 C 1.46667 km/h
1618 09-02-2021 09:00:00 -5.325 C 2.84 g/m*3 -5.33 C 2.13333 km/h
1619 09-02-2021 10:00:00 -5.375 C 2.78 g/m*3 -5.38 C 3.73333 km/h
1620 09-02-2021 11:00:00 -4.99167 C 2.63 g/m*3 -7.78 C 6.025 km/h
1621 09-02-2021 12:00:00 -4.21667 C 2.67 g/m*3 -7.12 C 6.55 km/h
1622 09-02-2021 13:00:00 -3.69167 C 2.71 g/m*3 -3.69 C 4.4 km/h
1623 09-02-2021 14:00:00 -3.49167 C 2.65 g/m*3 -3.49 C 3.48333 km/h
1624 09-02-2021 15:00:00 -3.325 C 2.67 g/m*3 -3.33 C 1.86667 km/h
1625 09-02-2021 16:00:00 -3.45833 C 2.71 g/m*3 -6.57 C 7.375 km/h
Sensor: Nr:Datum:Temp:Abs-Feuchte:Windchill:Wind:
Aussen-T/F 1626 09-02-2021 17:00:00 -3.88333 C 2.71 g/m*3 -8.02 C 10.23333 km/h
1627 09-02-2021 18:00:00 -4.28333 C 2.6 g/m*3 -8.03 C 8.73333 km/h
1628 09-02-2021 19:00:00 -4.45833 C 2.66 g/m*3 -7.8 C 7.525 km/h
1629 09-02-2021 20:00:00 -4.75833 C 2.83 g/m*3 -4.76 C 2.4 km/h
1630 09-02-2021 21:00:00 -5.35833 C 2.73 g/m*3 -8.84 C 7.51667 km/h
1631 09-02-2021 22:00:00 -5.94167 C 2.53 g/m*3 -9.41 C 7.24167 km/h
1632 09-02-2021 23:00:00 -6.64167 C 2.38 g/m*3 -9.74 C 6.15833 km/h
1633 10-02-2021 00:00:00 -7.61667 C 2.23 g/m*3 -7.62 C 3.6 km/h
1634 10-02-2021 01:00:00 -8.38333 C 2.16 g/m*3 -8.38 C 1.46667 km/h
1635 10-02-2021 02:00:00 -9 C 2.13 g/m*3 -9 C 2.26667 km/h
1636 10-02-2021 03:00:00 -8.85 C 2.14 g/m*3 -8.85 C 4.95833 km/h
1637 10-02-2021 04:00:00 -9.15833 C 2.08 g/m*3 -9.16 C 2.8 km/h
1638 10-02-2021 05:00:00 -9.09167 C 2.1 g/m*3 -9.09 C 4.00833 km/h
1639 10-02-2021 06:00:00 -9.075 C 2.09 g/m*3 -9.07 C 3.06667 km/h
1640 10-02-2021 07:00:00 -8.88333 C 2.15 g/m*3 -8.88 C 4.00833 km/h
1641 10-02-2021 08:00:00 -8.58333 C 2.21 g/m*3 -8.58 C 4.55 km/h
1642 10-02-2021 09:00:00 -8.14167 C 2.23 g/m*3 -12.27 C 7.91667 km/h
1643 10-02-2021 10:00:00 -7.58333 C 2.24 g/m*3 -11.16 C 6.85833 km/h
1644 10-02-2021 11:00:00 -6.46667 C 2.39 g/m*3 -9.74 C 6.58333 km/h
1645 10-02-2021 12:00:00 -4.59167 C 2.59 g/m*3 -8.78 C 9.93333 km/h
1646 10-02-2021 13:00:00 -3.61667 C 2.74 g/m*3 -7.89 C 10.9 km/h
1647 10-02-2021 14:00:00 -2.65 C 2.83 g/m*3 -7.41 C 13.7 km/h
1648 10-02-2021 15:00:00 -2.16667 C 2.89 g/m*3 -5.65 C 9.125 km/h
1649 10-02-2021 16:00:00 -1.525 C 2.98 g/m*3 -5.08 C 9.8 km/h
1650 10-02-2021 17:00:00 -1.85 C 3.08 g/m*3 -3.73 C 5.09167 km/h
Sensor: Nr:Datum:Temp:Abs-Feuchte:Windchill:Wind:
Aussen-T/F 1651 10-02-2021 18:00:00 -2.6 C 3 g/m*3 -5.03 C 6.04167 km/h
1652 10-02-2021 19:00:00 -3.74167 C 3.02 g/m*3 -3.74 C 0.53333 km/h
1653 10-02-2021 20:00:00 -2.84167 C 3.21 g/m*3 -6.49 C 9.275 km/h
1654 10-02-2021 21:00:00 -2.65833 C 3.28 g/m*3 -5.69 C 7.50833 km/h
1655 10-02-2021 22:00:00 -3.05 C 3.28 g/m*3 -3.05 C 2.26667 km/h
1656 10-02-2021 23:00:00 -3.11667 C 3.3 g/m*3 -3.12 C 3.06667 km/h
1657 11-02-2021 00:00:00 -2.94167 C 3.31 g/m*3 -2.94 C 3.6 km/h
1658 11-02-2021 01:00:00 -2.98333 C 3.3 g/m*3 -2.98 C 4.15 km/h
1659 11-02-2021 02:00:00 -3.10833 C 3.3 g/m*3 -3.11 C 4.69167 km/h
1660 11-02-2021 03:00:00 -3.275 C 3.3 g/m*3 -3.28 C 2.66667 km/h
1661 11-02-2021 04:00:00 -3.64167 C 3.24 g/m*3 -5.96 C 5.475 km/h
1662 11-02-2021 05:00:00 -4.2 C 3.17 g/m*3 -4.2 C 1.46667 km/h
1663 11-02-2021 06:00:00 -4.81667 C 3.05 g/m*3 -4.82 C 1.6 km/h
1664 11-02-2021 07:00:00 -5.86667 C 2.88 g/m*3 -5.87 C 1.2 km/h
1665 11-02-2021 08:00:00 -6.35 C 2.82 g/m*3 -6.35 C 0.8 km/h
1666 11-02-2021 09:00:00 -6.11667 C 2.89 g/m*3 -6.12 C 0.8 km/h
1667 11-02-2021 10:00:00 -5.55 C 3.01 g/m*3 -5.55 C 1.2 km/h
1668 11-02-2021 11:00:00 -4.425 C 3.26 g/m*3 -4.43 C 2.53333 km/h
1669 11-02-2021 12:00:00 -2.89167 C 3.54 g/m*3 -2.89 C 0 km/h
1670 11-02-2021 13:00:00 -1.04167 C 3.56 g/m*3 -1.04 C 2.26667 km/h
1671 11-02-2021 14:00:00 0.03333 C 3.38 g/m*3 -2.26 C 6.71667 km/h
1672 11-02-2021 15:00:00 0.55 C 3.26 g/m*3 -1.29 C 5.74167 km/h
1673 11-02-2021 16:00:00 -0.33333 C 3.31 g/m*3 -0.33 C 1.46667 km/h
1674 11-02-2021 17:00:00 -1.23333 C 3.4 g/m*3 -1.23 C 3.46667 km/h
1675 11-02-2021 18:00:00 -2.19167 C 3.41 g/m*3 -2.19 C 2.53333 km/h
Sensor: Nr:Datum:Temp:Abs-Feuchte:Windchill:Wind:
Aussen-T/F 1676 11-02-2021 19:00:00 -2.81667 C 3.3 g/m*3 -2.82 C 4.13333 km/h
1677 11-02-2021 20:00:00 -3.95 C 3.11 g/m*3 -3.95 C 4.26667 km/h
1678 11-02-2021 21:00:00 -3.69167 C 3.19 g/m*3 -3.69 C 2.26667 km/h
1679 11-02-2021 22:00:00 -3.84167 C 3.18 g/m*3 -3.84 C 2.8 km/h
1680 11-02-2021 23:00:00 -4.19167 C 2.98 g/m*3 -4.19 C 4.40833 km/h
1681 12-02-2021 00:00:00 -4.94167 C 2.77 g/m*3 -4.94 C 4.69167 km/h
1682 12-02-2021 01:00:00 -5.375 C 2.7 g/m*3 -5.38 C 2.66667 km/h
1683 12-02-2021 02:00:00 -6.46667 C 2.6 g/m*3 -6.47 C 2.13333 km/h
1684 12-02-2021 03:00:00 -6.825 C 2.6 g/m*3 -6.83 C 3.075 km/h
1685 12-02-2021 04:00:00 -6.03333 C 2.75 g/m*3 -6.03 C 2.66667 km/h
1686 12-02-2021 05:00:00 -5.29167 C 2.81 g/m*3 -8.37 C 6.575 km/h
1687 12-02-2021 06:00:00 -5.81667 C 2.73 g/m*3 -5.82 C 1.74167 km/h
1688 12-02-2021 07:00:00 -6.825 C 2.6 g/m*3 -6.83 C 1.06667 km/h
1689 12-02-2021 08:00:00 -7.38333 C 2.55 g/m*3 -7.38 C 1.33333 km/h
1690 12-02-2021 09:00:00 -7.11667 C 2.63 g/m*3 -7.12 C 1.6 km/h
1691 12-02-2021 10:00:00 -6.16667 C 2.76 g/m*3 -6.17 C 3.20833 km/h
1692 12-02-2021 11:00:00 -3.975 C 2.8 g/m*3 -7.84 C 9.26667 km/h
1693 12-02-2021 12:00:00 -2.5 C 2.85 g/m*3 -6.89 C 12.23333 km/h
1694 12-02-2021 13:00:00 -1.525 C 2.85 g/m*3 -5.67 C 12.08333 km/h
1695 12-02-2021 14:00:00 -1.03333 C 2.86 g/m*3 -5.01 C 11.81667 km/h
1696 12-02-2021 15:00:00 -1.00833 C 2.82 g/m*3 -5.43 C 13.83333 km/h
1697 12-02-2021 16:00:00 -1.30833 C 2.83 g/m*3 -4.59 C 8.99167 km/h
1698 12-02-2021 17:00:00 -1.81667 C 2.91 g/m*3 -4.55 C 7.1 km/h
1699 12-02-2021 18:00:00 -3.19167 C 2.94 g/m*3 -3.19 C 4.81667 km/h
1700 12-02-2021 19:00:00 -4.525 C 2.87 g/m*3 -4.53 C 4.13333 km/h
Sensor: Nr:Datum:Temp:Abs-Feuchte:Windchill:Wind:
Aussen-T/F 1701 12-02-2021 20:00:00 -5.2 C 2.76 g/m*3 -5.2 C 4.55 km/h
1702 12-02-2021 21:00:00 -5.84167 C 2.68 g/m*3 -5.84 C 3.86667 km/h
1703 12-02-2021 22:00:00 -6.31667 C 2.61 g/m*3 -6.32 C 3.6 km/h
1704 12-02-2021 23:00:00 -6.96667 C 2.52 g/m*3 -6.97 C 3.35 km/h
1705 13-02-2021 00:00:00 -7.23333 C 2.45 g/m*3 -7.23 C 3.33333 km/h
1706 13-02-2021 01:00:00 -8.16667 C 2.33 g/m*3 -8.17 C 1.73333 km/h
1707 13-02-2021 02:00:00 -8.54167 C 2.29 g/m*3 -8.54 C 2 km/h
1708 13-02-2021 03:00:00 -8.91667 C 2.25 g/m*3 -8.92 C 3.33333 km/h
1709 13-02-2021 04:00:00 -8.98333 C 2.24 g/m*3 -8.98 C 3.73333 km/h
1710 13-02-2021 05:00:00 -9.275 C 2.19 g/m*3 -9.28 C 2.13333 km/h
1711 13-02-2021 06:00:00 -9.30833 C 2.21 g/m*3 -9.31 C 2.8 km/h
1712 13-02-2021 07:00:00 -9.20833 C 2.22 g/m*3 -9.21 C 3.06667 km/h
1713 13-02-2021 08:00:00 -9.36667 C 2.2 g/m*3 -9.37 C 1.2 km/h
1714 13-02-2021 09:00:00 -8.81667 C 2.33 g/m*3 -8.82 C 1.075 km/h
1715 13-02-2021 10:00:00 -7.29167 C 2.59 g/m*3 -7.29 C 3.2 km/h
1716 13-02-2021 11:00:00 -4.75833 C 2.91 g/m*3 -7.25 C 5.49167 km/h
1717 13-02-2021 12:00:00 -2.29167 C 3 g/m*3 -5.59 C 8.475 km/h
1718 13-02-2021 13:00:00 -0.41667 C 2.89 g/m*3 -2.73 C 6.58333 km/h
1719 13-02-2021 14:00:00 0.825 C 2.53 g/m*3 -2.76 C 11.825 km/h
1720 13-02-2021 15:00:00 0.76667 C 2.55 g/m*3 -1.86 C 8.05833 km/h
1721 13-02-2021 16:00:00 0.76667 C 2.66 g/m*3 -1.9 C 8.19167 km/h
1722 13-02-2021 17:00:00 -0.125 C 2.9 g/m*3 -0.13 C 3.6 km/h
1723 13-02-2021 18:00:00 -2.71667 C 2.98 g/m*3 -2.72 C 4 km/h
1724 13-02-2021 19:00:00 -4.21667 C 2.88 g/m*3 -4.22 C 3.2 km/h
1725 13-02-2021 20:00:00 -4.88333 C 2.82 g/m*3 -4.88 C 3.46667 km/h
Sensor: Nr:Datum:Temp:Abs-Feuchte:Windchill:Wind:
Aussen-T/F 1726 13-02-2021 21:00:00 -5.55833 C 2.74 g/m*3 -5.56 C 2.66667 km/h
1727 13-02-2021 22:00:00 -6.19167 C 2.68 g/m*3 -6.19 C 4 km/h
1728 13-02-2021 23:00:00 -6.58333 C 2.64 g/m*3 -6.58 C 2.66667 km/h
1729 14-02-2021 00:00:00 -7.39167 C 2.52 g/m*3 -7.39 C 1.33333 km/h
1730 14-02-2021 01:00:00 -8.10833 C 2.43 g/m*3 -8.11 C 1.2 km/h
1731 14-02-2021 02:00:00 -8.21667 C 2.44 g/m*3 -8.22 C 4 km/h
1732 14-02-2021 03:00:00 -7.96667 C 2.49 g/m*3 -7.97 C 2.4 km/h
1733 14-02-2021 04:00:00 -8.55 C 2.38 g/m*3 -8.55 C 1.86667 km/h
1734 14-02-2021 05:00:00 -8.66667 C 2.38 g/m*3 -8.67 C 2.13333 km/h
1735 14-02-2021 06:00:00 -8.95 C 2.34 g/m*3 -8.95 C 1.33333 km/h
1736 14-02-2021 07:00:00 -9.49167 C 2.24 g/m*3 -9.49 C 0.53333 km/h
1737 14-02-2021 08:00:00 -9.31667 C 2.28 g/m*3 -9.32 C 1.73333 km/h
1738 14-02-2021 09:00:00 -8.16667 C 2.51 g/m*3 -8.17 C 4.4 km/h
1739 14-02-2021 10:00:00 -6.625 C 2.81 g/m*3 -6.63 C 4.4 km/h
1740 14-02-2021 11:00:00 -4.275 C 3.31 g/m*3 -6.48 C 5.06667 km/h
1741 14-02-2021 12:00:00 -1.55 C 3.72 g/m*3 -3.57 C 5.475 km/h
1742 14-02-2021 13:00:00 1.44167 C 3.4 g/m*3 -0.47 C 6.28333 km/h
1743 14-02-2021 14:00:00 3.7 C 2.83 g/m*3 1.34 C 9 km/h
1744 14-02-2021 15:00:00 3.725 C 2.85 g/m*3 2.25 C 6.00833 km/h
1745 14-02-2021 16:00:00 3.175 C 3.3 g/m*3 3.18 C 3.86667 km/h
1746 14-02-2021 17:00:00 1.175 C 3.64 g/m*3 -0.4 C 5.33333 km/h
1747 14-02-2021 18:00:00 -0.13333 C 3.57 g/m*3 -0.13 C 4.53333 km/h
1748 14-02-2021 19:00:00 -0.38333 C 3.57 g/m*3 -0.38 C 4.66667 km/h
1749 14-02-2021 20:00:00 -0.825 C 3.43 g/m*3 -0.83 C 4.66667 km/h
1750 14-02-2021 21:00:00 -1.56667 C 3.4 g/m*3 -1.57 C 3.73333 km/h
Sensor: Nr:Datum:Temp:Abs-Feuchte:Windchill:Wind:
Aussen-T/F 1751 14-02-2021 22:00:00 -1.86667 C 3.37 g/m*3 -1.87 C 3.06667 km/h
1752 14-02-2021 23:00:00 -1.95833 C 3.15 g/m*3 -1.96 C 3.6 km/h
1753 15-02-2021 00:00:00 -1.79167 C 3.05 g/m*3 -1.79 C 4 km/h
1754 15-02-2021 01:00:00 -2.36667 C 3 g/m*3 -2.37 C 3.6 km/h
1755 15-02-2021 02:00:00 -2.40833 C 2.99 g/m*3 -2.41 C 4 km/h
1756 15-02-2021 03:00:00 -1.96667 C 2.9 g/m*3 -3.93 C 5.225 km/h
1757 15-02-2021 04:00:00 -0.44167 C 2.82 g/m*3 -4.07 C 10.88333 km/h
1758 15-02-2021 05:00:00 -0.39167 C 2.84 g/m*3 -2.65 C 6.43333 km/h
1759 15-02-2021 06:00:00 -0.43333 C 2.92 g/m*3 -0.43 C 3.74167 km/h
1760 15-02-2021 07:00:00 -0.325 C 2.96 g/m*3 -0.33 C 2.80833 km/h
1761 15-02-2021 08:00:00 -0.15833 C 3.05 g/m*3 -0.16 C 2.80833 km/h
1762 15-02-2021 09:00:00 0.475 C 3.12 g/m*3 0.48 C 3.35 km/h
1763 15-02-2021 10:00:00 1.45 C 3.28 g/m*3 1.45 C 2.26667 km/h
1764 15-02-2021 11:00:00 2.13333 C 3.45 g/m*3 2.13 C 3.06667 km/h
1765 15-02-2021 12:00:00 1.88333 C 4.27 g/m*3 1.88 C 2.66667 km/h
1766 15-02-2021 13:00:00 1.75 C 4.81 g/m*3 1.75 C 0.26667 km/h
1767 15-02-2021 14:00:00 1.825 C 5.01 g/m*3 1.83 C 1.06667 km/h
1768 15-02-2021 15:00:00 2.125 C 5.21 g/m*3 2.13 C 0.4 km/h
1769 15-02-2021 16:00:00 2.25 C 5.26 g/m*3 2.25 C 0.4 km/h
1770 15-02-2021 17:00:00 2.05 C 5.2 g/m*3 2.05 C 1.46667 km/h
1771 15-02-2021 18:00:00 1.80833 C 5.16 g/m*3 1.81 C 1.06667 km/h
1772 15-02-2021 19:00:00 1.75833 C 5.17 g/m*3 1.76 C 0 km/h
1773 15-02-2021 20:00:00 1.80833 C 5.21 g/m*3 1.81 C 0.13333 km/h
1774 15-02-2021 21:00:00 1.99167 C 5.3 g/m*3 1.99 C 0.53333 km/h
1775 15-02-2021 22:00:00 2.94167 C 5.69 g/m*3 2.94 C 3.20833 km/h
Sensor: Nr:Datum:Temp:Abs-Feuchte:Windchill:Wind:
Aussen-T/F 1776 15-02-2021 23:00:00 4 C 6.1 g/m*3 1.73 C 8.86667 km/h
1777 16-02-2021 00:00:00 4.13333 C 6.09 g/m*3 2.54 C 6.575 km/h
1778 16-02-2021 01:00:00 4.03333 C 6.05 g/m*3 4.03 C 2 km/h
1779 16-02-2021 02:00:00 4.075 C 6.11 g/m*3 4.08 C 2.93333 km/h
1780 16-02-2021 03:00:00 4.01667 C 6.11 g/m*3 4.02 C 2.93333 km/h
1781 16-02-2021 04:00:00 3.95 C 6.08 g/m*3 3.95 C 0.66667 km/h
1782 16-02-2021 05:00:00 3.94167 C 6.08 g/m*3 3.94 C 0 km/h
1783 16-02-2021 06:00:00 3.78333 C 6.02 g/m*3 3.78 C 0 km/h
1784 16-02-2021 07:00:00 3.34167 C 5.84 g/m*3 3.34 C 0 km/h
1785 16-02-2021 08:00:00 3.00833 C 5.73 g/m*3 3.01 C 0.53333 km/h
1786 16-02-2021 09:00:00 3.99167 C 6.16 g/m*3 3.99 C 0 km/h
1787 16-02-2021 10:00:00 5.025 C 6.6 g/m*3 5.03 C 0 km/h
1788 16-02-2021 11:00:00 6.3 C 7.18 g/m*3 6.3 C 0.13333 km/h
1789 16-02-2021 12:00:00 7.41667 C 7.69 g/m*3 7.42 C 0 km/h
1790 16-02-2021 13:00:00 8.89167 C 8.3 g/m*3 8.89 C 0.53333 km/h
1791 16-02-2021 14:00:00 9.775 C 8.56 g/m*3 9.78 C 0.93333 km/h
1792 16-02-2021 15:00:00 9.96667 C 8.23 g/m*3 9.97 C 3.2 km/h
1793 16-02-2021 16:00:00 8.75833 C 7.45 g/m*3 8.76 C 3.73333 km/h
1794 16-02-2021 17:00:00 6.99167 C 6.91 g/m*3 6.13 C 5.61667 km/h
1795 16-02-2021 18:00:00 5.89167 C 6.53 g/m*3 5.89 C 4.94167 km/h
1796 16-02-2021 19:00:00 5.4 C 6.45 g/m*3 4.46 C 5.20833 km/h
1797 16-02-2021 20:00:00 5.08333 C 6.38 g/m*3 5.08 C 3.73333 km/h
1798 16-02-2021 21:00:00 5.16667 C 6.47 g/m*3 5.17 C 1.6 km/h
1799 16-02-2021 22:00:00 5.75 C 6.78 g/m*3 5.75 C 1.86667 km/h
1800 16-02-2021 23:00:00 6.85 C 7.37 g/m*3 5.8 C 6.15833 km/h
Sensor: Nr:Datum:Temp:Abs-Feuchte:Windchill:Wind:
Aussen-T/F 1801 17-02-2021 00:00:00 7.325 C 7.52 g/m*3 5.13 C 11.68333 km/h
1802 17-02-2021 01:00:00 6.15 C 6.86 g/m*3 5.36 C 5.08333 km/h
1803 17-02-2021 02:00:00 6.31667 C 7.09 g/m*3 4.84 C 7.39167 km/h
1804 17-02-2021 03:00:00 6.55833 C 7.12 g/m*3 6.56 C 4.675 km/h
1805 17-02-2021 04:00:00 5.275 C 6.54 g/m*3 5.28 C 4.8 km/h
1806 17-02-2021 05:00:00 5.35833 C 6.67 g/m*3 4.41 C 5.20833 km/h
1807 17-02-2021 06:00:00 5.35 C 6.67 g/m*3 5.35 C 4.14167 km/h
1808 17-02-2021 07:00:00 4.86667 C 6.47 g/m*3 4.87 C 3.46667 km/h
1809 17-02-2021 08:00:00 5.575 C 6.82 g/m*3 4.66 C 5.20833 km/h
1810 17-02-2021 09:00:00 7.05 C 7.44 g/m*3 5.56 C 7.91667 km/h
1811 17-02-2021 10:00:00 8.7 C 7.84 g/m*3 6.6 C 12.89167 km/h
1812 17-02-2021 11:00:00 9.71667 C 7.9 g/m*3 7.71 C 13.83333 km/h
1813 17-02-2021 12:00:00 10.4 C 7.99 g/m*3 8.9 C 11.3 km/h
1814 17-02-2021 13:00:00 10.65 C 7.88 g/m*3 9.23 C 11.15833 km/h
1815 17-02-2021 14:00:00 10.85833 C 8.03 g/m*3 9.48 C 11.15833 km/h
1816 17-02-2021 15:00:00 11.06667 C 8.01 g/m*3 11.07 C 8.6 km/h
1817 17-02-2021 16:00:00 10.81667 C 8.09 g/m*3 10.15 C 7.1 km/h
1818 17-02-2021 17:00:00 9.55833 C 7.6 g/m*3 9.07 C 5.60833 km/h
1819 17-02-2021 18:00:00 7.375 C 7.1 g/m*3 7.38 C 4.93333 km/h
1820 17-02-2021 19:00:00 6.75833 C 7.02 g/m*3 6.76 C 3.73333 km/h
1821 17-02-2021 20:00:00 5.89167 C 6.63 g/m*3 5.89 C 1.06667 km/h
1822 17-02-2021 21:00:00 4.425 C 6.09 g/m*3 4.43 C 1.86667 km/h
1823 17-02-2021 22:00:00 3.29167 C 5.7 g/m*3 3.29 C 0.26667 km/h
1824 17-02-2021 23:00:00 2.375 C 5.39 g/m*3 2.38 C 0 km/h
1825 18-02-2021 00:00:00 1.64167 C 5.15 g/m*3 1.64 C 0 km/h
Sensor: Nr:Datum:Temp:Abs-Feuchte:Windchill:Wind:
Aussen-T/F 1826 18-02-2021 01:00:00 1.08333 C 4.96 g/m*3 1.08 C 0.13333 km/h
1827 18-02-2021 02:00:00 0.6 C 4.82 g/m*3 0.6 C 0 km/h
1828 18-02-2021 03:00:00 0.08333 C 4.67 g/m*3 0.08 C 0 km/h
1829 18-02-2021 04:00:00 -0.01667 C 4.65 g/m*3 -0.02 C 0 km/h
1830 18-02-2021 05:00:00 -0.26667 C 4.57 g/m*3 -0.27 C 0 km/h
1831 18-02-2021 06:00:00 -0.46667 C 4.5 g/m*3 -0.47 C 0 km/h
1832 18-02-2021 07:00:00 -0.31667 C 4.56 g/m*3 -0.32 C 0 km/h
1833 18-02-2021 08:00:00 0.30833 C 4.8 g/m*3 0.31 C 0.4 km/h
1834 18-02-2021 09:00:00 0.81667 C 4.97 g/m*3 0.82 C 0.26667 km/h
1835 18-02-2021 10:00:00 2.075 C 5.42 g/m*3 2.08 C 1.2 km/h
1836 18-02-2021 11:00:00 3.725 C 6.09 g/m*3 3.73 C 0.53333 km/h
1837 18-02-2021 12:00:00 5.55 C 6.9 g/m*3 5.55 C 0.13333 km/h
1838 18-02-2021 13:00:00 7.475 C 7.57 g/m*3 7.48 C 1.33333 km/h
1839 18-02-2021 14:00:00 8.58333 C 7.12 g/m*3 8.58 C 4.8 km/h
1840 18-02-2021 15:00:00 8.125 C 7.08 g/m*3 8.13 C 0.66667 km/h
1841 18-02-2021 16:00:00 8.48333 C 7.39 g/m*3 8.48 C 3.88333 km/h
1842 18-02-2021 17:00:00 8.25833 C 7.14 g/m*3 8.26 C 2.66667 km/h
1843 18-02-2021 18:00:00 6.88333 C 6.88 g/m*3 6.88 C 3.2 km/h
1844 18-02-2021 19:00:00 6.91667 C 6.94 g/m*3 6.92 C 4 km/h
1845 18-02-2021 20:00:00 7.375 C 7.13 g/m*3 7.38 C 3.06667 km/h
1846 18-02-2021 21:00:00 8.15 C 7.79 g/m*3 8.15 C 4.41667 km/h
1847 18-02-2021 22:00:00 8.15833 C 7.8 g/m*3 6.52 C 9.51667 km/h
1848 18-02-2021 23:00:00 6.80833 C 6.93 g/m*3 5.41 C 7.375 km/h
1849 19-02-2021 00:00:00 5.29167 C 6.31 g/m*3 3.23 C 9 km/h
1850 19-02-2021 01:00:00 5.11667 C 6.18 g/m*3 3.19 C 8.33333 km/h
Sensor: Nr:Datum:Temp:Abs-Feuchte:Windchill:Wind:
Aussen-T/F 1851 19-02-2021 02:00:00 4.01667 C 5.85 g/m*3 2.88 C 5.20833 km/h
1852 19-02-2021 03:00:00 3.65833 C 5.81 g/m*3 2.48 C 5.20833 km/h
1853 19-02-2021 04:00:00 3.54167 C 5.82 g/m*3 2.08 C 5.9 km/h
1854 19-02-2021 05:00:00 4.125 C 6.01 g/m*3 2.75 C 5.90833 km/h
1855 19-02-2021 06:00:00 3.25833 C 5.65 g/m*3 3.26 C 2 km/h
1856 19-02-2021 07:00:00 3.65 C 5.9 g/m*3 3.65 C 1.33333 km/h
1857 19-02-2021 08:00:00 4.2 C 6.15 g/m*3 4.2 C 1.73333 km/h
1858 19-02-2021 09:00:00 5.23333 C 6.54 g/m*3 5.23 C 0.53333 km/h
1859 19-02-2021 10:00:00 6.275 C 6.86 g/m*3 6.28 C 1.46667 km/h
1860 19-02-2021 11:00:00 7.65 C 7.21 g/m*3 7.65 C 0.53333 km/h
1861 19-02-2021 12:00:00 9 C 7.52 g/m*3 9 C 0.53333 km/h
1862 19-02-2021 13:00:00 10.01667 C 7.63 g/m*3 10.02 C 0.4 km/h
1863 19-02-2021 14:00:00 11.09167 C 7.79 g/m*3 11.09 C 3.08333 km/h
1864 19-02-2021 15:00:00 11.80833 C 7.56 g/m*3 11.81 C 6.99167 km/h
1865 19-02-2021 16:00:00 11.85 C 7.51 g/m*3 11.85 C 6.30833 km/h
1866 19-02-2021 17:00:00 10.28333 C 7.34 g/m*3 10.28 C 4.66667 km/h
1867 19-02-2021 18:00:00 7.3 C 6.76 g/m*3 6.37 C 6 km/h
1868 19-02-2021 19:00:00 6.275 C 6.64 g/m*3 6.28 C 4.26667 km/h
1869 19-02-2021 20:00:00 5.39167 C 6.35 g/m*3 5.39 C 0.8 km/h
1870 19-02-2021 21:00:00 4.175 C 5.96 g/m*3 4.18 C 0 km/h
1871 19-02-2021 22:00:00 3.71667 C 5.86 g/m*3 3.72 C 0.26667 km/h
1872 19-02-2021 23:00:00 3.19167 C 5.69 g/m*3 3.19 C 0 km/h
1873 20-02-2021 00:00:00 2.83333 C 5.59 g/m*3 2.83 C 0 km/h
1874 20-02-2021 01:00:00 2.48333 C 5.47 g/m*3 2.48 C 0 km/h
1875 20-02-2021 02:00:00 2.21667 C 5.39 g/m*3 2.22 C 0 km/h
Sensor: Nr:Datum:Temp:Abs-Feuchte:Windchill:Wind:
Aussen-T/F 1876 20-02-2021 03:00:00 2.125 C 5.38 g/m*3 2.13 C 0 km/h
1877 20-02-2021 04:00:00 1.58333 C 5.19 g/m*3 1.58 C 0 km/h
1878 20-02-2021 05:00:00 1.20833 C 5.05 g/m*3 1.21 C 0 km/h
1879 20-02-2021 06:00:00 0.85 C 4.93 g/m*3 0.85 C 0.26667 km/h
1880 20-02-2021 07:00:00 0.8 C 4.92 g/m*3 0.8 C 0.13333 km/h
1881 20-02-2021 08:00:00 1.25833 C 5.12 g/m*3 1.26 C 0 km/h
1882 20-02-2021 09:00:00 1.89167 C 5.35 g/m*3 1.89 C 0 km/h
1883 20-02-2021 10:00:00 3.41667 C 5.95 g/m*3 3.42 C 2 km/h
1884 20-02-2021 11:00:00 8.10833 C 8.16 g/m*3 8.11 C 3.2 km/h
1885 20-02-2021 12:00:00 11.60833 C 9.07 g/m*3 11.61 C 7.51667 km/h
1886 20-02-2021 13:00:00 14.96667 C 8.64 g/m*3 14.97 C 7.25 km/h
1887 20-02-2021 14:00:00 16.40833 C 8.6 g/m*3 16.41 C 6.83333 km/h
1888 20-02-2021 15:00:00 16.55833 C 8.67 g/m*3 16.56 C 3.75 km/h
1889 20-02-2021 16:00:00 16.01667 C 8.98 g/m*3 16.02 C 2.4 km/h
1890 20-02-2021 17:00:00 14.09167 C 9.02 g/m*3 14.09 C 4.13333 km/h
1891 20-02-2021 18:00:00 10.94167 C 8.29 g/m*3 10.52 C 6.14167 km/h
1892 20-02-2021 19:00:00 9.39167 C 7.94 g/m*3 8.7 C 6.275 km/h
1893 20-02-2021 20:00:00 8.46667 C 7.67 g/m*3 7.67 C 6.14167 km/h
1894 20-02-2021 21:00:00 7.675 C 7.36 g/m*3 7.68 C 3.86667 km/h
1895 20-02-2021 22:00:00 6.575 C 6.91 g/m*3 6.58 C 0.8 km/h
1896 20-02-2021 23:00:00 5.825 C 6.66 g/m*3 5.83 C 1.06667 km/h
1897 21-02-2021 00:00:00 4.53333 C 6.12 g/m*3 4.53 C 0 km/h
1898 21-02-2021 01:00:00 3.54167 C 5.81 g/m*3 3.54 C 0.53333 km/h
1899 21-02-2021 02:00:00 3.275 C 5.74 g/m*3 3.28 C 0 km/h
1900 21-02-2021 03:00:00 3.04167 C 5.66 g/m*3 3.04 C 0 km/h
Sensor: Nr:Datum:Temp:Abs-Feuchte:Windchill:Wind:
Aussen-T/F 1901 21-02-2021 04:00:00 2.325 C 5.42 g/m*3 2.33 C 0.26667 km/h
1902 21-02-2021 05:00:00 2.05 C 5.33 g/m*3 2.05 C 0.13333 km/h
1903 21-02-2021 06:00:00 1.70833 C 5.23 g/m*3 1.71 C 0.13333 km/h
1904 21-02-2021 07:00:00 1.19167 C 5.05 g/m*3 1.19 C 0.13333 km/h
1905 21-02-2021 08:00:00 1.21667 C 5.06 g/m*3 1.22 C 0.13333 km/h
1906 21-02-2021 09:00:00 2.01667 C 5.38 g/m*3 2.02 C 0.53333 km/h
1907 21-02-2021 10:00:00 3.925 C 6.15 g/m*3 3.93 C 0.8 km/h
1908 21-02-2021 11:00:00 7.24167 C 7.71 g/m*3 7.24 C 1.06667 km/h
1909 21-02-2021 12:00:00 11.425 C 8.78 g/m*3 11.43 C 4.14167 km/h
1910 21-02-2021 13:00:00 15.85 C 7.97 g/m*3 15.85 C 6.31667 km/h
1911 21-02-2021 14:00:00 17.91667 C 7.46 g/m*3 17.92 C 5.76667 km/h
1912 21-02-2021 15:00:00 17.48333 C 7.46 g/m*3 17.48 C 4.55 km/h
1913 21-02-2021 16:00:00 16.59167 C 7.66 g/m*3 16.59 C 5.06667 km/h
1914 21-02-2021 17:00:00 15.05833 C 7.71 g/m*3 15.06 C 6.68333 km/h
1915 21-02-2021 18:00:00 11.95833 C 7.5 g/m*3 11.96 C 8.21667 km/h
1916 21-02-2021 19:00:00 11.75833 C 7.57 g/m*3 11.76 C 9.425 km/h
1917 21-02-2021 20:00:00 10.83333 C 7.4 g/m*3 10.26 C 6.69167 km/h
1918 21-02-2021 21:00:00 8.63333 C 6.85 g/m*3 8.63 C 1.46667 km/h
1919 21-02-2021 22:00:00 6.55833 C 6.45 g/m*3 6.56 C 0 km/h
1920 21-02-2021 23:00:00 5.4 C 6.19 g/m*3 5.4 C 0 km/h
1921 22-02-2021 00:00:00 4.18333 C 5.85 g/m*3 4.18 C 0 km/h
1922 22-02-2021 01:00:00 3.50833 C 5.7 g/m*3 3.51 C 0.53333 km/h
1923 22-02-2021 02:00:00 2.675 C 5.41 g/m*3 2.68 C 0 km/h
1924 22-02-2021 03:00:00 1.88333 C 5.18 g/m*3 1.88 C 0 km/h
1925 22-02-2021 04:00:00 1.40833 C 5.05 g/m*3 1.41 C 0.13333 km/h
Sensor: Nr:Datum:Temp:Abs-Feuchte:Windchill:Wind:
Aussen-T/F 1926 22-02-2021 05:00:00 1.43333 C 5.09 g/m*3 1.43 C 2.4 km/h
1927 22-02-2021 06:00:00 1.05833 C 4.96 g/m*3 1.06 C 0.13333 km/h
1928 22-02-2021 07:00:00 1.25 C 5.07 g/m*3 1.25 C 1.06667 km/h
1929 22-02-2021 08:00:00 1.96667 C 5.32 g/m*3 1.97 C 1.33333 km/h
1930 22-02-2021 09:00:00 3.15833 C 5.79 g/m*3 3.16 C 0 km/h
1931 22-02-2021 10:00:00 4.85833 C 6.52 g/m*3 4.86 C 0.13333 km/h
1932 22-02-2021 11:00:00 6.3 C 6.93 g/m*3 6.3 C 0.93333 km/h
1933 22-02-2021 12:00:00 7.90833 C 7.18 g/m*3 7.91 C 1.2 km/h
1934 22-02-2021 13:00:00 9.33333 C 7.5 g/m*3 9.33 C 1.73333 km/h
1935 22-02-2021 14:00:00 11.34167 C 8.03 g/m*3 11.34 C 0 km/h
1936 22-02-2021 15:00:00 13.69167 C 8.28 g/m*3 13.69 C 0.8 km/h
1937 22-02-2021 16:00:00 14.44167 C 8.72 g/m*3 14.44 C 0 km/h
1938 22-02-2021 17:00:00 12.63333 C 8.37 g/m*3 12.63 C 2.93333 km/h
1939 22-02-2021 18:00:00 11.19167 C 8.1 g/m*3 11.19 C 1.6 km/h
1940 22-02-2021 19:00:00 10.50833 C 7.93 g/m*3 10.51 C 0 km/h
1941 22-02-2021 20:00:00 10.175 C 7.9 g/m*3 10.18 C 0 km/h
1942 22-02-2021 21:00:00 9.13333 C 7.5 g/m*3 9.13 C 0 km/h
1943 22-02-2021 22:00:00 7.86667 C 7.21 g/m*3 7.87 C 0 km/h
1944 22-02-2021 23:00:00 7.70833 C 7.3 g/m*3 7.71 C 0 km/h
1945 23-02-2021 00:00:00 7.375 C 7.19 g/m*3 7.38 C 0 km/h
1946 23-02-2021 01:00:00 7.2 C 7.18 g/m*3 7.2 C 0 km/h
1947 23-02-2021 02:00:00 7.26667 C 7.25 g/m*3 7.27 C 0 km/h
1948 23-02-2021 03:00:00 7.38333 C 7.32 g/m*3 7.38 C 0 km/h
1949 23-02-2021 04:00:00 7.36667 C 7.35 g/m*3 7.37 C 0 km/h
1950 23-02-2021 05:00:00 7.16667 C 7.24 g/m*3 7.17 C 0 km/h
Sensor: Nr:Datum:Temp:Abs-Feuchte:Windchill:Wind:
Aussen-T/F 1951 23-02-2021 06:00:00 6.33333 C 6.89 g/m*3 6.33 C 0 km/h
1952 23-02-2021 07:00:00 6.83333 C 7.27 g/m*3 6.83 C 1.2 km/h
1953 23-02-2021 08:00:00 7.975 C 7.78 g/m*3 7.98 C 1.73333 km/h
1954 23-02-2021 09:00:00 8.91667 C 8.13 g/m*3 8.92 C 0.13333 km/h
1955 23-02-2021 10:00:00 10.43333 C 8.69 g/m*3 10.43 C 0.66667 km/h
1956 23-02-2021 11:00:00 13.50833 C 9.58 g/m*3 13.51 C 1.2 km/h
1957 23-02-2021 12:00:00 16.23333 C 10.08 g/m*3 16.23 C 5.23333 km/h
1958 23-02-2021 13:00:00 18.51667 C 9.73 g/m*3 18.52 C 10.63333 km/h
1959 23-02-2021 14:00:00 19.725 C 9.76 g/m*3 19.73 C 6.43333 km/h
1960 23-02-2021 15:00:00 19.70833 C 9.71 g/m*3 19.71 C 8.19167 km/h
1961 23-02-2021 16:00:00 19.66667 C 9.58 g/m*3 19.67 C 4.26667 km/h
1962 23-02-2021 17:00:00 18.21667 C 9.46 g/m*3 18.22 C 5.88333 km/h
1963 23-02-2021 18:00:00 14.58333 C 9.24 g/m*3 14.58 C 6.4 km/h
1964 23-02-2021 19:00:00 12.85 C 9.03 g/m*3 12.85 C 4.66667 km/h
1965 23-02-2021 20:00:00 11.35 C 8.65 g/m*3 11.35 C 1.06667 km/h
1966 23-02-2021 21:00:00 10.10833 C 8.33 g/m*3 10.11 C 0 km/h
1967 23-02-2021 22:00:00 9.25 C 8.03 g/m*3 9.25 C 0 km/h
1968 23-02-2021 23:00:00 8.29167 C 7.7 g/m*3 8.29 C 0.4 km/h
1969 24-02-2021 00:00:00 7.91667 C 7.65 g/m*3 7.92 C 0.53333 km/h
1970 24-02-2021 01:00:00 7.1 C 7.27 g/m*3 7.1 C 0.13333 km/h
1971 24-02-2021 02:00:00 6.45833 C 7.02 g/m*3 6.46 C 0 km/h
1972 24-02-2021 03:00:00 5.96667 C 6.86 g/m*3 5.97 C 0 km/h
1973 24-02-2021 04:00:00 5.5 C 6.67 g/m*3 5.5 C 0 km/h
1974 24-02-2021 05:00:00 5.11667 C 6.51 g/m*3 5.12 C 0 km/h
1975 24-02-2021 06:00:00 4.65833 C 6.34 g/m*3 4.66 C 0 km/h
Sensor: Nr:Datum:Temp:Abs-Feuchte:Windchill:Wind:
Aussen-T/F 1976 24-02-2021 07:00:00 4.79167 C 6.43 g/m*3 4.79 C 0.4 km/h
1977 24-02-2021 08:00:00 5.55 C 6.8 g/m*3 5.55 C 0.4 km/h
1978 24-02-2021 09:00:00 6.575 C 7.31 g/m*3 6.58 C 0.26667 km/h
1979 24-02-2021 10:00:00 7.44167 C 7.73 g/m*3 7.44 C 0 km/h
1980 24-02-2021 11:00:00 9.74167 C 8.97 g/m*3 9.74 C 0 km/h
1981 24-02-2021 12:00:00 13.26667 C 10.67 g/m*3 13.27 C 0 km/h
1982 24-02-2021 13:00:00 17.18333 C 10.55 g/m*3 17.18 C 6.025 km/h
1983 24-02-2021 14:00:00 18.73333 C 10.36 g/m*3 18.73 C 4.28333 km/h
1984 24-02-2021 15:00:00 18.79167 C 10.41 g/m*3 18.79 C 1.475 km/h
1985 24-02-2021 16:00:00 18.89167 C 10.34 g/m*3 18.89 C 0.13333 km/h
1986 24-02-2021 17:00:00 16.73333 C 9.86 g/m*3 16.73 C 0.93333 km/h
1987 24-02-2021 18:00:00 13.725 C 9.11 g/m*3 13.73 C 0.26667 km/h
1988 24-02-2021 19:00:00 11.96667 C 8.69 g/m*3 11.97 C 0 km/h
1989 24-02-2021 20:00:00 10.1 C 8.15 g/m*3 10.1 C 0 km/h
1990 24-02-2021 21:00:00 8.825 C 7.84 g/m*3 8.82 C 0 km/h
1991 24-02-2021 22:00:00 8.05833 C 7.62 g/m*3 8.06 C 0 km/h
1992 24-02-2021 23:00:00 7.33333 C 7.36 g/m*3 7.33 C 0 km/h
1993 25-02-2021 00:00:00 6.60833 C 7.09 g/m*3 6.61 C 0.13333 km/h
1994 25-02-2021 01:00:00 6.15833 C 6.92 g/m*3 6.16 C 0.53333 km/h
1995 25-02-2021 02:00:00 5.61667 C 6.72 g/m*3 5.62 C 0 km/h
1996 25-02-2021 03:00:00 5.19167 C 6.54 g/m*3 5.19 C 0 km/h
1997 25-02-2021 04:00:00 4.475 C 6.23 g/m*3 4.47 C 0 km/h
1998 25-02-2021 05:00:00 4.175 C 6.14 g/m*3 4.18 C 0.13333 km/h
1999 25-02-2021 06:00:00 3.76667 C 6 g/m*3 3.77 C 0 km/h
2000 25-02-2021 07:00:00 3.33333 C 5.84 g/m*3 3.33 C 0 km/h
Sensor: Nr:Datum:Temp:Abs-Feuchte:Windchill:Wind:
Aussen-T/F 2001 25-02-2021 08:00:00 3.74167 C 6 g/m*3 3.74 C 0 km/h
2002 25-02-2021 09:00:00 4.56667 C 6.39 g/m*3 4.57 C 0 km/h
2003 25-02-2021 10:00:00 6.4 C 7.23 g/m*3 6.4 C 0.4 km/h
2004 25-02-2021 11:00:00 9.25833 C 8.68 g/m*3 9.26 C 1.33333 km/h
2005 25-02-2021 12:00:00 13.89167 C 8.89 g/m*3 13.89 C 1.2 km/h
2006 25-02-2021 13:00:00 17.64167 C 8.88 g/m*3 17.64 C 1.73333 km/h
2007 25-02-2021 14:00:00 19.93333 C 8.88 g/m*3 19.93 C 2.53333 km/h
2008 25-02-2021 15:00:00 18.975 C 8.53 g/m*3 18.98 C 5.475 km/h
2009 25-02-2021 16:00:00 18.51667 C 8.05 g/m*3 18.52 C 3.74167 km/h
2010 25-02-2021 17:00:00 15.69167 C 7.79 g/m*3 15.69 C 6.55 km/h
2011 25-02-2021 18:00:00 12.9 C 7.49 g/m*3 12.9 C 5.6 km/h
2012 25-02-2021 19:00:00 11.68333 C 7.31 g/m*3 11.68 C 2.13333 km/h
2013 25-02-2021 20:00:00 10.78333 C 7.36 g/m*3 10.78 C 0.8 km/h
2014 25-02-2021 21:00:00 10.03333 C 7.16 g/m*3 10.03 C 3.34167 km/h
2015 25-02-2021 22:00:00 8.75833 C 6.83 g/m*3 8.76 C 0.4 km/h
2016 25-02-2021 23:00:00 7.2 C 6.6 g/m*3 7.2 C 1.33333 km/h
2017 26-02-2021 00:00:00 6.60833 C 6.59 g/m*3 6.61 C 1.73333 km/h
2018 26-02-2021 01:00:00 6.425 C 6.64 g/m*3 6.43 C 2.53333 km/h
2019 26-02-2021 02:00:00 6.38333 C 6.67 g/m*3 6.38 C 0.8 km/h
2020 26-02-2021 03:00:00 7 C 6.9 g/m*3 7 C 0 km/h
2021 26-02-2021 04:00:00 7.225 C 6.94 g/m*3 7.23 C 0.13333 km/h
2022 26-02-2021 05:00:00 7.64167 C 7.1 g/m*3 7.64 C 3.075 km/h
2023 26-02-2021 06:00:00 8.03333 C 7.35 g/m*3 7.32 C 5.63333 km/h
2024 26-02-2021 07:00:00 8.38333 C 7.63 g/m*3 6.59 C 10.61667 km/h
2025 26-02-2021 08:00:00 7.8 C 7.36 g/m*3 6.38 C 8.19167 km/h
Sensor: Nr:Datum:Temp:Abs-Feuchte:Windchill:Wind:
Aussen-T/F 2026 26-02-2021 09:00:00 6.99167 C 7.01 g/m*3 5.56 C 7.64167 km/h
2027 26-02-2021 10:00:00 6.63333 C 6.97 g/m*3 6.63 C 2.26667 km/h
2028 26-02-2021 11:00:00 6.80833 C 7.11 g/m*3 6.81 C 3.88333 km/h
2029 26-02-2021 12:00:00 7.025 C 7.23 g/m*3 7.03 C 3.60833 km/h
2030 26-02-2021 13:00:00 7.50833 C 7.35 g/m*3 7.51 C 0.66667 km/h
2031 26-02-2021 14:00:00 8.44167 C 7.58 g/m*3 8.44 C 1.6 km/h
2032 26-02-2021 15:00:00 8.76667 C 7.71 g/m*3 8.77 C 0.8 km/h
2033 26-02-2021 16:00:00 9.29167 C 7.33 g/m*3 9.29 C 4.80833 km/h
2034 26-02-2021 17:00:00 9.35 C 6.69 g/m*3 8.99 C 5.09167 km/h
2035 26-02-2021 18:00:00 7.41667 C 6.16 g/m*3 7.42 C 3.20833 km/h
2036 26-02-2021 19:00:00 6.50833 C 6.22 g/m*3 6.51 C 3.06667 km/h
2037 26-02-2021 20:00:00 6.225 C 6.4 g/m*3 6.23 C 1.2 km/h
2038 26-02-2021 21:00:00 5.475 C 6.12 g/m*3 5.48 C 3.46667 km/h
2039 26-02-2021 22:00:00 3.73333 C 5.6 g/m*3 3.73 C 1.33333 km/h
2040 26-02-2021 23:00:00 2.55833 C 5.28 g/m*3 2.56 C 0.13333 km/h
2041 27-02-2021 00:00:00 1.79167 C 5.1 g/m*3 1.79 C 0.13333 km/h
2042 27-02-2021 01:00:00 1.38333 C 5.01 g/m*3 1.38 C 0.13333 km/h
2043 27-02-2021 02:00:00 0.85833 C 4.83 g/m*3 0.86 C 0.13333 km/h
2044 27-02-2021 03:00:00 0.46667 C 4.74 g/m*3 0.47 C 0 km/h
2045 27-02-2021 04:00:00 0.04167 C 4.62 g/m*3 0.04 C 0.13333 km/h
2046 27-02-2021 05:00:00 -0.175 C 4.55 g/m*3 -0.18 C 0 km/h
2047 27-02-2021 06:00:00 -0.40833 C 4.47 g/m*3 -0.41 C 0 km/h
2048 27-02-2021 07:00:00 -0.19167 C 4.57 g/m*3 -0.19 C 0.26667 km/h
2049 27-02-2021 08:00:00 1.25 C 5.08 g/m*3 1.25 C 0.4 km/h
2050 27-02-2021 09:00:00 2.35833 C 5.48 g/m*3 2.36 C 0.53333 km/h
Sensor: Nr:Datum:Temp:Abs-Feuchte:Windchill:Wind:
Aussen-T/F 2051 27-02-2021 10:00:00 3.1 C 5.75 g/m*3 3.1 C 0.66667 km/h
2052 27-02-2021 11:00:00 4.31667 C 6.17 g/m*3 4.32 C 1.73333 km/h
2053 27-02-2021 12:00:00 6.15 C 6.54 g/m*3 6.15 C 1.86667 km/h
2054 27-02-2021 13:00:00 8.29167 C 6.55 g/m*3 7.02 C 7.90833 km/h
2055 27-02-2021 14:00:00 9.35833 C 6.43 g/m*3 8.92 C 5.35833 km/h
2056 27-02-2021 15:00:00 9.85833 C 6.34 g/m*3 9.38 C 5.74167 km/h
2057 27-02-2021 16:00:00 10.59167 C 6.27 g/m*3 10.01 C 6.58333 km/h
2058 27-02-2021 17:00:00 10.86667 C 6.57 g/m*3 10.87 C 2.93333 km/h
2059 27-02-2021 18:00:00 7.25 C 6.22 g/m*3 7.25 C 4.4 km/h
2060 27-02-2021 19:00:00 5.225 C 5.91 g/m*3 5.23 C 4.93333 km/h
2061 27-02-2021 20:00:00 4.625 C 5.9 g/m*3 4.63 C 3.88333 km/h
2062 27-02-2021 21:00:00 5.84167 C 6.13 g/m*3 5.84 C 3.475 km/h
2063 27-02-2021 22:00:00 5.89167 C 6.03 g/m*3 4.78 C 5.9 km/h
2064 27-02-2021 23:00:00 5.8 C 5.94 g/m*3 5.8 C 2.66667 km/h
2065 28-02-2021 00:00:00 5.825 C 5.86 g/m*3 5.83 C 2.95833 km/h
2066 28-02-2021 01:00:00 5.825 C 5.76 g/m*3 4.94 C 5.225 km/h
2067 28-02-2021 02:00:00 5.68333 C 5.69 g/m*3 5.68 C 3.88333 km/h
2068 28-02-2021 03:00:00 5.43333 C 5.48 g/m*3 4.54 C 5.09167 km/h
2069 28-02-2021 04:00:00 5.06667 C 5.42 g/m*3 5.07 C 1.33333 km/h
2070 28-02-2021 05:00:00 4.75833 C 5.39 g/m*3 4.76 C 2.13333 km/h
2071 28-02-2021 06:00:00 3.28333 C 5.08 g/m*3 3.28 C 0.66667 km/h
2072 28-02-2021 07:00:00 1.58333 C 4.75 g/m*3 1.58 C 0.26667 km/h
2073 28-02-2021 08:00:00 1.09167 C 4.76 g/m*3 1.09 C 0.53333 km/h
2074 28-02-2021 09:00:00 1.65833 C 4.99 g/m*3 1.66 C 1.73333 km/h
2075 28-02-2021 10:00:00 3.55 C 5.45 g/m*3 3.55 C 3.73333 km/h
Sensor: Nr:Datum:Temp:Abs-Feuchte:Windchill:Wind:
Aussen-T/F 2076 28-02-2021 11:00:00 6.55833 C 5.63 g/m*3 5.77 C 5.23333 km/h
2077 28-02-2021 12:00:00 8.34167 C 5.66 g/m*3 8.34 C 4.54167 km/h
2078 28-02-2021 13:00:00 9.875 C 5.78 g/m*3 9.88 C 3.6 km/h
2079 28-02-2021 14:00:00 11.30833 C 5.49 g/m*3 11.31 C 10.725 km/h
2080 28-02-2021 15:00:00 11.63333 C 5.25 g/m*3 11.63 C 9.54167 km/h
2081 28-02-2021 16:00:00 12.35 C 5.26 g/m*3 12.35 C 6.575 km/h
2082 28-02-2021 17:00:00 12.00833 C 5.87 g/m*3 12.01 C 2.275 km/h
2083 28-02-2021 18:00:00 7.725 C 5.58 g/m*3 6.78 C 6.26667 km/h
2084 28-02-2021 19:00:00 5.575 C 5.43 g/m*3 4.38 C 6.01667 km/h
2085 28-02-2021 20:00:00 4.425 C 5.37 g/m*3 4.43 C 4.26667 km/h
2086 28-02-2021 21:00:00 3.14167 C 5.17 g/m*3 3.14 C 0 km/h
2087 28-02-2021 22:00:00 2.275 C 5.03 g/m*3 2.28 C 0 km/h
2088 28-02-2021 23:00:00 1.24167 C 4.78 g/m*3 1.24 C 0 km/h
2089 01-03-2021 00:00:00 0.76667 C 4.7 g/m*3 0.77 C 0 km/h
2090 01-03-2021 01:00:00 0.1 C 4.53 g/m*3 0.1 C 0 km/h
2091 01-03-2021 02:00:00 -0.25833 C 4.46 g/m*3 -0.26 C 0 km/h
2092 01-03-2021 03:00:00 -0.55833 C 4.38 g/m*3 -0.56 C 0 km/h
2093 01-03-2021 04:00:00 -0.9 C 4.29 g/m*3 -0.9 C 0 km/h
2094 01-03-2021 05:00:00 -1.275 C 4.2 g/m*3 -1.27 C 0 km/h
2095 01-03-2021 06:00:00 -1.475 C 4.15 g/m*3 -1.48 C 0.13333 km/h
2096 01-03-2021 07:00:00 -1.71667 C 4.08 g/m*3 -1.72 C 0 km/h
2097 01-03-2021 08:00:00 -1.45 C 4.17 g/m*3 -1.45 C 0 km/h
2098 01-03-2021 09:00:00 -0.575 C 4.46 g/m*3 -0.57 C 0 km/h
2099 01-03-2021 10:00:00 1.31667 C 5.11 g/m*3 1.32 C 2 km/h
2100 01-03-2021 11:00:00 3.9 C 6 g/m*3 2.4 C 6.175 km/h
Sensor: Nr:Datum:Temp:Abs-Feuchte:Windchill:Wind:
Aussen-T/F 2101 01-03-2021 12:00:00 7 C 6.2 g/m*3 6.15 C 5.6 km/h
2102 01-03-2021 13:00:00 9.88333 C 6.3 g/m*3 9.4 C 5.75 km/h
2103 01-03-2021 14:00:00 11.93333 C 6.09 g/m*3 11.93 C 4.94167 km/h
2104 01-03-2021 15:00:00 12.71667 C 6.12 g/m*3 12.72 C 5.89167 km/h
2105 01-03-2021 16:00:00 13.74167 C 6.4 g/m*3 13.74 C 6.71667 km/h
2106 01-03-2021 17:00:00 13.53333 C 6.85 g/m*3 13.53 C 4.80833 km/h
2107 01-03-2021 18:00:00 9.18333 C 6.52 g/m*3 9.18 C 0 km/h
2108 01-03-2021 19:00:00 6.8 C 6.16 g/m*3 6.8 C 3.73333 km/h
2109 01-03-2021 20:00:00 5.60833 C 5.93 g/m*3 5.61 C 3.46667 km/h
2110 01-03-2021 21:00:00 5.14167 C 5.93 g/m*3 5.14 C 4.26667 km/h
2111 01-03-2021 22:00:00 4.50833 C 5.86 g/m*3 4.51 C 3.6 km/h
2112 01-03-2021 23:00:00 3.26667 C 5.48 g/m*3 3.27 C 0 km/h
2113 02-03-2021 00:00:00 2.14167 C 5.18 g/m*3 2.14 C 0 km/h
2114 02-03-2021 01:00:00 1.66667 C 5.08 g/m*3 1.67 C 0 km/h
2115 02-03-2021 02:00:00 1 C 4.88 g/m*3 1 C 0 km/h
2116 02-03-2021 03:00:00 0.325 C 4.66 g/m*3 0.33 C 0 km/h
2117 02-03-2021 04:00:00 0.025 C 4.61 g/m*3 0.03 C 0 km/h
2118 02-03-2021 05:00:00 -0.325 C 4.5 g/m*3 -0.33 C 0 km/h
2119 02-03-2021 06:00:00 -0.45833 C 4.46 g/m*3 -0.46 C 0 km/h
2120 02-03-2021 07:00:00 -0.58333 C 4.43 g/m*3 -0.58 C 0 km/h
2121 02-03-2021 08:00:00 -0.83333 C 4.35 g/m*3 -0.83 C 0 km/h
2122 02-03-2021 09:00:00 -0.08333 C 4.62 g/m*3 -0.08 C 0 km/h
2123 02-03-2021 10:00:00 1.625 C 5.23 g/m*3 1.63 C 0 km/h
2124 02-03-2021 11:00:00 5.225 C 6.69 g/m*3 5.23 C 0 km/h
2125 02-03-2021 12:00:00 8.925 C 7.96 g/m*3 8.93 C 0 km/h
Sensor: Nr:Datum:Temp:Abs-Feuchte:Windchill:Wind:
Aussen-T/F 2126 02-03-2021 13:00:00 13.59167 C 8.19 g/m*3 13.59 C 0 km/h
2127 02-03-2021 14:00:00 16.175 C 7.49 g/m*3 16.18 C 1.2 km/h
2128 02-03-2021 15:00:00 15.58333 C 7.25 g/m*3 15.58 C 2 km/h
2129 02-03-2021 16:00:00 15.725 C 7.56 g/m*3 15.73 C 1.86667 km/h
2130 02-03-2021 17:00:00 14.525 C 7.54 g/m*3 14.53 C 5.46667 km/h
2131 02-03-2021 18:00:00 10.81667 C 6.91 g/m*3 10.27 C 6.575 km/h
2132 02-03-2021 19:00:00 8.775 C 6.67 g/m*3 8.78 C 4.93333 km/h
2133 02-03-2021 20:00:00 7.50833 C 6.55 g/m*3 6.86 C 5.2 km/h
2134 02-03-2021 21:00:00 6.21667 C 6.24 g/m*3 6.22 C 1.86667 km/h
2135 02-03-2021 22:00:00 4.79167 C 5.91 g/m*3 4.79 C 0.53333 km/h
2136 02-03-2021 23:00:00 3.46667 C 5.52 g/m*3 3.47 C 0 km/h
2137 03-03-2021 00:00:00 2.61667 C 5.32 g/m*3 2.62 C 0.13333 km/h
2138 03-03-2021 01:00:00 2.05 C 5.19 g/m*3 2.05 C 0 km/h
2139 03-03-2021 02:00:00 1.41667 C 5 g/m*3 1.42 C 0 km/h
2140 03-03-2021 03:00:00 1.09167 C 4.91 g/m*3 1.09 C 0 km/h
2141 03-03-2021 04:00:00 1.24167 C 5.01 g/m*3 1.24 C 0 km/h
2142 03-03-2021 05:00:00 0.89167 C 4.89 g/m*3 0.89 C 0.53333 km/h
2143 03-03-2021 06:00:00 0.83333 C 4.88 g/m*3 0.83 C 0 km/h
2144 03-03-2021 07:00:00 0.75833 C 4.86 g/m*3 0.76 C 0 km/h
2145 03-03-2021 08:00:00 1.54167 C 5.17 g/m*3 1.54 C 0 km/h
2146 03-03-2021 09:00:00 2.4 C 5.47 g/m*3 2.4 C 0.4 km/h
2147 03-03-2021 10:00:00 3.43333 C 5.83 g/m*3 3.43 C 0 km/h
2148 03-03-2021 11:00:00 6.2 C 6.61 g/m*3 6.2 C 0 km/h
2149 03-03-2021 12:00:00 10.13333 C 7.19 g/m*3 10.13 C 0 km/h
2150 03-03-2021 13:00:00 13.675 C 7.58 g/m*3 13.68 C 0.8 km/h
Sensor: Nr:Datum:Temp:Abs-Feuchte:Windchill:Wind:
Aussen-T/F 2151 03-03-2021 14:00:00 15.6 C 7.58 g/m*3 15.6 C 1.075 km/h
2152 03-03-2021 15:00:00 16.20833 C 7.58 g/m*3 16.21 C 0 km/h
2153 03-03-2021 16:00:00 16.59167 C 7.9 g/m*3 16.59 C 0 km/h
2154 03-03-2021 17:00:00 14.38333 C 7.98 g/m*3 14.38 C 0 km/h
2155 03-03-2021 18:00:00 11.225 C 7.33 g/m*3 11.23 C 0 km/h
2156 03-03-2021 19:00:00 9.75 C 7.11 g/m*3 9.75 C 0 km/h
2157 03-03-2021 20:00:00 8.625 C 6.91 g/m*3 8.63 C 0 km/h
2158 03-03-2021 21:00:00 7.79167 C 6.8 g/m*3 7.79 C 0 km/h
2159 03-03-2021 22:00:00 7.88333 C 6.87 g/m*3 7.88 C 0 km/h
2160 03-03-2021 23:00:00 7.79167 C 6.88 g/m*3 7.79 C 0 km/h

Maximal/Minimal-Werte vom 23.02.2003 - 03.08.2020

Sensor Min Max Avg
Temp
(Aussen-T/F)
-16.4 °C
20-12-2009  01:30:01
40.4 °C
25-07-2019  16:20:00
11.23 °C

Die Daten stammen von einer Davis Vantage Pro 2 Wetter-Station und werden unter Linux mit der Software wview2wettercgi und aufbereitet. Alle Angaben erfolgen ohne Gewähr für ihre Vollständigkeit oder Richtigkeit.
Kontakt: Rainer Krienke krienke@uni-koblenz.de . Meine Webseiten an der Uni Koblenz oder privat.
Version: $Revision: 0.78 $